<?xml version='1.0' encoding='UTF-8'?><gpx version="1.1" creator="JPX - https://github.com/jenetics/jpx" xmlns="http://www.topografix.com/GPX/1/1"><trk><trkseg><trkpt lat="39.987453471272" lon="9.688396680214908"><ele>8.0</ele><time>2026-03-29T08:53:41Z</time></trkpt><trkpt lat="39.98749870476893" lon="9.688245231513713"><ele>8.0</ele><time>2026-03-29T08:53:43Z</time></trkpt><trkpt lat="39.98752893017084" lon="9.688137402460388"><ele>8.0</ele><time>2026-03-29T08:53:45Z</time></trkpt><trkpt lat="39.987568233954626" lon="9.688032807895027"><ele>8.0</ele><time>2026-03-29T08:53:47Z</time></trkpt><trkpt lat="39.987612706213525" lon="9.687898877478226"><ele>8.0</ele><time>2026-03-29T08:53:49Z</time></trkpt><trkpt lat="39.987642220438964" lon="9.687817931429743"><ele>9.0</ele><time>2026-03-29T08:53:50Z</time></trkpt><trkpt lat="39.98768409076216" lon="9.687737193137963"><ele>10.0</ele><time>2026-03-29T08:53:51Z</time></trkpt><trkpt lat="39.987719680856664" lon="9.687634865337847"><ele>11.0</ele><time>2026-03-29T08:53:52Z</time></trkpt><trkpt lat="39.98776068799284" lon="9.687516746491648"><ele>12.0</ele><time>2026-03-29T08:53:53Z</time></trkpt><trkpt lat="39.98780009102563" lon="9.68740316956041"><ele>13.000000000000002</ele><time>2026-03-29T08:53:54Z</time></trkpt><trkpt lat="39.98783775709232" lon="9.687294530014471"><ele>14.0</ele><time>2026-03-29T08:53:55Z</time></trkpt><trkpt lat="39.98787402479336" lon="9.687189923746718"><ele>14.000000000000002</ele><time>2026-03-29T08:53:56Z</time></trkpt><trkpt lat="39.98790741892281" lon="9.687094276749137"><ele>14.0</ele><time>2026-03-29T08:53:57Z</time></trkpt><trkpt lat="39.9879394560057" lon="9.687002763454522"><ele>14.0</ele><time>2026-03-29T08:53:58Z</time></trkpt><trkpt lat="39.98797371491987" lon="9.686905243393893"><ele>14.0</ele><time>2026-03-29T08:53:59Z</time></trkpt><trkpt lat="39.98801133862025" lon="9.686800899327334"><ele>14.000000000000002</ele><time>2026-03-29T08:54:00Z</time></trkpt><trkpt lat="39.98805287718685" lon="9.68668867208527"><ele>14.0</ele><time>2026-03-29T08:54:01Z</time></trkpt><trkpt lat="39.98809686074132" lon="9.686576983747479"><ele>15.399999999999999</ele><time>2026-03-29T08:54:01.999Z</time></trkpt><trkpt lat="39.98814485617457" lon="9.686468813348432"><ele>16.799999999999997</ele><time>2026-03-29T08:54:02.999Z</time></trkpt><trkpt lat="39.98819759954098" lon="9.686362441816085"><ele>18.200000000000003</ele><time>2026-03-29T08:54:03.999Z</time></trkpt><trkpt lat="39.9882509275434" lon="9.686263702343398"><ele>19.6</ele><time>2026-03-29T08:54:04.999Z</time></trkpt><trkpt lat="39.98830597639293" lon="9.68617458414433"><ele>21.0</ele><time>2026-03-29T08:54:05.999Z</time></trkpt><trkpt lat="39.9883638630555" lon="9.686085755851227"><ele>22.200000000000003</ele><time>2026-03-29T08:54:06.999Z</time></trkpt><trkpt lat="39.988418936840304" lon="9.685993476962876"><ele>23.400000000000002</ele><time>2026-03-29T08:54:07.999Z</time></trkpt><trkpt lat="39.98848621011429" lon="9.68591900963752"><ele>24.6</ele><time>2026-03-29T08:54:08.999Z</time></trkpt><trkpt lat="39.988540916044116" lon="9.685823288096062"><ele>25.8</ele><time>2026-03-29T08:54:09.999Z</time></trkpt><trkpt lat="39.98860330092974" lon="9.685729784358346"><ele>27.0</ele><time>2026-03-29T08:54:10.999Z</time></trkpt><trkpt lat="39.98868407058823" lon="9.685658677105875"><ele>27.0</ele><time>2026-03-29T08:54:11.999Z</time></trkpt><trkpt lat="39.988746812157224" lon="9.685557625386329"><ele>27.000000000000004</ele><time>2026-03-29T08:54:12.999Z</time></trkpt><trkpt lat="39.98882272417154" lon="9.685472873710316"><ele>27.000000000000004</ele><time>2026-03-29T08:54:13.999Z</time></trkpt><trkpt lat="39.98889717854111" lon="9.685383274881682"><ele>27.0</ele><time>2026-03-29T08:54:14.999Z</time></trkpt><trkpt lat="39.988977333929995" lon="9.685281687834394"><ele>27.0</ele><time>2026-03-29T08:54:15.999Z</time></trkpt><trkpt lat="39.9890583955786" lon="9.685183757363903"><ele>27.166666666666668</ele><time>2026-03-29T08:54:16.999Z</time></trkpt><trkpt lat="39.98911916633194" lon="9.685111925765362"><ele>27.333333333333336</ele><time>2026-03-29T08:54:17.999Z</time></trkpt><trkpt lat="39.989178004759495" lon="9.685050170133698"><ele>27.5</ele><time>2026-03-29T08:54:18.999Z</time></trkpt><trkpt lat="39.989235222971985" lon="9.684974705957627"><ele>27.666666666666668</ele><time>2026-03-29T08:54:19.999Z</time></trkpt><trkpt lat="39.98928420898466" lon="9.68487727654225"><ele>27.833333333333336</ele><time>2026-03-29T08:54:21Z</time></trkpt><trkpt lat="39.98935510331272" lon="9.684790892669682"><ele>28.0</ele><time>2026-03-29T08:54:22Z</time></trkpt><trkpt lat="39.989415890618446" lon="9.684673451321837"><ele>28.0</ele><time>2026-03-29T08:54:23Z</time></trkpt><trkpt lat="39.989474770979825" lon="9.684546232544097"><ele>27.999999999999996</ele><time>2026-03-29T08:54:24Z</time></trkpt><trkpt lat="39.98950494155742" lon="9.684426758772508"><ele>27.999999999999996</ele><time>2026-03-29T08:54:25Z</time></trkpt><trkpt lat="39.98956663504699" lon="9.684317805469473"><ele>28.0</ele><time>2026-03-29T08:54:26Z</time></trkpt><trkpt lat="39.989607950892626" lon="9.684189628800924"><ele>28.0</ele><time>2026-03-29T08:54:27Z</time></trkpt><trkpt lat="39.98964534021914" lon="9.684060022006845"><ele>29.0</ele><time>2026-03-29T08:54:28Z</time></trkpt><trkpt lat="39.98967350430475" lon="9.683925799307186"><ele>29.999999999999996</ele><time>2026-03-29T08:54:29Z</time></trkpt><trkpt lat="39.98969372359825" lon="9.683791419687491"><ele>30.999999999999996</ele><time>2026-03-29T08:54:30Z</time></trkpt><trkpt lat="39.98970862146778" lon="9.68368165556061"><ele>32.0</ele><time>2026-03-29T08:54:31Z</time></trkpt><trkpt lat="39.989720220924525" lon="9.683587302526563"><ele>33.0</ele><time>2026-03-29T08:54:32Z</time></trkpt><trkpt lat="39.989737500507495" lon="9.683440762224645"><ele>33.6</ele><time>2026-03-29T08:54:34Z</time></trkpt><trkpt lat="39.98975621733328" lon="9.683277677357738"><ele>34.199999999999996</ele><time>2026-03-29T08:54:36Z</time></trkpt><trkpt lat="39.989766659258095" lon="9.683186694032655"><ele>34.8</ele><time>2026-03-29T08:54:37Z</time></trkpt><trkpt lat="39.98978430684931" lon="9.683032925780935"><ele>35.4</ele><time>2026-03-29T08:54:39Z</time></trkpt><trkpt lat="39.98979695629152" lon="9.68292270942695"><ele>36.0</ele><time>2026-03-29T08:54:40Z</time></trkpt><trkpt lat="39.989810320674096" lon="9.682781695809446"><ele>36.5</ele><time>2026-03-29T08:54:41Z</time></trkpt><trkpt lat="39.98982669734313" lon="9.682633663932373"><ele>37.0</ele><time>2026-03-29T08:54:42Z</time></trkpt><trkpt lat="39.98985342791121" lon="9.682497375733329"><ele>37.5</ele><time>2026-03-29T08:54:43Z</time></trkpt><trkpt lat="39.989887139996206" lon="9.682346547941147"><ele>38.0</ele><time>2026-03-29T08:54:44Z</time></trkpt><trkpt lat="39.98991965522877" lon="9.682201074919336"><ele>38.0</ele><time>2026-03-29T08:54:45Z</time></trkpt><trkpt lat="39.989950328631295" lon="9.682063842184595"><ele>38.0</ele><time>2026-03-29T08:54:46Z</time></trkpt><trkpt lat="39.9899793677081" lon="9.681933921919397"><ele>38.0</ele><time>2026-03-29T08:54:47Z</time></trkpt><trkpt lat="39.9900108779705" lon="9.681809754381554"><ele>38.0</ele><time>2026-03-29T08:54:48Z</time></trkpt><trkpt lat="39.990042121650596" lon="9.68168882427791"><ele>38.0</ele><time>2026-03-29T08:54:49Z</time></trkpt><trkpt lat="39.990073478883616" lon="9.681567454616863"><ele>40.0</ele><time>2026-03-29T08:54:50Z</time></trkpt><trkpt lat="39.99010878127839" lon="9.681425373379609"><ele>42.0</ele><time>2026-03-29T08:54:51Z</time></trkpt><trkpt lat="39.99013697016126" lon="9.681270524247177"><ele>44.0</ele><time>2026-03-29T08:54:52Z</time></trkpt><trkpt lat="39.99012906990837" lon="9.681101153660528"><ele>46.0</ele><time>2026-03-29T08:54:53Z</time></trkpt><trkpt lat="39.99010761765454" lon="9.680933884353243"><ele>48.5</ele><time>2026-03-29T08:54:54Z</time></trkpt><trkpt lat="39.990056973506356" lon="9.68075828449465"><ele>51.0</ele><time>2026-03-29T08:54:55Z</time></trkpt><trkpt lat="39.99001278812573" lon="9.680574088641224"><ele>53.5</ele><time>2026-03-29T08:54:56Z</time></trkpt><trkpt lat="39.98996203831752" lon="9.680417519909833"><ele>56.0</ele><time>2026-03-29T08:54:57Z</time></trkpt><trkpt lat="39.98988435771343" lon="9.6802945696325"><ele>60.25</ele><time>2026-03-29T08:54:58Z</time></trkpt><trkpt lat="39.98976988132954" lon="9.680206245859884"><ele>64.5</ele><time>2026-03-29T08:54:59Z</time></trkpt><trkpt lat="39.98961994100981" lon="9.68014461511088"><ele>68.75</ele><time>2026-03-29T08:55:00Z</time></trkpt><trkpt lat="39.98947116762984" lon="9.68010414858764"><ele>73.0</ele><time>2026-03-29T08:55:01Z</time></trkpt><trkpt lat="39.9893303024289" lon="9.680066629641779"><ele>73.0</ele><time>2026-03-29T08:55:02Z</time></trkpt><trkpt lat="39.98919546957916" lon="9.680023005390904"><ele>73.0</ele><time>2026-03-29T08:55:03Z</time></trkpt><trkpt lat="39.989063076031485" lon="9.679985994342402"><ele>73.0</ele><time>2026-03-29T08:55:04Z</time></trkpt><trkpt lat="39.98892413413171" lon="9.679947933593187"><ele>73.0</ele><time>2026-03-29T08:55:05Z</time></trkpt><trkpt lat="39.98879242073596" lon="9.679909096600182"><ele>71.5</ele><time>2026-03-29T08:55:06Z</time></trkpt><trkpt lat="39.98866296446896" lon="9.679868836398375"><ele>70.0</ele><time>2026-03-29T08:55:07Z</time></trkpt><trkpt lat="39.988537655425766" lon="9.67981930700413"><ele>68.5</ele><time>2026-03-29T08:55:08Z</time></trkpt><trkpt lat="39.988433434118434" lon="9.679729947564855"><ele>67.0</ele><time>2026-03-29T08:55:09Z</time></trkpt><trkpt lat="39.988380271353094" lon="9.679586161532617"><ele>70.25</ele><time>2026-03-29T08:55:10Z</time></trkpt><trkpt lat="39.98830844437469" lon="9.679432408635941"><ele>73.5</ele><time>2026-03-29T08:55:11Z</time></trkpt><trkpt lat="39.9882600863955" lon="9.679255760024263"><ele>76.75</ele><time>2026-03-29T08:55:12Z</time></trkpt><trkpt lat="39.98820378993558" lon="9.679081463565728"><ele>80.0</ele><time>2026-03-29T08:55:13Z</time></trkpt><trkpt lat="39.98816044071208" lon="9.678894704009762"><ele>80.0</ele><time>2026-03-29T08:55:14Z</time></trkpt><trkpt lat="39.988093117993145" lon="9.678727431006621"><ele>80.0</ele><time>2026-03-29T08:55:15Z</time></trkpt><trkpt lat="39.98807337799375" lon="9.678568326553865"><ele>80.0</ele><time>2026-03-29T08:55:16Z</time></trkpt><trkpt lat="39.98808295022092" lon="9.678420580748053"><ele>80.0</ele><time>2026-03-29T08:55:17Z</time></trkpt><trkpt lat="39.98814411303664" lon="9.678304917644175"><ele>81.2</ele><time>2026-03-29T08:55:18Z</time></trkpt><trkpt lat="39.988184389515546" lon="9.678198718306747"><ele>82.4</ele><time>2026-03-29T08:55:19Z</time></trkpt><trkpt lat="39.98821927234713" lon="9.678106849158878"><ele>83.6</ele><time>2026-03-29T08:55:20Z</time></trkpt><trkpt lat="39.98825147404363" lon="9.678019130887275"><ele>84.8</ele><time>2026-03-29T08:55:21Z</time></trkpt><trkpt lat="39.98818427605206" lon="9.677867167984465"><ele>86.0</ele><time>2026-03-29T08:55:22Z</time></trkpt><trkpt lat="39.98818451135585" lon="9.677740771451965"><ele>86.0</ele><time>2026-03-29T08:55:23Z</time></trkpt><trkpt lat="39.988171153330114" lon="9.677604879880155"><ele>86.0</ele><time>2026-03-29T08:55:24Z</time></trkpt><trkpt lat="39.98814994973302" lon="9.67745250163784"><ele>86.0</ele><time>2026-03-29T08:55:25Z</time></trkpt><trkpt lat="39.98811180373541" lon="9.677297700817396"><ele>86.0</ele><time>2026-03-29T08:55:26Z</time></trkpt><trkpt lat="39.98806062804049" lon="9.677142808510725"><ele>86.0</ele><time>2026-03-29T08:55:27Z</time></trkpt><trkpt lat="39.98801158167843" lon="9.677012290428507"><ele>86.0</ele><time>2026-03-29T08:55:28Z</time></trkpt><trkpt lat="39.98796623631893" lon="9.67687882393491"><ele>86.0</ele><time>2026-03-29T08:55:29Z</time></trkpt><trkpt lat="39.987881500686065" lon="9.676767448493434"><ele>86.0</ele><time>2026-03-29T08:55:30Z</time></trkpt><trkpt lat="39.98782088687887" lon="9.6766479693606"><ele>85.8</ele><time>2026-03-29T08:55:31Z</time></trkpt><trkpt lat="39.98777573626189" lon="9.676536698017472"><ele>85.6</ele><time>2026-03-29T08:55:32Z</time></trkpt><trkpt lat="39.98775731561601" lon="9.67641256527498"><ele>85.4</ele><time>2026-03-29T08:55:33Z</time></trkpt><trkpt lat="39.98775536771742" lon="9.67628376468649"><ele>85.2</ele><time>2026-03-29T08:55:34Z</time></trkpt><trkpt lat="39.987754987907124" lon="9.676137639095119"><ele>85.0</ele><time>2026-03-29T08:55:35Z</time></trkpt><trkpt lat="39.98774768302179" lon="9.675972049475005"><ele>83.75</ele><time>2026-03-29T08:55:36Z</time></trkpt><trkpt lat="39.987739372839364" lon="9.675795942288564"><ele>82.5</ele><time>2026-03-29T08:55:37Z</time></trkpt><trkpt lat="39.98773132861106" lon="9.675618311726685"><ele>81.25</ele><time>2026-03-29T08:55:38Z</time></trkpt><trkpt lat="39.98772899044899" lon="9.675417176263224"><ele>80.0</ele><time>2026-03-29T08:55:39Z</time></trkpt><trkpt lat="39.987728208093586" lon="9.675213779423183"><ele>78.66666666666667</ele><time>2026-03-29T08:55:40Z</time></trkpt><trkpt lat="39.98773887445115" lon="9.675000425404217"><ele>77.33333333333333</ele><time>2026-03-29T08:55:41Z</time></trkpt><trkpt lat="39.98773835785284" lon="9.674785397784134"><ele>76.0</ele><time>2026-03-29T08:55:42Z</time></trkpt><trkpt lat="39.98771768530753" lon="9.674574679531403"><ele>76.33333333333333</ele><time>2026-03-29T08:55:43Z</time></trkpt><trkpt lat="39.98771817366961" lon="9.674361413184831"><ele>76.66666666666667</ele><time>2026-03-29T08:55:44Z</time></trkpt><trkpt lat="39.987726230012335" lon="9.674148364786369"><ele>77.0</ele><time>2026-03-29T08:55:45Z</time></trkpt><trkpt lat="39.98773600328294" lon="9.67393424623031"><ele>77.0</ele><time>2026-03-29T08:55:46Z</time></trkpt><trkpt lat="39.9877500344416" lon="9.673723281901395"><ele>77.0</ele><time>2026-03-29T08:55:47Z</time></trkpt><trkpt lat="39.98776329534608" lon="9.673510192452179"><ele>77.0</ele><time>2026-03-29T08:55:48Z</time></trkpt><trkpt lat="39.98777607406771" lon="9.673301775533794"><ele>77.25</ele><time>2026-03-29T08:55:49Z</time></trkpt><trkpt lat="39.98778911300502" lon="9.673105227288612"><ele>77.5</ele><time>2026-03-29T08:55:50Z</time></trkpt><trkpt lat="39.98779897036599" lon="9.672904845933592"><ele>77.75</ele><time>2026-03-29T08:55:51Z</time></trkpt><trkpt lat="39.987813052197396" lon="9.672719522866021"><ele>78.0</ele><time>2026-03-29T08:55:51.999Z</time></trkpt><trkpt lat="39.98782595027753" lon="9.672568231195186"><ele>78.0</ele><time>2026-03-29T08:55:52.999Z</time></trkpt><trkpt lat="39.98784124830112" lon="9.672440003176776"><ele>78.0</ele><time>2026-03-29T08:55:53.999Z</time></trkpt><trkpt lat="39.987874349827536" lon="9.672338959213128"><ele>78.0</ele><time>2026-03-29T08:55:54.999Z</time></trkpt><trkpt lat="39.987937925511666" lon="9.672265210494436"><ele>78.0</ele><time>2026-03-29T08:55:55.999Z</time></trkpt><trkpt lat="39.988031234275425" lon="9.67220192923989"><ele>78.0</ele><time>2026-03-29T08:55:56.999Z</time></trkpt><trkpt lat="39.98813518321464" lon="9.672144340784996"><ele>78.0</ele><time>2026-03-29T08:55:57.999Z</time></trkpt><trkpt lat="39.98824142191975" lon="9.672074120757951"><ele>78.0</ele><time>2026-03-29T08:55:58.999Z</time></trkpt><trkpt lat="39.98831957309269" lon="9.671972159822673"><ele>78.0</ele><time>2026-03-29T08:55:59.999Z</time></trkpt><trkpt lat="39.98836820936099" lon="9.671853630474406"><ele>78.0</ele><time>2026-03-29T08:56:00.999Z</time></trkpt><trkpt lat="39.988403751523904" lon="9.671725887521195"><ele>78.0</ele><time>2026-03-29T08:56:01.999Z</time></trkpt><trkpt lat="39.98844395707213" lon="9.67158403672024"><ele>80.4</ele><time>2026-03-29T08:56:02.999Z</time></trkpt><trkpt lat="39.98846916203787" lon="9.671453760717544"><ele>82.8</ele><time>2026-03-29T08:56:03.999Z</time></trkpt><trkpt lat="39.988483821493304" lon="9.671357479340383"><ele>85.2</ele><time>2026-03-29T08:56:04.999Z</time></trkpt><trkpt lat="39.988512660713496" lon="9.671235623728363"><ele>87.6</ele><time>2026-03-29T08:56:06.999Z</time></trkpt><trkpt lat="39.98854646365319" lon="9.671096230162162"><ele>90.0</ele><time>2026-03-29T08:56:08.999Z</time></trkpt><trkpt lat="39.98858847696713" lon="9.670974248435117"><ele>90.0</ele><time>2026-03-29T08:56:09.999Z</time></trkpt><trkpt lat="39.98863450181552" lon="9.670833238155737"><ele>90.0</ele><time>2026-03-29T08:56:10.999Z</time></trkpt><trkpt lat="39.98869290423192" lon="9.670676976316788"><ele>90.0</ele><time>2026-03-29T08:56:11.999Z</time></trkpt><trkpt lat="39.988757014054414" lon="9.670523881357116"><ele>90.0</ele><time>2026-03-29T08:56:12.999Z</time></trkpt><trkpt lat="39.98883660193017" lon="9.670364931830715"><ele>87.25</ele><time>2026-03-29T08:56:13.999Z</time></trkpt><trkpt lat="39.988920756962735" lon="9.670213510486361"><ele>84.5</ele><time>2026-03-29T08:56:14.999Z</time></trkpt><trkpt lat="39.98900373441814" lon="9.670071620504025"><ele>81.75</ele><time>2026-03-29T08:56:15.999Z</time></trkpt><trkpt lat="39.989084512921416" lon="9.669931227455564"><ele>79.0</ele><time>2026-03-29T08:56:16.999Z</time></trkpt><trkpt lat="39.989160399483026" lon="9.669788602361528"><ele>79.0</ele><time>2026-03-29T08:56:17.999Z</time></trkpt><trkpt lat="39.98922919054396" lon="9.669647778750019"><ele>79.0</ele><time>2026-03-29T08:56:18.999Z</time></trkpt><trkpt lat="39.9892981205397" lon="9.669495305744423"><ele>79.0</ele><time>2026-03-29T08:56:19.999Z</time></trkpt><trkpt lat="39.989362961533736" lon="9.669329875415821"><ele>79.0</ele><time>2026-03-29T08:56:20.999Z</time></trkpt><trkpt lat="39.98940953694073" lon="9.669153694551657"><ele>78.25</ele><time>2026-03-29T08:56:21.999Z</time></trkpt><trkpt lat="39.989445549038564" lon="9.668972036157726"><ele>77.5</ele><time>2026-03-29T08:56:22.999Z</time></trkpt><trkpt lat="39.98946244804719" lon="9.668795841840403"><ele>76.75</ele><time>2026-03-29T08:56:23.999Z</time></trkpt><trkpt lat="39.98947229704408" lon="9.66862928293427"><ele>76.0</ele><time>2026-03-29T08:56:24.999Z</time></trkpt><trkpt lat="39.98948829935028" lon="9.668493361367887"><ele>76.0</ele><time>2026-03-29T08:56:25.999Z</time></trkpt><trkpt lat="39.989521638045886" lon="9.668349597620782"><ele>76.0</ele><time>2026-03-29T08:56:27Z</time></trkpt><trkpt lat="39.9895954213876" lon="9.668206770213011"><ele>76.0</ele><time>2026-03-29T08:56:28Z</time></trkpt><trkpt lat="39.989645190172745" lon="9.668042613391163"><ele>76.0</ele><time>2026-03-29T08:56:29Z</time></trkpt><trkpt lat="39.98968558641932" lon="9.667874994076511"><ele>74.75</ele><time>2026-03-29T08:56:30Z</time></trkpt><trkpt lat="39.989719548723734" lon="9.667713483205398"><ele>73.5</ele><time>2026-03-29T08:56:31Z</time></trkpt><trkpt lat="39.989695327896634" lon="9.667568377160306"><ele>72.25</ele><time>2026-03-29T08:56:32Z</time></trkpt><trkpt lat="39.98970316105921" lon="9.667428462470331"><ele>71.0</ele><time>2026-03-29T08:56:33Z</time></trkpt><trkpt lat="39.98969240151273" lon="9.667286939425436"><ele>71.0</ele><time>2026-03-29T08:56:34Z</time></trkpt><trkpt lat="39.98972725739241" lon="9.667137474449916"><ele>71.0</ele><time>2026-03-29T08:56:35Z</time></trkpt><trkpt lat="39.98978379872598" lon="9.666989647740587"><ele>71.0</ele><time>2026-03-29T08:56:36Z</time></trkpt><trkpt lat="39.98985071083187" lon="9.666835639147408"><ele>71.0</ele><time>2026-03-29T08:56:37Z</time></trkpt><trkpt lat="39.98991582537575" lon="9.666666862908924"><ele>69.75</ele><time>2026-03-29T08:56:38Z</time></trkpt><trkpt lat="39.98997763234036" lon="9.666494046236199"><ele>68.5</ele><time>2026-03-29T08:56:39Z</time></trkpt><trkpt lat="39.9900350490238" lon="9.666336029667972"><ele>67.25</ele><time>2026-03-29T08:56:40Z</time></trkpt><trkpt lat="39.99009071534153" lon="9.666206056105711"><ele>66.0</ele><time>2026-03-29T08:56:41Z</time></trkpt><trkpt lat="39.99011013487045" lon="9.666053165320836"><ele>68.5</ele><time>2026-03-29T08:56:42Z</time></trkpt><trkpt lat="39.990103280585004" lon="9.665883753223044"><ele>71.0</ele><time>2026-03-29T08:56:43Z</time></trkpt><trkpt lat="39.990094576254876" lon="9.665710271198819"><ele>73.5</ele><time>2026-03-29T08:56:44Z</time></trkpt><trkpt lat="39.99008574840818" lon="9.665534327463192"><ele>76.0</ele><time>2026-03-29T08:56:45Z</time></trkpt><trkpt lat="39.99007714971513" lon="9.665358609937472"><ele>77.0</ele><time>2026-03-29T08:56:46Z</time></trkpt><trkpt lat="39.990069469162194" lon="9.665193087027424"><ele>78.0</ele><time>2026-03-29T08:56:47Z</time></trkpt><trkpt lat="39.99006214157904" lon="9.665035170747295"><ele>79.0</ele><time>2026-03-29T08:56:48Z</time></trkpt><trkpt lat="39.99004013696233" lon="9.66488789289059"><ele>80.0</ele><time>2026-03-29T08:56:49Z</time></trkpt><trkpt lat="39.99003339705714" lon="9.6647434385079"><ele>80.0</ele><time>2026-03-29T08:56:50Z</time></trkpt><trkpt lat="39.99002777260274" lon="9.664589070314266"><ele>80.0</ele><time>2026-03-29T08:56:51Z</time></trkpt><trkpt lat="39.990018064435915" lon="9.664438424267226"><ele>80.0</ele><time>2026-03-29T08:56:52Z</time></trkpt><trkpt lat="39.9900213984466" lon="9.664288311457158"><ele>80.0</ele><time>2026-03-29T08:56:53Z</time></trkpt><trkpt lat="39.98999282906129" lon="9.664147228423055"><ele>79.0</ele><time>2026-03-29T08:56:54Z</time></trkpt><trkpt lat="39.989993717454595" lon="9.664003704359962"><ele>78.0</ele><time>2026-03-29T08:56:55Z</time></trkpt><trkpt lat="39.98997772800641" lon="9.663868496368353"><ele>77.0</ele><time>2026-03-29T08:56:56Z</time></trkpt><trkpt lat="39.989959917618464" lon="9.663742651167668"><ele>76.0</ele><time>2026-03-29T08:56:57Z</time></trkpt><trkpt lat="39.98994091010625" lon="9.663611461549142"><ele>75.0</ele><time>2026-03-29T08:56:58Z</time></trkpt><trkpt lat="39.9899125621833" lon="9.663481190756038"><ele>75.0</ele><time>2026-03-29T08:56:59Z</time></trkpt><trkpt lat="39.98989674239885" lon="9.663345438737064"><ele>75.0</ele><time>2026-03-29T08:57:00Z</time></trkpt><trkpt lat="39.989875371313154" lon="9.663205884415126"><ele>75.0</ele><time>2026-03-29T08:57:01Z</time></trkpt><trkpt lat="39.98985789576132" lon="9.663052374110263"><ele>75.0</ele><time>2026-03-29T08:57:02Z</time></trkpt><trkpt lat="39.98983014559734" lon="9.662910064420071"><ele>75.0</ele><time>2026-03-29T08:57:03Z</time></trkpt><trkpt lat="39.98979337869646" lon="9.662769092254049"><ele>75.2</ele><time>2026-03-29T08:57:04Z</time></trkpt><trkpt lat="39.98975612234062" lon="9.662628553209043"><ele>75.4</ele><time>2026-03-29T08:57:05Z</time></trkpt><trkpt lat="39.989722524625854" lon="9.662509430306518"><ele>75.6</ele><time>2026-03-29T08:57:06Z</time></trkpt><trkpt lat="39.98968851774561" lon="9.662407367110553"><ele>75.8</ele><time>2026-03-29T08:57:07Z</time></trkpt><trkpt lat="39.98965305992405" lon="9.66231490301276"><ele>76.0</ele><time>2026-03-29T08:57:08Z</time></trkpt><trkpt lat="39.98961127532192" lon="9.662213621866547"><ele>76.0</ele><time>2026-03-29T08:57:09Z</time></trkpt><trkpt lat="39.989578932010055" lon="9.662112876632282"><ele>76.0</ele><time>2026-03-29T08:57:10Z</time></trkpt><trkpt lat="39.989566890769325" lon="9.662024656162988"><ele>76.0</ele><time>2026-03-29T08:57:11Z</time></trkpt><trkpt lat="39.9896018445623" lon="9.661901198716421"><ele>76.0</ele><time>2026-03-29T08:57:13Z</time></trkpt><trkpt lat="39.98969478057968" lon="9.661921417770195"><ele>76.0</ele><time>2026-03-29T08:57:14Z</time></trkpt><trkpt lat="39.98977415407603" lon="9.661928747370752"><ele>76.0</ele><time>2026-03-29T08:57:15Z</time></trkpt><trkpt lat="39.989865878958106" lon="9.66191867901337"><ele>76.16666666666666</ele><time>2026-03-29T08:57:16Z</time></trkpt><trkpt lat="39.989958343714264" lon="9.66191090053717"><ele>76.33333333333333</ele><time>2026-03-29T08:57:17Z</time></trkpt><trkpt lat="39.990043068991035" lon="9.661899807189771"><ele>76.5</ele><time>2026-03-29T08:57:18Z</time></trkpt><trkpt lat="39.99012235409946" lon="9.661863717889949"><ele>76.66666666666667</ele><time>2026-03-29T08:57:19Z</time></trkpt><trkpt lat="39.99019350915581" lon="9.661802379935947"><ele>76.83333333333334</ele><time>2026-03-29T08:57:20Z</time></trkpt><trkpt lat="39.990248819440716" lon="9.661725091836086"><ele>77.0</ele><time>2026-03-29T08:57:21Z</time></trkpt><trkpt lat="39.99028703958256" lon="9.661637810393819"><ele>77.8</ele><time>2026-03-29T08:57:22Z</time></trkpt><trkpt lat="39.990328115414755" lon="9.66154629787378"><ele>78.6</ele><time>2026-03-29T08:57:23Z</time></trkpt><trkpt lat="39.99038653628234" lon="9.661466501226334"><ele>79.39999999999999</ele><time>2026-03-29T08:57:24Z</time></trkpt><trkpt lat="39.99046357329129" lon="9.661417439920328"><ele>80.2</ele><time>2026-03-29T08:57:25Z</time></trkpt><trkpt lat="39.99056922456822" lon="9.661405256482128"><ele>81.0</ele><time>2026-03-29T08:57:26Z</time></trkpt><trkpt lat="39.990673746173506" lon="9.661411886666123"><ele>81.0</ele><time>2026-03-29T08:57:27Z</time></trkpt><trkpt lat="39.99077986200068" lon="9.661445239917198"><ele>81.0</ele><time>2026-03-29T08:57:28Z</time></trkpt><trkpt lat="39.99087044879676" lon="9.661481407731356"><ele>81.0</ele><time>2026-03-29T08:57:29Z</time></trkpt><trkpt lat="39.990957706653575" lon="9.661514509336607"><ele>81.0</ele><time>2026-03-29T08:57:30Z</time></trkpt><trkpt lat="39.991044142547636" lon="9.661529490659152"><ele>81.0</ele><time>2026-03-29T08:57:31Z</time></trkpt><trkpt lat="39.991125599334296" lon="9.66150155803691"><ele>81.5</ele><time>2026-03-29T08:57:32Z</time></trkpt><trkpt lat="39.99118865804545" lon="9.661426617068456"><ele>82.0</ele><time>2026-03-29T08:57:33Z</time></trkpt><trkpt lat="39.99123458876175" lon="9.661317766987231"><ele>82.5</ele><time>2026-03-29T08:57:33.999Z</time></trkpt><trkpt lat="39.99129041492724" lon="9.661219328149315"><ele>83.0</ele><time>2026-03-29T08:57:34.999Z</time></trkpt><trkpt lat="39.99135494194628" lon="9.661152055552623"><ele>83.5</ele><time>2026-03-29T08:57:35.999Z</time></trkpt><trkpt lat="39.99142724283156" lon="9.661125293315251"><ele>84.0</ele><time>2026-03-29T08:57:36.999Z</time></trkpt><trkpt lat="39.991523585579216" lon="9.661105948907785"><ele>83.6</ele><time>2026-03-29T08:57:37.999Z</time></trkpt><trkpt lat="39.99161906604908" lon="9.661068471591907"><ele>83.2</ele><time>2026-03-29T08:57:38.999Z</time></trkpt><trkpt lat="39.991707250964375" lon="9.660990295383673"><ele>82.8</ele><time>2026-03-29T08:57:39.999Z</time></trkpt><trkpt lat="39.991793941350934" lon="9.660904346787046"><ele>82.39999999999999</ele><time>2026-03-29T08:57:40.999Z</time></trkpt><trkpt lat="39.9918784878932" lon="9.660833495841691"><ele>82.0</ele><time>2026-03-29T08:57:41.999Z</time></trkpt><trkpt lat="39.991954093655245" lon="9.66077768306566"><ele>82.0</ele><time>2026-03-29T08:57:42.999Z</time></trkpt><trkpt lat="39.992008639659474" lon="9.660722739667149"><ele>82.0</ele><time>2026-03-29T08:57:43.999Z</time></trkpt><trkpt lat="39.99206775956715" lon="9.660596904063834"><ele>82.0</ele><time>2026-03-29T08:57:45.999Z</time></trkpt><trkpt lat="39.99205139993168" lon="9.660457475078948"><ele>82.0</ele><time>2026-03-29T08:57:47.999Z</time></trkpt><trkpt lat="39.99195274961967" lon="9.660408638552395"><ele>82.0</ele><time>2026-03-29T08:57:48.999Z</time></trkpt><trkpt lat="39.99187315049752" lon="9.660371117848213"><ele>82.0</ele><time>2026-03-29T08:57:49.999Z</time></trkpt><trkpt lat="39.991784739252644" lon="9.660304959438184"><ele>82.0</ele><time>2026-03-29T08:57:50.999Z</time></trkpt><trkpt lat="39.99169483707408" lon="9.660216758041399"><ele>82.0</ele><time>2026-03-29T08:57:51.999Z</time></trkpt><trkpt lat="39.991597538867794" lon="9.66011644574453"><ele>82.0</ele><time>2026-03-29T08:57:52.999Z</time></trkpt><trkpt lat="39.99148955584109" lon="9.660027259198083"><ele>82.0</ele><time>2026-03-29T08:57:53.999Z</time></trkpt><trkpt lat="39.99137059768251" lon="9.659960176267488"><ele>82.0</ele><time>2026-03-29T08:57:54.999Z</time></trkpt><trkpt lat="39.99125605448192" lon="9.659903833395202"><ele>82.0</ele><time>2026-03-29T08:57:55.999Z</time></trkpt><trkpt lat="39.99113698722939" lon="9.659841953969934"><ele>82.0</ele><time>2026-03-29T08:57:56.999Z</time></trkpt><trkpt lat="39.99102965254632" lon="9.659781473247948"><ele>82.0</ele><time>2026-03-29T08:57:57.999Z</time></trkpt><trkpt lat="39.99093338985382" lon="9.659729053000667"><ele>82.0</ele><time>2026-03-29T08:57:58.999Z</time></trkpt><trkpt lat="39.99084502527621" lon="9.659670701893463"><ele>82.0</ele><time>2026-03-29T08:57:59.999Z</time></trkpt><trkpt lat="39.99076545103747" lon="9.659626270126786"><ele>82.0</ele><time>2026-03-29T08:58:00.999Z</time></trkpt><trkpt lat="39.99068467860981" lon="9.65958565380357"><ele>82.0</ele><time>2026-03-29T08:58:01.999Z</time></trkpt><trkpt lat="39.99059002833358" lon="9.659618770838035"><ele>82.14285714285714</ele><time>2026-03-29T08:58:02.999Z</time></trkpt><trkpt lat="39.99050184930017" lon="9.659630070680224"><ele>82.28571428571428</ele><time>2026-03-29T08:58:03.999Z</time></trkpt><trkpt lat="39.99042373483337" lon="9.659620781924863"><ele>82.42857142857142</ele><time>2026-03-29T08:58:04.999Z</time></trkpt><trkpt lat="39.9903563134656" lon="9.659592429297055"><ele>82.57142857142857</ele><time>2026-03-29T08:58:05.999Z</time></trkpt><trkpt lat="39.99030914142749" lon="9.659537256381583"><ele>82.71428571428572</ele><time>2026-03-29T08:58:06.999Z</time></trkpt><trkpt lat="39.99027894511121" lon="9.659458535031112"><ele>82.85714285714285</ele><time>2026-03-29T08:58:07.999Z</time></trkpt><trkpt lat="39.99028855940829" lon="9.659357722365653"><ele>83.0</ele><time>2026-03-29T08:58:08.999Z</time></trkpt><trkpt lat="39.99027970933274" lon="9.659264155671941"><ele>83.0</ele><time>2026-03-29T08:58:09.999Z</time></trkpt><trkpt lat="39.99032901762399" lon="9.65917241627132"><ele>83.0</ele><time>2026-03-29T08:58:10.999Z</time></trkpt><trkpt lat="39.99036151567486" lon="9.659068206088053"><ele>83.0</ele><time>2026-03-29T08:58:11.999Z</time></trkpt><trkpt lat="39.99042026455245" lon="9.658973769872112"><ele>83.0</ele><time>2026-03-29T08:58:12.999Z</time></trkpt><trkpt lat="39.990470748700645" lon="9.658884087415219"><ele>83.0</ele><time>2026-03-29T08:58:13.999Z</time></trkpt><trkpt lat="39.99050737729012" lon="9.658803484775287"><ele>83.0</ele><time>2026-03-29T08:58:14.999Z</time></trkpt><trkpt lat="39.99052963619087" lon="9.658721888981143"><ele>83.0</ele><time>2026-03-29T08:58:15.999Z</time></trkpt><trkpt lat="39.990512749239464" lon="9.65862796799609"><ele>83.0</ele><time>2026-03-29T08:58:16.999Z</time></trkpt><trkpt lat="39.99047529604726" lon="9.658552492757893"><ele>83.0</ele><time>2026-03-29T08:58:17.999Z</time></trkpt><trkpt lat="39.99038221378588" lon="9.65854879564942"><ele>83.0</ele><time>2026-03-29T08:58:18.999Z</time></trkpt><trkpt lat="39.990285995067495" lon="9.658551773488522"><ele>83.0</ele><time>2026-03-29T08:58:19.999Z</time></trkpt><trkpt lat="39.990184390889425" lon="9.658516815172957"><ele>83.0</ele><time>2026-03-29T08:58:20.999Z</time></trkpt><trkpt lat="39.99008594565456" lon="9.658467309177635"><ele>82.80000000000001</ele><time>2026-03-29T08:58:21.999Z</time></trkpt><trkpt lat="39.98997099857169" lon="9.658408545461937"><ele>82.6</ele><time>2026-03-29T08:58:22.999Z</time></trkpt><trkpt lat="39.98986251463691" lon="9.658350350740013"><ele>82.4</ele><time>2026-03-29T08:58:23.999Z</time></trkpt><trkpt lat="39.98977390724506" lon="9.658300017785379"><ele>82.19999999999999</ele><time>2026-03-29T08:58:24.999Z</time></trkpt><trkpt lat="39.98970087883668" lon="9.658261476084162"><ele>82.0</ele><time>2026-03-29T08:58:25.999Z</time></trkpt><trkpt lat="39.98965539740316" lon="9.658174931092823"><ele>82.0</ele><time>2026-03-29T08:58:26.999Z</time></trkpt><trkpt lat="39.98967026072003" lon="9.658067184572646"><ele>82.0</ele><time>2026-03-29T08:58:27.999Z</time></trkpt><trkpt lat="39.98967323488963" lon="9.657929459628425"><ele>82.0</ele><time>2026-03-29T08:58:28.999Z</time></trkpt><trkpt lat="39.98966893668199" lon="9.657784753696221"><ele>82.0</ele><time>2026-03-29T08:58:29.999Z</time></trkpt><trkpt lat="39.98966265802997" lon="9.657631091466971"><ele>82.0</ele><time>2026-03-29T08:58:30.999Z</time></trkpt><trkpt lat="39.98972005799199" lon="9.657487297614916"><ele>82.33333333333333</ele><time>2026-03-29T08:58:31.999Z</time></trkpt><trkpt lat="39.989770447901826" lon="9.657360557235998"><ele>82.66666666666666</ele><time>2026-03-29T08:58:33Z</time></trkpt><trkpt lat="39.98980638691017" lon="9.657248759140511"><ele>83.0</ele><time>2026-03-29T08:58:34Z</time></trkpt><trkpt lat="39.98984316576783" lon="9.657174617345818"><ele>83.33333333333333</ele><time>2026-03-29T08:58:35Z</time></trkpt><trkpt lat="39.98988347806157" lon="9.657065307505846"><ele>83.66666666666667</ele><time>2026-03-29T08:58:37Z</time></trkpt><trkpt lat="39.98990732970199" lon="9.65695697780409"><ele>84.0</ele><time>2026-03-29T08:58:41Z</time></trkpt><trkpt lat="39.98974108189154" lon="9.656902396740666"><ele>82.8</ele><time>2026-03-29T08:58:42Z</time></trkpt><trkpt lat="39.989670490490916" lon="9.656903305797021"><ele>81.60000000000001</ele><time>2026-03-29T08:58:43Z</time></trkpt><trkpt lat="39.98964421924665" lon="9.656811819805837"><ele>80.4</ele><time>2026-03-29T08:58:45Z</time></trkpt><trkpt lat="39.98977175801291" lon="9.656788154337319"><ele>79.2</ele><time>2026-03-29T08:58:47Z</time></trkpt><trkpt lat="39.989888019067564" lon="9.65682650152884"><ele>78.0</ele><time>2026-03-29T08:58:48Z</time></trkpt><trkpt lat="39.99001167564394" lon="9.65687287884398"><ele>76.75</ele><time>2026-03-29T08:58:49Z</time></trkpt><trkpt lat="39.99013145035004" lon="9.656899484848365"><ele>75.5</ele><time>2026-03-29T08:58:50Z</time></trkpt><trkpt lat="39.9902658015758" lon="9.656923938906006"><ele>74.25</ele><time>2026-03-29T08:58:51Z</time></trkpt><trkpt lat="39.99039497218526" lon="9.656925188126715"><ele>73.0</ele><time>2026-03-29T08:58:52Z</time></trkpt><trkpt lat="39.9905180122639" lon="9.656898450552493"><ele>73.0</ele><time>2026-03-29T08:58:53Z</time></trkpt><trkpt lat="39.99063857873734" lon="9.65685393868871"><ele>73.0</ele><time>2026-03-29T08:58:54Z</time></trkpt><trkpt lat="39.99074393604717" lon="9.656787317010993"><ele>73.0</ele><time>2026-03-29T08:58:55Z</time></trkpt><trkpt lat="39.99084341576455" lon="9.656711206422242"><ele>73.0</ele><time>2026-03-29T08:58:56Z</time></trkpt><trkpt lat="39.990906886641234" lon="9.656553647945817"><ele>70.8</ele><time>2026-03-29T08:58:57Z</time></trkpt><trkpt lat="39.99098111070819" lon="9.656428013763868"><ele>68.6</ele><time>2026-03-29T08:58:58Z</time></trkpt><trkpt lat="39.991038213377344" lon="9.656314428363284"><ele>66.4</ele><time>2026-03-29T08:58:59Z</time></trkpt><trkpt lat="39.99110659867914" lon="9.65622409786465"><ele>64.2</ele><time>2026-03-29T08:59:00Z</time></trkpt><trkpt lat="39.99121680976192" lon="9.656210642361012"><ele>62.0</ele><time>2026-03-29T08:59:01Z</time></trkpt><trkpt lat="39.99134262085847" lon="9.65625833840781"><ele>62.0</ele><time>2026-03-29T08:59:02Z</time></trkpt><trkpt lat="39.991471684738414" lon="9.656333144297989"><ele>62.0</ele><time>2026-03-29T08:59:03Z</time></trkpt><trkpt lat="39.99160278313129" lon="9.656402683462556"><ele>62.0</ele><time>2026-03-29T08:59:04Z</time></trkpt><trkpt lat="39.99173709106611" lon="9.656435888917503"><ele>62.0</ele><time>2026-03-29T08:59:05Z</time></trkpt><trkpt lat="39.991865902594014" lon="9.656446873623556"><ele>62.75</ele><time>2026-03-29T08:59:06Z</time></trkpt><trkpt lat="39.99198889605807" lon="9.656458389564621"><ele>63.5</ele><time>2026-03-29T08:59:07Z</time></trkpt><trkpt lat="39.992101787850466" lon="9.656436843990013"><ele>64.25</ele><time>2026-03-29T08:59:08Z</time></trkpt><trkpt lat="39.99219747992474" lon="9.656353743446138"><ele>65.0</ele><time>2026-03-29T08:59:09Z</time></trkpt><trkpt lat="39.99228747678881" lon="9.656219629806246"><ele>60.66666666666667</ele><time>2026-03-29T08:59:10Z</time></trkpt><trkpt lat="39.99238680905773" lon="9.65607711633189"><ele>56.33333333333333</ele><time>2026-03-29T08:59:11Z</time></trkpt><trkpt lat="39.99252329408159" lon="9.655967846379422"><ele>52.0</ele><time>2026-03-29T08:59:12Z</time></trkpt><trkpt lat="39.99268217370108" lon="9.655900301951675"><ele>52.0</ele><time>2026-03-29T08:59:13Z</time></trkpt><trkpt lat="39.99284024937632" lon="9.655840168121614"><ele>52.0</ele><time>2026-03-29T08:59:14Z</time></trkpt><trkpt lat="39.99298570693257" lon="9.6557765734176"><ele>52.0</ele><time>2026-03-29T08:59:15Z</time></trkpt><trkpt lat="39.99311319405404" lon="9.655706933014612"><ele>52.0</ele><time>2026-03-29T08:59:16Z</time></trkpt><trkpt lat="39.99321659434306" lon="9.655593411613001"><ele>52.0</ele><time>2026-03-29T08:59:17Z</time></trkpt><trkpt lat="39.99330569753703" lon="9.655425917648884"><ele>52.0</ele><time>2026-03-29T08:59:18Z</time></trkpt><trkpt lat="39.99339234601784" lon="9.655233748698384"><ele>54.33333333333333</ele><time>2026-03-29T08:59:19Z</time></trkpt><trkpt lat="39.993489554256776" lon="9.655040632736743"><ele>56.66666666666667</ele><time>2026-03-29T08:59:20Z</time></trkpt><trkpt lat="39.99358377162306" lon="9.654860223476451"><ele>59.0</ele><time>2026-03-29T08:59:21Z</time></trkpt><trkpt lat="39.993668359560395" lon="9.654695649932494"><ele>59.0</ele><time>2026-03-29T08:59:22Z</time></trkpt><trkpt lat="39.993757668149414" lon="9.654520850974684"><ele>59.0</ele><time>2026-03-29T08:59:23Z</time></trkpt><trkpt lat="39.99385338652927" lon="9.654341114335287"><ele>59.0</ele><time>2026-03-29T08:59:24Z</time></trkpt><trkpt lat="39.99394906439287" lon="9.654147871001868"><ele>57.0</ele><time>2026-03-29T08:59:25Z</time></trkpt><trkpt lat="39.994049093467034" lon="9.65395056648923"><ele>55.0</ele><time>2026-03-29T08:59:26Z</time></trkpt><trkpt lat="39.9941499771237" lon="9.653754413358678"><ele>53.0</ele><time>2026-03-29T08:59:27Z</time></trkpt><trkpt lat="39.99425336160092" lon="9.653553025089439"><ele>52.333333333333336</ele><time>2026-03-29T08:59:28Z</time></trkpt><trkpt lat="39.99435521435385" lon="9.653348142086966"><ele>51.66666666666667</ele><time>2026-03-29T08:59:29Z</time></trkpt><trkpt lat="39.99445911759785" lon="9.653145859319455"><ele>51.0</ele><time>2026-03-29T08:59:30Z</time></trkpt><trkpt lat="39.99456370025331" lon="9.6529395070625"><ele>48.333333333333336</ele><time>2026-03-29T08:59:31Z</time></trkpt><trkpt lat="39.994672148165705" lon="9.65273571036596"><ele>45.66666666666667</ele><time>2026-03-29T08:59:32Z</time></trkpt><trkpt lat="39.994791553214824" lon="9.652540438162028"><ele>43.0</ele><time>2026-03-29T08:59:33Z</time></trkpt><trkpt lat="39.994927084338514" lon="9.652368815755043"><ele>43.333333333333336</ele><time>2026-03-29T08:59:34Z</time></trkpt><trkpt lat="39.99507290501073" lon="9.652212151533638"><ele>43.666666666666664</ele><time>2026-03-29T08:59:35Z</time></trkpt><trkpt lat="39.99519672539404" lon="9.6520574235581"><ele>44.0</ele><time>2026-03-29T08:59:36Z</time></trkpt><trkpt lat="39.99529791641433" lon="9.651868195646093"><ele>43.0</ele><time>2026-03-29T08:59:36.999Z</time></trkpt><trkpt lat="39.99538585769782" lon="9.651658500279355"><ele>42.0</ele><time>2026-03-29T08:59:37.999Z</time></trkpt><trkpt lat="39.99547869645715" lon="9.651450447357249"><ele>41.0</ele><time>2026-03-29T08:59:38.999Z</time></trkpt><trkpt lat="39.995571515446116" lon="9.651241799312734"><ele>41.33333333333333</ele><time>2026-03-29T08:59:39.999Z</time></trkpt><trkpt lat="39.99565834249689" lon="9.651035176215052"><ele>41.666666666666664</ele><time>2026-03-29T08:59:40.999Z</time></trkpt><trkpt lat="39.99574995452014" lon="9.65082980134776"><ele>42.0</ele><time>2026-03-29T08:59:41.999Z</time></trkpt><trkpt lat="39.99585106090962" lon="9.65064053630883"><ele>43.0</ele><time>2026-03-29T08:59:42.999Z</time></trkpt><trkpt lat="39.995955284914416" lon="9.65047602190544"><ele>44.0</ele><time>2026-03-29T08:59:43.999Z</time></trkpt><trkpt lat="39.99605984680611" lon="9.650334031873767"><ele>45.0</ele><time>2026-03-29T08:59:44.999Z</time></trkpt><trkpt lat="39.99616084700713" lon="9.650214176531241"><ele>45.6</ele><time>2026-03-29T08:59:45.999Z</time></trkpt><trkpt lat="39.9962322392514" lon="9.650107789281938"><ele>46.2</ele><time>2026-03-29T08:59:46.999Z</time></trkpt><trkpt lat="39.9962712557474" lon="9.649989491492981"><ele>46.8</ele><time>2026-03-29T08:59:47.999Z</time></trkpt><trkpt lat="39.996260209277565" lon="9.649862415778138"><ele>47.4</ele><time>2026-03-29T08:59:48.999Z</time></trkpt><trkpt lat="39.99619465939777" lon="9.649737896010988"><ele>48.0</ele><time>2026-03-29T08:59:49.999Z</time></trkpt><trkpt lat="39.996095332003144" lon="9.649621106459744"><ele>48.0</ele><time>2026-03-29T08:59:50.999Z</time></trkpt><trkpt lat="39.99597866399866" lon="9.649496875077588"><ele>48.0</ele><time>2026-03-29T08:59:51.999Z</time></trkpt><trkpt lat="39.99586982463327" lon="9.649359055082002"><ele>48.0</ele><time>2026-03-29T08:59:52.999Z</time></trkpt><trkpt lat="39.995775911765044" lon="9.649210363358947"><ele>47.0</ele><time>2026-03-29T08:59:53.999Z</time></trkpt><trkpt lat="39.995710968621076" lon="9.649028512799918"><ele>46.0</ele><time>2026-03-29T08:59:54.999Z</time></trkpt><trkpt lat="39.99566118661098" lon="9.648832956812004"><ele>45.0</ele><time>2026-03-29T08:59:55.999Z</time></trkpt><trkpt lat="39.995615615480496" lon="9.64863271153945"><ele>45.333333333333336</ele><time>2026-03-29T08:59:56.999Z</time></trkpt><trkpt lat="39.995575581349364" lon="9.64842524102825"><ele>45.66666666666667</ele><time>2026-03-29T08:59:57.999Z</time></trkpt><trkpt lat="39.99556200568115" lon="9.648215028006947"><ele>46.0</ele><time>2026-03-29T08:59:58.999Z</time></trkpt><trkpt lat="39.99558283672245" lon="9.648001890915364"><ele>46.0</ele><time>2026-03-29T08:59:59.999Z</time></trkpt><trkpt lat="39.995632122367994" lon="9.647798009092883"><ele>46.0</ele><time>2026-03-29T09:00:00.999Z</time></trkpt><trkpt lat="39.99569217601386" lon="9.647606446125087"><ele>46.0</ele><time>2026-03-29T09:00:01.999Z</time></trkpt><trkpt lat="39.99577376903609" lon="9.647420644425281"><ele>46.66666666666667</ele><time>2026-03-29T09:00:02.999Z</time></trkpt><trkpt lat="39.995886422906665" lon="9.64725814772014"><ele>47.333333333333336</ele><time>2026-03-29T09:00:03.999Z</time></trkpt><trkpt lat="39.996017158734425" lon="9.647114212573525"><ele>48.0</ele><time>2026-03-29T09:00:04.999Z</time></trkpt><trkpt lat="39.99614765580098" lon="9.646956770698381"><ele>44.666666666666664</ele><time>2026-03-29T09:00:05.999Z</time></trkpt><trkpt lat="39.996282899029424" lon="9.646799146330581"><ele>41.33333333333333</ele><time>2026-03-29T09:00:06.999Z</time></trkpt><trkpt lat="39.99641700825207" lon="9.646639384917316"><ele>38.0</ele><time>2026-03-29T09:00:07.999Z</time></trkpt><trkpt lat="39.996557607793214" lon="9.646478906236071"><ele>38.33333333333333</ele><time>2026-03-29T09:00:08.999Z</time></trkpt><trkpt lat="39.99669550735424" lon="9.646327428636969"><ele>38.666666666666664</ele><time>2026-03-29T09:00:09.999Z</time></trkpt><trkpt lat="39.99682917268105" lon="9.646207715630434"><ele>39.0</ele><time>2026-03-29T09:00:10.999Z</time></trkpt><trkpt lat="39.99696602797845" lon="9.646110917513855"><ele>38.5</ele><time>2026-03-29T09:00:11.999Z</time></trkpt><trkpt lat="39.99709038919362" lon="9.646029685991413"><ele>38.0</ele><time>2026-03-29T09:00:12.999Z</time></trkpt><trkpt lat="39.99719447422774" lon="9.645934067223662"><ele>37.5</ele><time>2026-03-29T09:00:13.999Z</time></trkpt><trkpt lat="39.997264169764634" lon="9.645806494169756"><ele>37.0</ele><time>2026-03-29T09:00:14.999Z</time></trkpt><trkpt lat="39.99730065282274" lon="9.645640016859227"><ele>37.0</ele><time>2026-03-29T09:00:15.999Z</time></trkpt><trkpt lat="39.997329505694516" lon="9.645465469358266"><ele>37.0</ele><time>2026-03-29T09:00:16.999Z</time></trkpt><trkpt lat="39.997371255412766" lon="9.645304786673867"><ele>37.0</ele><time>2026-03-29T09:00:17.999Z</time></trkpt><trkpt lat="39.99744691259307" lon="9.645185321662082"><ele>37.0</ele><time>2026-03-29T09:00:18.999Z</time></trkpt><trkpt lat="39.997551585688065" lon="9.645099807352107"><ele>38.25</ele><time>2026-03-29T09:00:19.999Z</time></trkpt><trkpt lat="39.99765060888586" lon="9.645006780088599"><ele>39.5</ele><time>2026-03-29T09:00:20.999Z</time></trkpt><trkpt lat="39.99771216646453" lon="9.64486145208739"><ele>40.75</ele><time>2026-03-29T09:00:21.999Z</time></trkpt><trkpt lat="39.99775352116561" lon="9.64467868787389"><ele>42.0</ele><time>2026-03-29T09:00:22.999Z</time></trkpt><trkpt lat="39.99781348511639" lon="9.644492446178075"><ele>41.666666666666664</ele><time>2026-03-29T09:00:23.999Z</time></trkpt><trkpt lat="39.99789623558156" lon="9.64431556977016"><ele>41.33333333333333</ele><time>2026-03-29T09:00:24.999Z</time></trkpt><trkpt lat="39.99800757662075" lon="9.644163800765712"><ele>41.0</ele><time>2026-03-29T09:00:25.999Z</time></trkpt><trkpt lat="39.99813897931412" lon="9.644030793901816"><ele>41.0</ele><time>2026-03-29T09:00:26.999Z</time></trkpt><trkpt lat="39.998265609894" lon="9.643899205217473"><ele>41.0</ele><time>2026-03-29T09:00:27.999Z</time></trkpt><trkpt lat="39.99839202884065" lon="9.643765045069259"><ele>41.0</ele><time>2026-03-29T09:00:28.999Z</time></trkpt><trkpt lat="39.998522627595094" lon="9.643633558661092"><ele>40.666666666666664</ele><time>2026-03-29T09:00:29.999Z</time></trkpt><trkpt lat="39.99866146367017" lon="9.64350791139445"><ele>40.333333333333336</ele><time>2026-03-29T09:00:30.999Z</time></trkpt><trkpt lat="39.99880047551241" lon="9.643391671976147"><ele>40.0</ele><time>2026-03-29T09:00:31.999Z</time></trkpt><trkpt lat="39.99892751069494" lon="9.643297879606273"><ele>40.0</ele><time>2026-03-29T09:00:32.999Z</time></trkpt><trkpt lat="39.9990656091726" lon="9.64324226857094"><ele>40.0</ele><time>2026-03-29T09:00:33.999Z</time></trkpt><trkpt lat="39.99921957891173" lon="9.643226606203058"><ele>40.0</ele><time>2026-03-29T09:00:34.999Z</time></trkpt><trkpt lat="39.99937451718006" lon="9.643264141661167"><ele>39.0</ele><time>2026-03-29T09:00:35.999Z</time></trkpt><trkpt lat="39.99951752159275" lon="9.643342555520727"><ele>38.0</ele><time>2026-03-29T09:00:36.999Z</time></trkpt><trkpt lat="39.99965803832081" lon="9.643430793961265"><ele>37.0</ele><time>2026-03-29T09:00:37.999Z</time></trkpt><trkpt lat="39.999798849526385" lon="9.64352406122536"><ele>37.0</ele><time>2026-03-29T09:00:39Z</time></trkpt><trkpt lat="39.99993934432369" lon="9.643622112853214"><ele>37.0</ele><time>2026-03-29T09:00:40Z</time></trkpt><trkpt lat="40.00006604515292" lon="9.643701542248614"><ele>37.0</ele><time>2026-03-29T09:00:41Z</time></trkpt><trkpt lat="40.00019018299029" lon="9.643755660633014"><ele>37.0</ele><time>2026-03-29T09:00:42Z</time></trkpt><trkpt lat="40.00030971843466" lon="9.643767945751453"><ele>37.0</ele><time>2026-03-29T09:00:43Z</time></trkpt><trkpt lat="40.00043018429375" lon="9.643837456166896"><ele>37.0</ele><time>2026-03-29T09:00:44Z</time></trkpt><trkpt lat="40.000529259869204" lon="9.643644891002353"><ele>37.0</ele><time>2026-03-29T09:00:45Z</time></trkpt><trkpt lat="40.00062753717543" lon="9.64351657957386"><ele>37.0</ele><time>2026-03-29T09:00:46Z</time></trkpt><trkpt lat="40.00073346790183" lon="9.643374475032978"><ele>37.0</ele><time>2026-03-29T09:00:47Z</time></trkpt><trkpt lat="40.00084980561866" lon="9.643234684771201"><ele>37.0</ele><time>2026-03-29T09:00:48Z</time></trkpt><trkpt lat="40.00097704987444" lon="9.643083988827096"><ele>37.0</ele><time>2026-03-29T09:00:49Z</time></trkpt><trkpt lat="40.001103982197826" lon="9.642930439238766"><ele>37.66666666666667</ele><time>2026-03-29T09:00:50Z</time></trkpt><trkpt lat="40.00122772679165" lon="9.642784269474234"><ele>38.333333333333336</ele><time>2026-03-29T09:00:51Z</time></trkpt><trkpt lat="40.001346877708585" lon="9.642644234071447"><ele>39.0</ele><time>2026-03-29T09:00:52Z</time></trkpt><trkpt lat="40.00146589629543" lon="9.642508572995911"><ele>39.0</ele><time>2026-03-29T09:00:53Z</time></trkpt><trkpt lat="40.00159008040726" lon="9.642368084499283"><ele>39.0</ele><time>2026-03-29T09:00:54Z</time></trkpt><trkpt lat="40.00172194555091" lon="9.64221283773647"><ele>39.0</ele><time>2026-03-29T09:00:55Z</time></trkpt><trkpt lat="40.001849390903985" lon="9.642057361382616"><ele>40.0</ele><time>2026-03-29T09:00:56Z</time></trkpt><trkpt lat="40.001986266832716" lon="9.64189918186338"><ele>41.0</ele><time>2026-03-29T09:00:57Z</time></trkpt><trkpt lat="40.002127572628815" lon="9.641739267175756"><ele>42.0</ele><time>2026-03-29T09:00:58Z</time></trkpt><trkpt lat="40.00226753463709" lon="9.641584302395302"><ele>42.0</ele><time>2026-03-29T09:00:59Z</time></trkpt><trkpt lat="40.00240913451756" lon="9.641418757418796"><ele>42.0</ele><time>2026-03-29T09:01:00Z</time></trkpt><trkpt lat="40.00255165355142" lon="9.641249633878694"><ele>42.0</ele><time>2026-03-29T09:01:01Z</time></trkpt><trkpt lat="40.0026935741839" lon="9.641083866291925"><ele>41.666666666666664</ele><time>2026-03-29T09:01:02Z</time></trkpt><trkpt lat="40.002819965850286" lon="9.640933193407845"><ele>41.33333333333333</ele><time>2026-03-29T09:01:03Z</time></trkpt><trkpt lat="40.00294411269418" lon="9.640791634857775"><ele>41.0</ele><time>2026-03-29T09:01:04Z</time></trkpt><trkpt lat="40.00306690174892" lon="9.640674526337945"><ele>41.0</ele><time>2026-03-29T09:01:05Z</time></trkpt><trkpt lat="40.00321857377537" lon="9.640615386933678"><ele>41.0</ele><time>2026-03-29T09:01:06Z</time></trkpt><trkpt lat="40.003374044956935" lon="9.640552283581329"><ele>41.0</ele><time>2026-03-29T09:01:07Z</time></trkpt><trkpt lat="40.00353903455237" lon="9.640490860342512"><ele>41.666666666666664</ele><time>2026-03-29T09:01:08Z</time></trkpt><trkpt lat="40.00371605578336" lon="9.640455086521353"><ele>42.333333333333336</ele><time>2026-03-29T09:01:09Z</time></trkpt><trkpt lat="40.003895606233414" lon="9.640409649537455"><ele>43.0</ele><time>2026-03-29T09:01:10Z</time></trkpt><trkpt lat="40.00407654338736" lon="9.640358538526241"><ele>42.66666666666667</ele><time>2026-03-29T09:01:11Z</time></trkpt><trkpt lat="40.004263461768026" lon="9.640322686206865"><ele>42.333333333333336</ele><time>2026-03-29T09:01:12Z</time></trkpt><trkpt lat="40.00444686896813" lon="9.640252734033519"><ele>42.0</ele><time>2026-03-29T09:01:13Z</time></trkpt><trkpt lat="40.00462868861183" lon="9.640171299647"><ele>42.0</ele><time>2026-03-29T09:01:14Z</time></trkpt><trkpt lat="40.00481333777083" lon="9.640088211418202"><ele>42.0</ele><time>2026-03-29T09:01:15Z</time></trkpt><trkpt lat="40.00499425727144" lon="9.639990181444489"><ele>42.0</ele><time>2026-03-29T09:01:16Z</time></trkpt><trkpt lat="40.00518990767593" lon="9.639962692771775"><ele>41.666666666666664</ele><time>2026-03-29T09:01:17Z</time></trkpt><trkpt lat="40.005380821106165" lon="9.639924625200523"><ele>41.33333333333333</ele><time>2026-03-29T09:01:18Z</time></trkpt><trkpt lat="40.005571809026115" lon="9.639871870632643"><ele>41.0</ele><time>2026-03-29T09:01:19Z</time></trkpt><trkpt lat="40.00575316452801" lon="9.639781816944742"><ele>42.0</ele><time>2026-03-29T09:01:20Z</time></trkpt><trkpt lat="40.00592711503383" lon="9.639705764199949"><ele>43.0</ele><time>2026-03-29T09:01:21Z</time></trkpt><trkpt lat="40.006079617957944" lon="9.639633359120129"><ele>44.0</ele><time>2026-03-29T09:01:22Z</time></trkpt><trkpt lat="40.00622163630219" lon="9.63954493028761"><ele>43.0</ele><time>2026-03-29T09:01:23Z</time></trkpt><trkpt lat="40.00636661360149" lon="9.639436990351724"><ele>42.0</ele><time>2026-03-29T09:01:24Z</time></trkpt><trkpt lat="40.00649780214141" lon="9.639270332722711"><ele>41.0</ele><time>2026-03-29T09:01:25Z</time></trkpt><trkpt lat="40.00663257994597" lon="9.639092853387229"><ele>41.0</ele><time>2026-03-29T09:01:26Z</time></trkpt><trkpt lat="40.006767346083734" lon="9.638915389444653"><ele>41.0</ele><time>2026-03-29T09:01:27Z</time></trkpt><trkpt lat="40.00690480628311" lon="9.638734377868653"><ele>41.0</ele><time>2026-03-29T09:01:28Z</time></trkpt><trkpt lat="40.00704625913016" lon="9.638548108762697"><ele>41.0</ele><time>2026-03-29T09:01:29Z</time></trkpt><trkpt lat="40.00717952599462" lon="9.63837201685387"><ele>41.0</ele><time>2026-03-29T09:01:30Z</time></trkpt><trkpt lat="40.00729855171414" lon="9.638213274671902"><ele>41.0</ele><time>2026-03-29T09:01:31Z</time></trkpt><trkpt lat="40.007405544329" lon="9.63807127931646"><ele>40.25</ele><time>2026-03-29T09:01:32Z</time></trkpt><trkpt lat="40.007503951596526" lon="9.6379452986325"><ele>39.5</ele><time>2026-03-29T09:01:33Z</time></trkpt><trkpt lat="40.00759568951798" lon="9.637828038454925"><ele>38.75</ele><time>2026-03-29T09:01:34Z</time></trkpt><trkpt lat="40.00769131358065" lon="9.637698571573932"><ele>38.0</ele><time>2026-03-29T09:01:35Z</time></trkpt><trkpt lat="40.007791930484444" lon="9.637561093775435"><ele>38.0</ele><time>2026-03-29T09:01:36Z</time></trkpt><trkpt lat="40.007898343093785" lon="9.637415697151116"><ele>38.0</ele><time>2026-03-29T09:01:37Z</time></trkpt><trkpt lat="40.00800800017063" lon="9.637266056446883"><ele>38.0</ele><time>2026-03-29T09:01:38Z</time></trkpt><trkpt lat="40.00811132332499" lon="9.63709718546713"><ele>39.33333333333333</ele><time>2026-03-29T09:01:39Z</time></trkpt><trkpt lat="40.008230569018004" lon="9.636942630946196"><ele>40.666666666666664</ele><time>2026-03-29T09:01:40Z</time></trkpt><trkpt lat="40.00835132724217" lon="9.636792320780698"><ele>42.0</ele><time>2026-03-29T09:01:41Z</time></trkpt><trkpt lat="40.00845792893119" lon="9.63665000292387"><ele>43.0</ele><time>2026-03-29T09:01:42Z</time></trkpt><trkpt lat="40.00855114141893" lon="9.636527390412583"><ele>44.0</ele><time>2026-03-29T09:01:43Z</time></trkpt><trkpt lat="40.00863785869622" lon="9.636409347209852"><ele>45.0</ele><time>2026-03-29T09:01:44Z</time></trkpt><trkpt lat="40.00871303101766" lon="9.63629899763345"><ele>46.0</ele><time>2026-03-29T09:01:45Z</time></trkpt><trkpt lat="40.008786725207344" lon="9.636191273971173"><ele>46.599999999999994</ele><time>2026-03-29T09:01:46Z</time></trkpt><trkpt lat="40.00885052553635" lon="9.636092607443823"><ele>47.2</ele><time>2026-03-29T09:01:47Z</time></trkpt><trkpt lat="40.008925238960664" lon="9.635993766614083"><ele>47.8</ele><time>2026-03-29T09:01:48Z</time></trkpt><trkpt lat="40.00900386412767" lon="9.635883745855622"><ele>48.400000000000006</ele><time>2026-03-29T09:01:49Z</time></trkpt><trkpt lat="40.009085212323434" lon="9.635766676095628"><ele>49.0</ele><time>2026-03-29T09:01:50Z</time></trkpt><trkpt lat="40.00917654853747" lon="9.635655869428609"><ele>49.0</ele><time>2026-03-29T09:01:51Z</time></trkpt><trkpt lat="40.009281442117" lon="9.635566726846376"><ele>49.0</ele><time>2026-03-29T09:01:51.999Z</time></trkpt><trkpt lat="40.00940019292908" lon="9.63551224806341"><ele>49.0</ele><time>2026-03-29T09:01:52.999Z</time></trkpt><trkpt lat="40.00952227262989" lon="9.63549252223138"><ele>49.0</ele><time>2026-03-29T09:01:53.999Z</time></trkpt><trkpt lat="40.00965403665549" lon="9.635486705561975"><ele>49.0</ele><time>2026-03-29T09:01:54.999Z</time></trkpt><trkpt lat="40.0097828409361" lon="9.635477955381809"><ele>49.0</ele><time>2026-03-29T09:01:55.999Z</time></trkpt><trkpt lat="40.00990862948776" lon="9.635466007063265"><ele>49.0</ele><time>2026-03-29T09:01:56.999Z</time></trkpt><trkpt lat="40.010034953119515" lon="9.635454266743164"><ele>49.0</ele><time>2026-03-29T09:01:57.999Z</time></trkpt><trkpt lat="40.01016280928174" lon="9.63544946691365"><ele>48.75</ele><time>2026-03-29T09:01:58.999Z</time></trkpt><trkpt lat="40.010298124721636" lon="9.635472694925904"><ele>48.5</ele><time>2026-03-29T09:01:59.999Z</time></trkpt><trkpt lat="40.01043216928777" lon="9.635475516171951"><ele>48.25</ele><time>2026-03-29T09:02:00.999Z</time></trkpt><trkpt lat="40.01056501197085" lon="9.635500172759537"><ele>48.0</ele><time>2026-03-29T09:02:01.999Z</time></trkpt><trkpt lat="40.010680829252024" lon="9.635520165828144"><ele>48.0</ele><time>2026-03-29T09:02:02.999Z</time></trkpt><trkpt lat="40.010803629633706" lon="9.635526157333697"><ele>48.0</ele><time>2026-03-29T09:02:03.999Z</time></trkpt><trkpt lat="40.01093227584651" lon="9.63552692879066"><ele>48.0</ele><time>2026-03-29T09:02:04.999Z</time></trkpt><trkpt lat="40.011063629903" lon="9.635518103899779"><ele>48.0</ele><time>2026-03-29T09:02:05.999Z</time></trkpt><trkpt lat="40.01120927586115" lon="9.635502490909554"><ele>48.33333333333333</ele><time>2026-03-29T09:02:06.999Z</time></trkpt><trkpt lat="40.011359325137065" lon="9.635495792397856"><ele>48.666666666666664</ele><time>2026-03-29T09:02:07.999Z</time></trkpt><trkpt lat="40.01150902365011" lon="9.635501651254167"><ele>49.0</ele><time>2026-03-29T09:02:08.999Z</time></trkpt><trkpt lat="40.011662098412" lon="9.635517300899364"><ele>49.0</ele><time>2026-03-29T09:02:09.999Z</time></trkpt><trkpt lat="40.011818632875816" lon="9.63552537532792"><ele>49.0</ele><time>2026-03-29T09:02:10.999Z</time></trkpt><trkpt lat="40.01197306303782" lon="9.635501715365201"><ele>49.0</ele><time>2026-03-29T09:02:11.999Z</time></trkpt><trkpt lat="40.01212835512541" lon="9.635445999569562"><ele>49.0</ele><time>2026-03-29T09:02:12.999Z</time></trkpt><trkpt lat="40.01228441375243" lon="9.63538844669609"><ele>49.0</ele><time>2026-03-29T09:02:13.999Z</time></trkpt><trkpt lat="40.01244340743524" lon="9.63536601008892"><ele>49.0</ele><time>2026-03-29T09:02:14.999Z</time></trkpt><trkpt lat="40.01260150892356" lon="9.635327960106665"><ele>51.666666666666664</ele><time>2026-03-29T09:02:15.999Z</time></trkpt><trkpt lat="40.012751822238485" lon="9.635243525209612"><ele>54.33333333333333</ele><time>2026-03-29T09:02:16.999Z</time></trkpt><trkpt lat="40.01290177605232" lon="9.635143520882728"><ele>57.0</ele><time>2026-03-29T09:02:17.999Z</time></trkpt><trkpt lat="40.01306097303017" lon="9.63510991119617"><ele>57.0</ele><time>2026-03-29T09:02:18.999Z</time></trkpt><trkpt lat="40.01323099185581" lon="9.635077051092086"><ele>57.0</ele><time>2026-03-29T09:02:19.999Z</time></trkpt><trkpt lat="40.01340320758941" lon="9.635061937339115"><ele>57.0</ele><time>2026-03-29T09:02:20.999Z</time></trkpt><trkpt lat="40.013572469869324" lon="9.635016749335197"><ele>56.33333333333333</ele><time>2026-03-29T09:02:21.999Z</time></trkpt><trkpt lat="40.01373992193642" lon="9.634952683989782"><ele>55.666666666666664</ele><time>2026-03-29T09:02:22.999Z</time></trkpt><trkpt lat="40.01389693790707" lon="9.63486132882363"><ele>55.0</ele><time>2026-03-29T09:02:23.999Z</time></trkpt><trkpt lat="40.014037318496" lon="9.634723785257249"><ele>54.33333333333333</ele><time>2026-03-29T09:02:24.999Z</time></trkpt><trkpt lat="40.01417979880338" lon="9.634601192400511"><ele>53.66666666666667</ele><time>2026-03-29T09:02:25.999Z</time></trkpt><trkpt lat="40.01430996853914" lon="9.634478137840173"><ele>53.0</ele><time>2026-03-29T09:02:26.999Z</time></trkpt><trkpt lat="40.0144407198747" lon="9.634395854120122"><ele>54.75</ele><time>2026-03-29T09:02:27.999Z</time></trkpt><trkpt lat="40.01458868025235" lon="9.634354233522933"><ele>56.5</ele><time>2026-03-29T09:02:28.999Z</time></trkpt><trkpt lat="40.01472298440456" lon="9.634384859551378"><ele>58.25</ele><time>2026-03-29T09:02:29.999Z</time></trkpt><trkpt lat="40.014865327021525" lon="9.63441084059816"><ele>60.0</ele><time>2026-03-29T09:02:30.999Z</time></trkpt><trkpt lat="40.015020914902344" lon="9.634466452418831"><ele>58.66666666666667</ele><time>2026-03-29T09:02:31.999Z</time></trkpt><trkpt lat="40.01518164926347" lon="9.634512959629761"><ele>57.333333333333336</ele><time>2026-03-29T09:02:32.999Z</time></trkpt><trkpt lat="40.01535068086926" lon="9.634563661939804"><ele>56.0</ele><time>2026-03-29T09:02:33.999Z</time></trkpt><trkpt lat="40.015528131351566" lon="9.634616142028534"><ele>56.0</ele><time>2026-03-29T09:02:34.999Z</time></trkpt><trkpt lat="40.01571039806806" lon="9.63466624957211"><ele>56.0</ele><time>2026-03-29T09:02:35.999Z</time></trkpt><trkpt lat="40.01589620797854" lon="9.6347240616004"><ele>56.0</ele><time>2026-03-29T09:02:36.999Z</time></trkpt><trkpt lat="40.01608594359014" lon="9.634778666837505"><ele>58.333333333333336</ele><time>2026-03-29T09:02:37.999Z</time></trkpt><trkpt lat="40.016266837639215" lon="9.634853338487611"><ele>60.66666666666667</ele><time>2026-03-29T09:02:38.999Z</time></trkpt><trkpt lat="40.016452431409824" lon="9.6348896909059"><ele>63.0</ele><time>2026-03-29T09:02:39.999Z</time></trkpt><trkpt lat="40.016633290793855" lon="9.634946607251964"><ele>64.66666666666667</ele><time>2026-03-29T09:02:40.999Z</time></trkpt><trkpt lat="40.01681266970723" lon="9.635005123648547"><ele>66.33333333333334</ele><time>2026-03-29T09:02:41.999Z</time></trkpt><trkpt lat="40.01698912642534" lon="9.63506730840976"><ele>68.0</ele><time>2026-03-29T09:02:42.999Z</time></trkpt><trkpt lat="40.0171549271863" lon="9.635158421555518"><ele>68.0</ele><time>2026-03-29T09:02:43.999Z</time></trkpt><trkpt lat="40.01730956490064" lon="9.635292646326839"><ele>68.0</ele><time>2026-03-29T09:02:45Z</time></trkpt><trkpt lat="40.01745699047199" lon="9.63546432467855"><ele>68.0</ele><time>2026-03-29T09:02:46Z</time></trkpt><trkpt lat="40.017607318749434" lon="9.635644329897728"><ele>68.33333333333334</ele><time>2026-03-29T09:02:47Z</time></trkpt><trkpt lat="40.01775769141881" lon="9.63582783083286"><ele>68.66666666666667</ele><time>2026-03-29T09:02:48Z</time></trkpt><trkpt lat="40.017907062003886" lon="9.636011367994685"><ele>69.0</ele><time>2026-03-29T09:02:49Z</time></trkpt><trkpt lat="40.0180563284524" lon="9.636194645598774"><ele>69.0</ele><time>2026-03-29T09:02:50Z</time></trkpt><trkpt lat="40.01820595954121" lon="9.63637833869537"><ele>69.0</ele><time>2026-03-29T09:02:51Z</time></trkpt><trkpt lat="40.01835534119438" lon="9.636558764955549"><ele>69.0</ele><time>2026-03-29T09:02:52Z</time></trkpt><trkpt lat="40.018503070719895" lon="9.636733227622072"><ele>69.0</ele><time>2026-03-29T09:02:53Z</time></trkpt><trkpt lat="40.018656018314886" lon="9.636917122655206"><ele>69.0</ele><time>2026-03-29T09:02:54Z</time></trkpt><trkpt lat="40.01881153521056" lon="9.63710875780161"><ele>69.0</ele><time>2026-03-29T09:02:55Z</time></trkpt><trkpt lat="40.018963025398044" lon="9.637296181959963"><ele>69.66666666666667</ele><time>2026-03-29T09:02:56Z</time></trkpt><trkpt lat="40.01908831608124" lon="9.637452410847173"><ele>70.33333333333334</ele><time>2026-03-29T09:02:57Z</time></trkpt><trkpt lat="40.01919545541794" lon="9.637598325080647"><ele>71.0</ele><time>2026-03-29T09:02:58Z</time></trkpt><trkpt lat="40.01929215745636" lon="9.637735392231118"><ele>70.0</ele><time>2026-03-29T09:02:59Z</time></trkpt><trkpt lat="40.01937041930598" lon="9.63785832985929"><ele>69.0</ele><time>2026-03-29T09:03:00Z</time></trkpt><trkpt lat="40.01942794834293" lon="9.637960421189472"><ele>68.0</ele><time>2026-03-29T09:03:01Z</time></trkpt><trkpt lat="40.01947073528092" lon="9.638038580524087"><ele>67.0</ele><time>2026-03-29T09:03:02Z</time></trkpt><trkpt lat="40.019516547724095" lon="9.638104647640061"><ele>66.0</ele><time>2026-03-29T09:03:04Z</time></trkpt><trkpt lat="40.019625192695706" lon="9.63790484071486"><ele>67.0</ele><time>2026-03-29T09:03:06Z</time></trkpt><trkpt lat="40.01964873055077" lon="9.637789298472196"><ele>68.0</ele><time>2026-03-29T09:03:07Z</time></trkpt><trkpt lat="40.0196942272458" lon="9.637659455945531"><ele>69.0</ele><time>2026-03-29T09:03:08Z</time></trkpt><trkpt lat="40.01975460863525" lon="9.637511867767257"><ele>70.0</ele><time>2026-03-29T09:03:09Z</time></trkpt><trkpt lat="40.019805743562806" lon="9.637386355990527"><ele>71.0</ele><time>2026-03-29T09:03:10Z</time></trkpt><trkpt lat="40.01986130906936" lon="9.637254687194135"><ele>71.0</ele><time>2026-03-29T09:03:11Z</time></trkpt><trkpt lat="40.019924268163244" lon="9.637120527962654"><ele>71.0</ele><time>2026-03-29T09:03:12Z</time></trkpt><trkpt lat="40.01999636636042" lon="9.636982760450529"><ele>71.0</ele><time>2026-03-29T09:03:13Z</time></trkpt><trkpt lat="40.02008416347145" lon="9.636848850921213"><ele>71.0</ele><time>2026-03-29T09:03:14Z</time></trkpt><trkpt lat="40.02018185453705" lon="9.636727697164824"><ele>71.0</ele><time>2026-03-29T09:03:15Z</time></trkpt><trkpt lat="40.02028980788397" lon="9.636609893628231"><ele>71.0</ele><time>2026-03-29T09:03:16Z</time></trkpt><trkpt lat="40.02040147328284" lon="9.636490175036402"><ele>71.0</ele><time>2026-03-29T09:03:17Z</time></trkpt><trkpt lat="40.02051658900362" lon="9.636370796637186"><ele>71.0</ele><time>2026-03-29T09:03:18Z</time></trkpt><trkpt lat="40.02063321043153" lon="9.636254366052697"><ele>71.0</ele><time>2026-03-29T09:03:19Z</time></trkpt><trkpt lat="40.020752813305634" lon="9.636144418029184"><ele>71.0</ele><time>2026-03-29T09:03:20Z</time></trkpt><trkpt lat="40.020883189855375" lon="9.636060840917654"><ele>71.0</ele><time>2026-03-29T09:03:21Z</time></trkpt><trkpt lat="40.02101944845215" lon="9.636009048507471"><ele>71.0</ele><time>2026-03-29T09:03:22Z</time></trkpt><trkpt lat="40.02115599585494" lon="9.635957863370502"><ele>71.2</ele><time>2026-03-29T09:03:23Z</time></trkpt><trkpt lat="40.021268321579576" lon="9.63591170895378"><ele>71.39999999999999</ele><time>2026-03-29T09:03:24Z</time></trkpt><trkpt lat="40.021359390853064" lon="9.635858951860385"><ele>71.6</ele><time>2026-03-29T09:03:25Z</time></trkpt><trkpt lat="40.02142937944475" lon="9.635777839210654"><ele>71.8</ele><time>2026-03-29T09:03:26Z</time></trkpt><trkpt lat="40.02148027715298" lon="9.635684918946534"><ele>72.0</ele><time>2026-03-29T09:03:27Z</time></trkpt><trkpt lat="40.02147850509479" lon="9.635541009885253"><ele>72.0</ele><time>2026-03-29T09:03:28Z</time></trkpt><trkpt lat="40.02146928813458" lon="9.635391046374796"><ele>72.0</ele><time>2026-03-29T09:03:29Z</time></trkpt><trkpt lat="40.02146281601629" lon="9.635229081770733"><ele>72.0</ele><time>2026-03-29T09:03:30Z</time></trkpt><trkpt lat="40.02147945498631" lon="9.635060809952073"><ele>72.0</ele><time>2026-03-29T09:03:31Z</time></trkpt><trkpt lat="40.02148101996021" lon="9.634891741694323"><ele>72.0</ele><time>2026-03-29T09:03:32Z</time></trkpt><trkpt lat="40.02147076336524" lon="9.634722916156441"><ele>72.0</ele><time>2026-03-29T09:03:33Z</time></trkpt><trkpt lat="40.02147610638329" lon="9.634573840176277"><ele>72.0</ele><time>2026-03-29T09:03:34Z</time></trkpt><trkpt lat="40.02147280258035" lon="9.634440007643574"><ele>72.0</ele><time>2026-03-29T09:03:35Z</time></trkpt><trkpt lat="40.02144296499797" lon="9.634332531371372"><ele>72.0</ele><time>2026-03-29T09:03:36Z</time></trkpt><trkpt lat="40.021378693408565" lon="9.634260343465845"><ele>72.4</ele><time>2026-03-29T09:03:37Z</time></trkpt><trkpt lat="40.02128716361932" lon="9.63421535054971"><ele>72.80000000000001</ele><time>2026-03-29T09:03:38Z</time></trkpt><trkpt lat="40.021196689466414" lon="9.634157232384771"><ele>73.2</ele><time>2026-03-29T09:03:39Z</time></trkpt><trkpt lat="40.02113583810022" lon="9.634076269374866"><ele>73.60000000000001</ele><time>2026-03-29T09:03:40Z</time></trkpt><trkpt lat="40.0211066259459" lon="9.633957236881834"><ele>74.0</ele><time>2026-03-29T09:03:41Z</time></trkpt><trkpt lat="40.021097451678145" lon="9.63380699005567"><ele>74.0</ele><time>2026-03-29T09:03:42Z</time></trkpt><trkpt lat="40.02109239715311" lon="9.633643784056305"><ele>74.0</ele><time>2026-03-29T09:03:43Z</time></trkpt><trkpt lat="40.021087974190664" lon="9.63346591942581"><ele>74.0</ele><time>2026-03-29T09:03:44Z</time></trkpt><trkpt lat="40.02109480155794" lon="9.633299119423537"><ele>74.0</ele><time>2026-03-29T09:03:45Z</time></trkpt><trkpt lat="40.02112336011128" lon="9.633146550306911"><ele>74.0</ele><time>2026-03-29T09:03:46Z</time></trkpt><trkpt lat="40.021155249668006" lon="9.632984713835958"><ele>74.0</ele><time>2026-03-29T09:03:47Z</time></trkpt><trkpt lat="40.021159213792046" lon="9.632813543370892"><ele>74.0</ele><time>2026-03-29T09:03:48Z</time></trkpt><trkpt lat="40.02113694745433" lon="9.632627848155764"><ele>74.0</ele><time>2026-03-29T09:03:49Z</time></trkpt><trkpt lat="40.02111013359956" lon="9.632426959300041"><ele>74.0</ele><time>2026-03-29T09:03:50Z</time></trkpt><trkpt lat="40.02107265380927" lon="9.632228047269244"><ele>74.0</ele><time>2026-03-29T09:03:51Z</time></trkpt><trkpt lat="40.021037994939604" lon="9.632019490214708"><ele>74.0</ele><time>2026-03-29T09:03:52Z</time></trkpt><trkpt lat="40.021002626399195" lon="9.631806199974765"><ele>74.0</ele><time>2026-03-29T09:03:53Z</time></trkpt><trkpt lat="40.020972512834106" lon="9.631584851466819"><ele>74.0</ele><time>2026-03-29T09:03:54Z</time></trkpt><trkpt lat="40.02093559551327" lon="9.631357344690056"><ele>74.0</ele><time>2026-03-29T09:03:55Z</time></trkpt><trkpt lat="40.020900039018" lon="9.631128966449959"><ele>74.0</ele><time>2026-03-29T09:03:56Z</time></trkpt><trkpt lat="40.02086334890535" lon="9.630893964116503"><ele>74.0</ele><time>2026-03-29T09:03:57Z</time></trkpt><trkpt lat="40.020828141753405" lon="9.630663454370012"><ele>74.0</ele><time>2026-03-29T09:03:58Z</time></trkpt><trkpt lat="40.0207927378734" lon="9.630446054378213"><ele>73.25</ele><time>2026-03-29T09:03:59Z</time></trkpt><trkpt lat="40.020758618192474" lon="9.63024946478084"><ele>72.5</ele><time>2026-03-29T09:04:00Z</time></trkpt><trkpt lat="40.02072985653539" lon="9.63006369198294"><ele>71.75</ele><time>2026-03-29T09:04:01Z</time></trkpt><trkpt lat="40.02070453299586" lon="9.629891411594544"><ele>71.0</ele><time>2026-03-29T09:04:02Z</time></trkpt><trkpt lat="40.02068115639406" lon="9.629729528371882"><ele>71.0</ele><time>2026-03-29T09:04:03Z</time></trkpt><trkpt lat="40.020663858764664" lon="9.62958848907585"><ele>71.0</ele><time>2026-03-29T09:04:04Z</time></trkpt><trkpt lat="40.020647778427374" lon="9.629478753864884"><ele>71.0</ele><time>2026-03-29T09:04:05Z</time></trkpt><trkpt lat="40.02061696481387" lon="9.62939193838374"><ele>71.0</ele><time>2026-03-29T09:04:06Z</time></trkpt><trkpt lat="40.020507054161385" lon="9.629331809651957"><ele>71.0</ele><time>2026-03-29T09:04:08Z</time></trkpt><trkpt lat="40.020431184934644" lon="9.629353923712365"><ele>70.66666666666667</ele><time>2026-03-29T09:04:09Z</time></trkpt><trkpt lat="40.02034884466347" lon="9.62939925517321"><ele>70.33333333333334</ele><time>2026-03-29T09:04:10Z</time></trkpt><trkpt lat="40.02024642446315" lon="9.629440008160717"><ele>70.0</ele><time>2026-03-29T09:04:11Z</time></trkpt><trkpt lat="40.02015391977126" lon="9.629473064478692"><ele>69.66666666666667</ele><time>2026-03-29T09:04:12Z</time></trkpt><trkpt lat="40.02007311061887" lon="9.629475315785069"><ele>69.33333333333333</ele><time>2026-03-29T09:04:13Z</time></trkpt><trkpt lat="40.020020698589455" lon="9.629416065736027"><ele>69.0</ele><time>2026-03-29T09:04:14Z</time></trkpt><trkpt lat="40.01999807040262" lon="9.629326586057683"><ele>69.0</ele><time>2026-03-29T09:04:15Z</time></trkpt><trkpt lat="40.01998946518165" lon="9.629197721035126"><ele>69.0</ele><time>2026-03-29T09:04:16Z</time></trkpt><trkpt lat="40.01997989058342" lon="9.629052697981521"><ele>69.0</ele><time>2026-03-29T09:04:17Z</time></trkpt><trkpt lat="40.01997195968394" lon="9.628888659693553"><ele>69.0</ele><time>2026-03-29T09:04:18Z</time></trkpt><trkpt lat="40.019966273020906" lon="9.628714310376012"><ele>68.25</ele><time>2026-03-29T09:04:19Z</time></trkpt><trkpt lat="40.01996404378446" lon="9.62853232420041"><ele>67.5</ele><time>2026-03-29T09:04:19.999Z</time></trkpt><trkpt lat="40.01996791826214" lon="9.628369413936742"><ele>66.75</ele><time>2026-03-29T09:04:20.999Z</time></trkpt><trkpt lat="40.019969041243165" lon="9.6282186509984"><ele>66.0</ele><time>2026-03-29T09:04:21.999Z</time></trkpt><trkpt lat="40.019968799077816" lon="9.62807947672821"><ele>66.0</ele><time>2026-03-29T09:04:22.999Z</time></trkpt><trkpt lat="40.01995039789473" lon="9.627958830399422"><ele>66.0</ele><time>2026-03-29T09:04:23.999Z</time></trkpt><trkpt lat="40.01990173928331" lon="9.627857531418579"><ele>66.0</ele><time>2026-03-29T09:04:24.999Z</time></trkpt><trkpt lat="40.01983407518076" lon="9.627767508151338"><ele>66.0</ele><time>2026-03-29T09:04:25.999Z</time></trkpt><trkpt lat="40.019765086948965" lon="9.627680236997382"><ele>66.0</ele><time>2026-03-29T09:04:26.999Z</time></trkpt><trkpt lat="40.01972911847111" lon="9.6275716761195"><ele>65.75</ele><time>2026-03-29T09:04:27.999Z</time></trkpt><trkpt lat="40.01974600111338" lon="9.627447033322337"><ele>65.5</ele><time>2026-03-29T09:04:28.999Z</time></trkpt><trkpt lat="40.01978316042768" lon="9.627304306135546"><ele>65.25</ele><time>2026-03-29T09:04:29.999Z</time></trkpt><trkpt lat="40.019824034380456" lon="9.6271554052209"><ele>65.0</ele><time>2026-03-29T09:04:30.999Z</time></trkpt><trkpt lat="40.019845865388184" lon="9.626997461089916"><ele>64.5</ele><time>2026-03-29T09:04:31.999Z</time></trkpt><trkpt lat="40.019847472213854" lon="9.62683098133994"><ele>64.0</ele><time>2026-03-29T09:04:32.999Z</time></trkpt><trkpt lat="40.01980028322334" lon="9.626668514466378"><ele>63.5</ele><time>2026-03-29T09:04:33.999Z</time></trkpt><trkpt lat="40.019724501471885" lon="9.62651846183288"><ele>63.0</ele><time>2026-03-29T09:04:34.999Z</time></trkpt><trkpt lat="40.0196346737691" lon="9.626375698355199"><ele>63.0</ele><time>2026-03-29T09:04:35.999Z</time></trkpt><trkpt lat="40.01958786122469" lon="9.626232786185923"><ele>63.0</ele><time>2026-03-29T09:04:36.999Z</time></trkpt><trkpt lat="40.0195343585107" lon="9.626104887245363"><ele>63.0</ele><time>2026-03-29T09:04:37.999Z</time></trkpt><trkpt lat="40.01951686199704" lon="9.62593877980109"><ele>63.0</ele><time>2026-03-29T09:04:38.999Z</time></trkpt><trkpt lat="40.019515196803056" lon="9.625763237965353"><ele>63.75</ele><time>2026-03-29T09:04:39.999Z</time></trkpt><trkpt lat="40.01950290451017" lon="9.625593721540774"><ele>64.5</ele><time>2026-03-29T09:04:40.999Z</time></trkpt><trkpt lat="40.019459282011596" lon="9.625455834211639"><ele>65.25</ele><time>2026-03-29T09:04:41.999Z</time></trkpt><trkpt lat="40.0193790203436" lon="9.625346928277558"><ele>66.0</ele><time>2026-03-29T09:04:42.999Z</time></trkpt><trkpt lat="40.019277243149205" lon="9.625228896019049"><ele>66.75</ele><time>2026-03-29T09:04:43.999Z</time></trkpt><trkpt lat="40.01917179417456" lon="9.625117342625767"><ele>67.5</ele><time>2026-03-29T09:04:44.999Z</time></trkpt><trkpt lat="40.019062202289625" lon="9.62499318286877"><ele>68.25</ele><time>2026-03-29T09:04:45.999Z</time></trkpt><trkpt lat="40.0189523072272" lon="9.624859220357775"><ele>69.0</ele><time>2026-03-29T09:04:46.999Z</time></trkpt><trkpt lat="40.01883766510787" lon="9.624722998371006"><ele>69.0</ele><time>2026-03-29T09:04:47.999Z</time></trkpt><trkpt lat="40.018722333775344" lon="9.624581304529807"><ele>69.0</ele><time>2026-03-29T09:04:48.999Z</time></trkpt><trkpt lat="40.01860865989872" lon="9.624430823620273"><ele>69.0</ele><time>2026-03-29T09:04:49.999Z</time></trkpt><trkpt lat="40.0184991309441" lon="9.624280945743067"><ele>71.0</ele><time>2026-03-29T09:04:51Z</time></trkpt><trkpt lat="40.01838679247811" lon="9.624132131797277"><ele>73.0</ele><time>2026-03-29T09:04:52Z</time></trkpt><trkpt lat="40.01827639864635" lon="9.623983201345714"><ele>75.0</ele><time>2026-03-29T09:04:53Z</time></trkpt><trkpt lat="40.01817865003791" lon="9.623823097276727"><ele>75.25</ele><time>2026-03-29T09:04:54Z</time></trkpt><trkpt lat="40.018097276954485" lon="9.623663066818068"><ele>75.5</ele><time>2026-03-29T09:04:55Z</time></trkpt><trkpt lat="40.018039252273624" lon="9.623517665077317"><ele>75.75</ele><time>2026-03-29T09:04:56Z</time></trkpt><trkpt lat="40.017989486034175" lon="9.62338537519309"><ele>76.0</ele><time>2026-03-29T09:04:57Z</time></trkpt><trkpt lat="40.017945036764324" lon="9.623266816462863"><ele>76.2</ele><time>2026-03-29T09:04:58Z</time></trkpt><trkpt lat="40.01790309293656" lon="9.623171725911192"><ele>76.39999999999999</ele><time>2026-03-29T09:04:59Z</time></trkpt><trkpt lat="40.017855365682244" lon="9.623100530736597"><ele>76.6</ele><time>2026-03-29T09:05:00Z</time></trkpt><trkpt lat="40.01782308682923" lon="9.623028313828335"><ele>76.8</ele><time>2026-03-29T09:05:01Z</time></trkpt><trkpt lat="40.01780762052847" lon="9.622840033470077"><ele>77.0</ele><time>2026-03-29T09:05:03Z</time></trkpt><trkpt lat="40.017787757289625" lon="9.622720684892956"><ele>77.4</ele><time>2026-03-29T09:05:04Z</time></trkpt><trkpt lat="40.017753518447755" lon="9.622592906874917"><ele>77.80000000000001</ele><time>2026-03-29T09:05:05Z</time></trkpt><trkpt lat="40.01773208784004" lon="9.622455635864418"><ele>78.2</ele><time>2026-03-29T09:05:06Z</time></trkpt><trkpt lat="40.01771141254847" lon="9.622328916931002"><ele>78.60000000000001</ele><time>2026-03-29T09:05:07Z</time></trkpt><trkpt lat="40.017706697470445" lon="9.622238181349664"><ele>79.0</ele><time>2026-03-29T09:05:08Z</time></trkpt><trkpt lat="40.01771984791291" lon="9.622148298569774"><ele>79.0</ele><time>2026-03-29T09:05:09Z</time></trkpt><trkpt lat="40.01783821126804" lon="9.622068058288995"><ele>79.0</ele><time>2026-03-29T09:05:11Z</time></trkpt><trkpt lat="40.01793454824137" lon="9.622075654485165"><ele>79.0</ele><time>2026-03-29T09:05:12Z</time></trkpt><trkpt lat="40.018034757566696" lon="9.622094667261045"><ele>79.0</ele><time>2026-03-29T09:05:13Z</time></trkpt><trkpt lat="40.018130088665664" lon="9.622114875896091"><ele>79.0</ele><time>2026-03-29T09:05:14Z</time></trkpt><trkpt lat="40.01824053875051" lon="9.622151169575819"><ele>81.25</ele><time>2026-03-29T09:05:15Z</time></trkpt><trkpt lat="40.01835722849565" lon="9.622167705894695"><ele>83.5</ele><time>2026-03-29T09:05:16Z</time></trkpt><trkpt lat="40.018465086386456" lon="9.622195063604162"><ele>85.75</ele><time>2026-03-29T09:05:17Z</time></trkpt><trkpt lat="40.01858657585513" lon="9.622243538831418"><ele>88.0</ele><time>2026-03-29T09:05:18Z</time></trkpt><trkpt lat="40.01870752333789" lon="9.622291538349247"><ele>88.0</ele><time>2026-03-29T09:05:19Z</time></trkpt><trkpt lat="40.01882994948398" lon="9.622320778561184"><ele>88.0</ele><time>2026-03-29T09:05:20Z</time></trkpt><trkpt lat="40.01896116625682" lon="9.62232231797226"><ele>88.0</ele><time>2026-03-29T09:05:21Z</time></trkpt><trkpt lat="40.01908910969257" lon="9.622319987844186"><ele>88.0</ele><time>2026-03-29T09:05:22Z</time></trkpt><trkpt lat="40.019218557289115" lon="9.622326026280506"><ele>90.0</ele><time>2026-03-29T09:05:23Z</time></trkpt><trkpt lat="40.01934680334632" lon="9.622333877095386"><ele>92.0</ele><time>2026-03-29T09:05:24Z</time></trkpt><trkpt lat="40.01944913376195" lon="9.622325154856307"><ele>94.0</ele><time>2026-03-29T09:05:25Z</time></trkpt><trkpt lat="40.01954469827636" lon="9.622306055093974"><ele>96.0</ele><time>2026-03-29T09:05:26Z</time></trkpt><trkpt lat="40.019624122497305" lon="9.62230068492385"><ele>98.0</ele><time>2026-03-29T09:05:27Z</time></trkpt><trkpt lat="40.019718856911204" lon="9.622342615783843"><ele>98.0</ele><time>2026-03-29T09:05:28Z</time></trkpt><trkpt lat="40.01982386553338" lon="9.622394976454256"><ele>98.0</ele><time>2026-03-29T09:05:29Z</time></trkpt><trkpt lat="40.01993768994192" lon="9.622429191272397"><ele>98.0</ele><time>2026-03-29T09:05:30Z</time></trkpt><trkpt lat="40.02006107776056" lon="9.622460869530405"><ele>98.0</ele><time>2026-03-29T09:05:31Z</time></trkpt><trkpt lat="40.020186263753914" lon="9.622490077499329"><ele>99.25</ele><time>2026-03-29T09:05:32Z</time></trkpt><trkpt lat="40.020315735475876" lon="9.622527438126056"><ele>100.5</ele><time>2026-03-29T09:05:33Z</time></trkpt><trkpt lat="40.02044905253954" lon="9.622569218706934"><ele>101.75</ele><time>2026-03-29T09:05:34Z</time></trkpt><trkpt lat="40.02058547959947" lon="9.622614466191802"><ele>103.0</ele><time>2026-03-29T09:05:35Z</time></trkpt><trkpt lat="40.02072166759749" lon="9.622648548002443"><ele>103.0</ele><time>2026-03-29T09:05:36Z</time></trkpt><trkpt lat="40.02086146608542" lon="9.622675836344914"><ele>103.0</ele><time>2026-03-29T09:05:37Z</time></trkpt><trkpt lat="40.020999427035655" lon="9.622696082933906"><ele>103.0</ele><time>2026-03-29T09:05:38Z</time></trkpt><trkpt lat="40.021131772141345" lon="9.622708108885108"><ele>103.0</ele><time>2026-03-29T09:05:39Z</time></trkpt><trkpt lat="40.02125973101596" lon="9.622696236742406"><ele>103.0</ele><time>2026-03-29T09:05:40Z</time></trkpt><trkpt lat="40.02137708755299" lon="9.622672616091897"><ele>103.0</ele><time>2026-03-29T09:05:41Z</time></trkpt><trkpt lat="40.0214844718795" lon="9.62263294110229"><ele>103.0</ele><time>2026-03-29T09:05:42Z</time></trkpt><trkpt lat="40.02158414249186" lon="9.622573524272365"><ele>103.0</ele><time>2026-03-29T09:05:43Z</time></trkpt><trkpt lat="40.02168320622852" lon="9.622510395786074"><ele>106.5</ele><time>2026-03-29T09:05:44Z</time></trkpt><trkpt lat="40.02178669362013" lon="9.622439295370729"><ele>110.0</ele><time>2026-03-29T09:05:45Z</time></trkpt><trkpt lat="40.02189135946459" lon="9.62236654769026"><ele>113.5</ele><time>2026-03-29T09:05:46Z</time></trkpt><trkpt lat="40.021995804098914" lon="9.622289450233975"><ele>117.0</ele><time>2026-03-29T09:05:47Z</time></trkpt><trkpt lat="40.02209698129853" lon="9.622202553000795"><ele>117.0</ele><time>2026-03-29T09:05:48Z</time></trkpt><trkpt lat="40.022195172356874" lon="9.622112683273842"><ele>117.0</ele><time>2026-03-29T09:05:49Z</time></trkpt><trkpt lat="40.02228880801473" lon="9.622007976412663"><ele>117.0</ele><time>2026-03-29T09:05:50Z</time></trkpt><trkpt lat="40.02238215503548" lon="9.621904159411764"><ele>117.0</ele><time>2026-03-29T09:05:51Z</time></trkpt><trkpt lat="40.02247685564939" lon="9.621819654511958"><ele>117.8</ele><time>2026-03-29T09:05:52Z</time></trkpt><trkpt lat="40.02257477369826" lon="9.621754566682284"><ele>118.6</ele><time>2026-03-29T09:05:53Z</time></trkpt><trkpt lat="40.022689035154656" lon="9.621711365011391"><ele>119.39999999999999</ele><time>2026-03-29T09:05:54Z</time></trkpt><trkpt lat="40.02279665524344" lon="9.621679646047134"><ele>120.19999999999999</ele><time>2026-03-29T09:05:55Z</time></trkpt><trkpt lat="40.02289078866908" lon="9.621663575264403"><ele>121.0</ele><time>2026-03-29T09:05:56Z</time></trkpt><trkpt lat="40.022965498944174" lon="9.62167660788795"><ele>121.0</ele><time>2026-03-29T09:05:57Z</time></trkpt><trkpt lat="40.023045062987386" lon="9.621733579865602"><ele>121.0</ele><time>2026-03-29T09:05:58Z</time></trkpt><trkpt lat="40.023135652920104" lon="9.621794941568366"><ele>121.0</ele><time>2026-03-29T09:05:59Z</time></trkpt><trkpt lat="40.023236755627735" lon="9.621834447710658"><ele>121.0</ele><time>2026-03-29T09:06:00Z</time></trkpt><trkpt lat="40.023341667307164" lon="9.621850972612132"><ele>121.0</ele><time>2026-03-29T09:06:01Z</time></trkpt><trkpt lat="40.02344654622908" lon="9.621870979728309"><ele>122.0</ele><time>2026-03-29T09:06:02Z</time></trkpt><trkpt lat="40.023553202214615" lon="9.621899397079062"><ele>123.0</ele><time>2026-03-29T09:06:03Z</time></trkpt><trkpt lat="40.0236495965286" lon="9.621944821505538"><ele>124.0</ele><time>2026-03-29T09:06:04Z</time></trkpt><trkpt lat="40.02373753682509" lon="9.622004197291858"><ele>125.0</ele><time>2026-03-29T09:06:05Z</time></trkpt><trkpt lat="40.02382300259861" lon="9.622057252524263"><ele>126.0</ele><time>2026-03-29T09:06:06Z</time></trkpt><trkpt lat="40.023923351926534" lon="9.622037688870579"><ele>127.6</ele><time>2026-03-29T09:06:07Z</time></trkpt><trkpt lat="40.02402848277462" lon="9.622019892621527"><ele>129.2</ele><time>2026-03-29T09:06:08Z</time></trkpt><trkpt lat="40.02412541438249" lon="9.622013706263818"><ele>130.8</ele><time>2026-03-29T09:06:09Z</time></trkpt><trkpt lat="40.02422181786609" lon="9.622042387631739"><ele>132.4</ele><time>2026-03-29T09:06:10Z</time></trkpt><trkpt lat="40.024333240459256" lon="9.622102263196208"><ele>134.0</ele><time>2026-03-29T09:06:11Z</time></trkpt><trkpt lat="40.02443698044585" lon="9.622171300563783"><ele>135.25</ele><time>2026-03-29T09:06:12Z</time></trkpt><trkpt lat="40.024542990870856" lon="9.622232865915825"><ele>136.5</ele><time>2026-03-29T09:06:12.999Z</time></trkpt><trkpt lat="40.024651334748896" lon="9.622289685196113"><ele>137.75</ele><time>2026-03-29T09:06:13.999Z</time></trkpt><trkpt lat="40.02476095620747" lon="9.622319952984752"><ele>139.0</ele><time>2026-03-29T09:06:14.999Z</time></trkpt><trkpt lat="40.02487221456888" lon="9.62232190169294"><ele>141.0</ele><time>2026-03-29T09:06:15.999Z</time></trkpt><trkpt lat="40.02498731564876" lon="9.622304526068865"><ele>143.0</ele><time>2026-03-29T09:06:16.999Z</time></trkpt><trkpt lat="40.02510552467156" lon="9.622288191124824"><ele>145.0</ele><time>2026-03-29T09:06:17.999Z</time></trkpt><trkpt lat="40.02522368450927" lon="9.62227446936375"><ele>147.0</ele><time>2026-03-29T09:06:18.999Z</time></trkpt><trkpt lat="40.02534049015907" lon="9.622257268326258"><ele>147.0</ele><time>2026-03-29T09:06:19.999Z</time></trkpt><trkpt lat="40.02545234113793" lon="9.62221725988572"><ele>147.0</ele><time>2026-03-29T09:06:20.999Z</time></trkpt><trkpt lat="40.02557137809763" lon="9.622179154044519"><ele>147.0</ele><time>2026-03-29T09:06:21.999Z</time></trkpt><trkpt lat="40.02570102594698" lon="9.622109202135222"><ele>147.0</ele><time>2026-03-29T09:06:22.999Z</time></trkpt><trkpt lat="40.02584798365037" lon="9.6220158101852"><ele>148.5</ele><time>2026-03-29T09:06:23.999Z</time></trkpt><trkpt lat="40.02600281532426" lon="9.621931996211169"><ele>150.0</ele><time>2026-03-29T09:06:24.999Z</time></trkpt><trkpt lat="40.026122514469805" lon="9.621871984437448"><ele>151.5</ele><time>2026-03-29T09:06:25.999Z</time></trkpt><trkpt lat="40.02622525278327" lon="9.62180883794454"><ele>153.0</ele><time>2026-03-29T09:06:26.999Z</time></trkpt><trkpt lat="40.026303758394256" lon="9.621726479090045"><ele>153.0</ele><time>2026-03-29T09:06:27.999Z</time></trkpt><trkpt lat="40.02635266015756" lon="9.621627975805296"><ele>153.0</ele><time>2026-03-29T09:06:28.999Z</time></trkpt><trkpt lat="40.02639104144617" lon="9.621500641307525"><ele>153.0</ele><time>2026-03-29T09:06:29.999Z</time></trkpt><trkpt lat="40.02641483088133" lon="9.62136336139486"><ele>153.0</ele><time>2026-03-29T09:06:30.999Z</time></trkpt><trkpt lat="40.02644649321195" lon="9.62125799851143"><ele>153.0</ele><time>2026-03-29T09:06:31.999Z</time></trkpt><trkpt lat="40.02646160195297" lon="9.621167492651217"><ele>152.16666666666666</ele><time>2026-03-29T09:06:32.999Z</time></trkpt><trkpt lat="40.02647414073118" lon="9.62108453773585"><ele>151.33333333333334</ele><time>2026-03-29T09:06:33.999Z</time></trkpt><trkpt lat="40.02650588353176" lon="9.621012209416484"><ele>150.5</ele><time>2026-03-29T09:06:35.999Z</time></trkpt><trkpt lat="40.02662604015758" lon="9.62102265067892"><ele>149.66666666666669</ele><time>2026-03-29T09:06:37.999Z</time></trkpt><trkpt lat="40.026683045933" lon="9.621059432829973"><ele>148.83333333333334</ele><time>2026-03-29T09:06:38.999Z</time></trkpt><trkpt lat="40.02673555442913" lon="9.621114941542707"><ele>148.0</ele><time>2026-03-29T09:06:39.999Z</time></trkpt><trkpt lat="40.02678540828343" lon="9.621188346211104"><ele>151.16666666666669</ele><time>2026-03-29T09:06:40.999Z</time></trkpt><trkpt lat="40.02682260601403" lon="9.62126955038835"><ele>154.33333333333334</ele><time>2026-03-29T09:06:41.999Z</time></trkpt><trkpt lat="40.02685156316165" lon="9.621358818610679"><ele>157.5</ele><time>2026-03-29T09:06:42.999Z</time></trkpt><trkpt lat="40.02686807812053" lon="9.621465229322835"><ele>160.66666666666666</ele><time>2026-03-29T09:06:43.999Z</time></trkpt><trkpt lat="40.0268683624217" lon="9.62156958301142"><ele>163.83333333333331</ele><time>2026-03-29T09:06:44.999Z</time></trkpt><trkpt lat="40.02685944962345" lon="9.6216915264213"><ele>167.0</ele><time>2026-03-29T09:06:45.999Z</time></trkpt><trkpt lat="40.026854837740686" lon="9.621827389994817"><ele>167.0</ele><time>2026-03-29T09:06:46.999Z</time></trkpt><trkpt lat="40.02685580630662" lon="9.621959990852975"><ele>167.0</ele><time>2026-03-29T09:06:47.999Z</time></trkpt><trkpt lat="40.026854820980695" lon="9.622089174115198"><ele>167.0</ele><time>2026-03-29T09:06:48.999Z</time></trkpt><trkpt lat="40.02685669059727" lon="9.622192793744755"><ele>167.0</ele><time>2026-03-29T09:06:49.999Z</time></trkpt><trkpt lat="40.026883002410614" lon="9.622331820723426"><ele>167.0</ele><time>2026-03-29T09:06:51.999Z</time></trkpt><trkpt lat="40.02696797344926" lon="9.622405286155518"><ele>167.6</ele><time>2026-03-29T09:06:53.999Z</time></trkpt><trkpt lat="40.02704381023587" lon="9.622394382101797"><ele>168.2</ele><time>2026-03-29T09:06:54.999Z</time></trkpt><trkpt lat="40.02712813292078" lon="9.622355668026305"><ele>168.8</ele><time>2026-03-29T09:06:55.999Z</time></trkpt><trkpt lat="40.02721055627324" lon="9.622313012779607"><ele>169.4</ele><time>2026-03-29T09:06:57Z</time></trkpt><trkpt lat="40.02730046295904" lon="9.622274875761173"><ele>170.0</ele><time>2026-03-29T09:06:58Z</time></trkpt><trkpt lat="40.02739617655467" lon="9.622220400668708"><ele>171.83333333333331</ele><time>2026-03-29T09:06:59Z</time></trkpt><trkpt lat="40.02748899179118" lon="9.622168790053193"><ele>173.66666666666666</ele><time>2026-03-29T09:07:00Z</time></trkpt><trkpt lat="40.027582516720265" lon="9.622130666735972"><ele>175.5</ele><time>2026-03-29T09:07:01Z</time></trkpt><trkpt lat="40.02765320617314" lon="9.622102879885945"><ele>177.33333333333334</ele><time>2026-03-29T09:07:02Z</time></trkpt><trkpt lat="40.02772727128092" lon="9.622099002486218"><ele>179.16666666666669</ele><time>2026-03-29T09:07:03Z</time></trkpt><trkpt lat="40.02780110416223" lon="9.622141994098689"><ele>181.0</ele><time>2026-03-29T09:07:04Z</time></trkpt><trkpt lat="40.027882259695005" lon="9.622147798281551"><ele>181.0</ele><time>2026-03-29T09:07:05Z</time></trkpt><trkpt lat="40.02795950681363" lon="9.622161613012615"><ele>181.0</ele><time>2026-03-29T09:07:06Z</time></trkpt><trkpt lat="40.02803428081347" lon="9.622153123842365"><ele>181.0</ele><time>2026-03-29T09:07:07Z</time></trkpt><trkpt lat="40.028108709433546" lon="9.622121712187433"><ele>181.0</ele><time>2026-03-29T09:07:08Z</time></trkpt><trkpt lat="40.02817557031937" lon="9.622066762983373"><ele>181.0</ele><time>2026-03-29T09:07:09Z</time></trkpt><trkpt lat="40.028236209143024" lon="9.62200680961128"><ele>181.0</ele><time>2026-03-29T09:07:10Z</time></trkpt><trkpt lat="40.02829871153755" lon="9.62195282825385"><ele>183.0</ele><time>2026-03-29T09:07:11Z</time></trkpt><trkpt lat="40.02836703962945" lon="9.621902508095387"><ele>185.0</ele><time>2026-03-29T09:07:12Z</time></trkpt><trkpt lat="40.02843481650082" lon="9.621843462691931"><ele>187.0</ele><time>2026-03-29T09:07:13Z</time></trkpt><trkpt lat="40.02850545934079" lon="9.621775472394344"><ele>189.0</ele><time>2026-03-29T09:07:14Z</time></trkpt><trkpt lat="40.02858925726607" lon="9.621696243842637"><ele>190.99999999999997</ele><time>2026-03-29T09:07:15Z</time></trkpt><trkpt lat="40.02867014963709" lon="9.621624455933096"><ele>193.0</ele><time>2026-03-29T09:07:16Z</time></trkpt><trkpt lat="40.02872657841357" lon="9.621582678445105"><ele>192.99999999999997</ele><time>2026-03-29T09:07:17Z</time></trkpt><trkpt lat="40.028840806940394" lon="9.621517836262816"><ele>193.0</ele><time>2026-03-29T09:07:19Z</time></trkpt><trkpt lat="40.02890764958436" lon="9.621480406128327"><ele>193.0</ele><time>2026-03-29T09:07:20Z</time></trkpt><trkpt lat="40.02897304701393" lon="9.621446026231178"><ele>193.0</ele><time>2026-03-29T09:07:21Z</time></trkpt><trkpt lat="40.02903179803226" lon="9.621414604923784"><ele>192.99999999999997</ele><time>2026-03-29T09:07:22Z</time></trkpt><trkpt lat="40.02909198496137" lon="9.621382255403894"><ele>193.0</ele><time>2026-03-29T09:07:23Z</time></trkpt><trkpt lat="40.029158206408965" lon="9.621352259422496"><ele>194.16666666666666</ele><time>2026-03-29T09:07:24Z</time></trkpt><trkpt lat="40.02922847798774" lon="9.621327698829033"><ele>195.33333333333331</ele><time>2026-03-29T09:07:25Z</time></trkpt><trkpt lat="40.02930113640766" lon="9.621313154880948"><ele>196.5</ele><time>2026-03-29T09:07:26Z</time></trkpt><trkpt lat="40.02937191190487" lon="9.621310500509463"><ele>197.66666666666669</ele><time>2026-03-29T09:07:27Z</time></trkpt><trkpt lat="40.02944416322484" lon="9.62133315823983"><ele>198.83333333333334</ele><time>2026-03-29T09:07:28Z</time></trkpt><trkpt lat="40.02952332144005" lon="9.621325054460353"><ele>200.0</ele><time>2026-03-29T09:07:29Z</time></trkpt><trkpt lat="40.029611182973575" lon="9.621337185572525"><ele>200.00000000000003</ele><time>2026-03-29T09:07:30Z</time></trkpt><trkpt lat="40.02969449364067" lon="9.62134038330117"><ele>200.0</ele><time>2026-03-29T09:07:31Z</time></trkpt><trkpt lat="40.029779461530154" lon="9.621343185303235"><ele>200.0</ele><time>2026-03-29T09:07:32Z</time></trkpt><trkpt lat="40.02985339049164" lon="9.621330051835793"><ele>200.0</ele><time>2026-03-29T09:07:33Z</time></trkpt><trkpt lat="40.02991753453036" lon="9.62128358554976"><ele>200.00000000000003</ele><time>2026-03-29T09:07:34Z</time></trkpt><trkpt lat="40.029969192721225" lon="9.621199989829654"><ele>200.0</ele><time>2026-03-29T09:07:35Z</time></trkpt><trkpt lat="40.03002223577373" lon="9.621128951606732"><ele>202.33333333333334</ele><time>2026-03-29T09:07:36Z</time></trkpt><trkpt lat="40.03007065931131" lon="9.621044173305663"><ele>204.66666666666669</ele><time>2026-03-29T09:07:37Z</time></trkpt><trkpt lat="40.03011525273496" lon="9.62096293867614"><ele>207.0</ele><time>2026-03-29T09:07:38Z</time></trkpt><trkpt lat="40.030157361743576" lon="9.620895073814767"><ele>209.33333333333331</ele><time>2026-03-29T09:07:39Z</time></trkpt><trkpt lat="40.03021666056334" lon="9.620823998442047"><ele>211.66666666666666</ele><time>2026-03-29T09:07:41Z</time></trkpt><trkpt lat="40.03027924386574" lon="9.620743764265347"><ele>214.0</ele><time>2026-03-29T09:07:43Z</time></trkpt><trkpt lat="40.030350366270646" lon="9.62060563724711"><ele>214.00000000000003</ele><time>2026-03-29T09:07:45Z</time></trkpt><trkpt lat="40.03039669233813" lon="9.620544304661664"><ele>214.0</ele><time>2026-03-29T09:07:46Z</time></trkpt><trkpt lat="40.03044940276777" lon="9.620475086467895"><ele>214.0</ele><time>2026-03-29T09:07:47Z</time></trkpt><trkpt lat="40.03050536217856" lon="9.620415741051477"><ele>214.0</ele><time>2026-03-29T09:07:48Z</time></trkpt><trkpt lat="40.03056185283613" lon="9.620353859077786"><ele>214.0</ele><time>2026-03-29T09:07:49Z</time></trkpt><trkpt lat="40.030611919276026" lon="9.620286877234175"><ele>214.00000000000003</ele><time>2026-03-29T09:07:50Z</time></trkpt><trkpt lat="40.03066811816633" lon="9.620226545778797"><ele>214.0</ele><time>2026-03-29T09:07:51Z</time></trkpt><trkpt lat="40.03072827947373" lon="9.620179160741815"><ele>212.71428571428572</ele><time>2026-03-29T09:07:52Z</time></trkpt><trkpt lat="40.03077833928742" lon="9.620109831115927"><ele>211.42857142857144</ele><time>2026-03-29T09:07:53Z</time></trkpt><trkpt lat="40.03083695902114" lon="9.620046661868832"><ele>210.14285714285717</ele><time>2026-03-29T09:07:54Z</time></trkpt><trkpt lat="40.03089795758657" lon="9.619985956184912"><ele>208.85714285714286</ele><time>2026-03-29T09:07:55Z</time></trkpt><trkpt lat="40.03095683373505" lon="9.619924817088783"><ele>207.57142857142856</ele><time>2026-03-29T09:07:56Z</time></trkpt><trkpt lat="40.031017229050065" lon="9.619864866587765"><ele>206.2857142857143</ele><time>2026-03-29T09:07:57Z</time></trkpt><trkpt lat="40.03107134351285" lon="9.619804021638585"><ele>205.0</ele><time>2026-03-29T09:07:58Z</time></trkpt><trkpt lat="40.031114028577605" lon="9.61973003106463"><ele>205.8</ele><time>2026-03-29T09:07:59Z</time></trkpt><trkpt lat="40.03116454683002" lon="9.619590017287857"><ele>206.6</ele><time>2026-03-29T09:08:01Z</time></trkpt><trkpt lat="40.03120346314226" lon="9.619473699092453"><ele>207.39999999999998</ele><time>2026-03-29T09:08:03Z</time></trkpt><trkpt lat="40.031279157215856" lon="9.619443374658957"><ele>208.2</ele><time>2026-03-29T09:08:05Z</time></trkpt><trkpt lat="40.03138628671713" lon="9.61947974956197"><ele>209.0</ele><time>2026-03-29T09:08:07Z</time></trkpt><trkpt lat="40.03145510976234" lon="9.619490895882679"><ele>211.66666666666669</ele><time>2026-03-29T09:08:08Z</time></trkpt><trkpt lat="40.03152073060601" lon="9.619499365952175"><ele>214.33333333333334</ele><time>2026-03-29T09:08:09Z</time></trkpt><trkpt lat="40.03159140819916" lon="9.619506272216825"><ele>217.0</ele><time>2026-03-29T09:08:10Z</time></trkpt><trkpt lat="40.03166790868196" lon="9.619513346752614"><ele>219.66666666666669</ele><time>2026-03-29T09:08:11Z</time></trkpt><trkpt lat="40.031748548148464" lon="9.61951327879821"><ele>222.33333333333334</ele><time>2026-03-29T09:08:12Z</time></trkpt><trkpt lat="40.03182960493537" lon="9.619517037493862"><ele>225.0</ele><time>2026-03-29T09:08:12.999Z</time></trkpt><trkpt lat="40.0319116726477" lon="9.61953271314685"><ele>226.5</ele><time>2026-03-29T09:08:13.999Z</time></trkpt><trkpt lat="40.03198792880837" lon="9.619558305170143"><ele>228.0</ele><time>2026-03-29T09:08:14.999Z</time></trkpt><trkpt lat="40.032054471550936" lon="9.619622328923402"><ele>229.5</ele><time>2026-03-29T09:08:15.999Z</time></trkpt><trkpt lat="40.03212051283541" lon="9.61962363270491"><ele>231.0</ele><time>2026-03-29T09:08:16.999Z</time></trkpt><trkpt lat="40.032261443504225" lon="9.619609598013884"><ele>232.5</ele><time>2026-03-29T09:08:18.999Z</time></trkpt><trkpt lat="40.032341696832034" lon="9.619613169760173"><ele>234.0</ele><time>2026-03-29T09:08:19.999Z</time></trkpt><trkpt lat="40.03243846632853" lon="9.619598180989232"><ele>235.39999999999998</ele><time>2026-03-29T09:08:20.999Z</time></trkpt><trkpt lat="40.03253051572392" lon="9.619569729478146"><ele>236.79999999999998</ele><time>2026-03-29T09:08:21.999Z</time></trkpt><trkpt lat="40.03262014905674" lon="9.619536173935034"><ele>238.20000000000002</ele><time>2026-03-29T09:08:22.999Z</time></trkpt><trkpt lat="40.03270551500678" lon="9.619509440783833"><ele>239.60000000000002</ele><time>2026-03-29T09:08:23.999Z</time></trkpt><trkpt lat="40.032801001954375" lon="9.619474848265058"><ele>241.0</ele><time>2026-03-29T09:08:24.999Z</time></trkpt><trkpt lat="40.03289815272265" lon="9.61943992772644"><ele>241.0</ele><time>2026-03-29T09:08:25.999Z</time></trkpt><trkpt lat="40.032993899127256" lon="9.619423139324484"><ele>241.00000000000003</ele><time>2026-03-29T09:08:26.999Z</time></trkpt><trkpt lat="40.0330877865622" lon="9.619375943383638"><ele>241.00000000000003</ele><time>2026-03-29T09:08:27.999Z</time></trkpt><trkpt lat="40.0331850770159" lon="9.619330120861893"><ele>241.0</ele><time>2026-03-29T09:08:28.999Z</time></trkpt><trkpt lat="40.03326653418829" lon="9.61927803408687"><ele>241.0</ele><time>2026-03-29T09:08:29.999Z</time></trkpt><trkpt lat="40.03333927968658" lon="9.619219106636153"><ele>240.8</ele><time>2026-03-29T09:08:30.999Z</time></trkpt><trkpt lat="40.03342015918935" lon="9.619158923989708"><ele>240.60000000000002</ele><time>2026-03-29T09:08:31.999Z</time></trkpt><trkpt lat="40.03351486977192" lon="9.619109199495513"><ele>240.4</ele><time>2026-03-29T09:08:32.999Z</time></trkpt><trkpt lat="40.0336132477497" lon="9.619083050111751"><ele>240.2</ele><time>2026-03-29T09:08:33.999Z</time></trkpt><trkpt lat="40.033707532883824" lon="9.619061217857931"><ele>240.0</ele><time>2026-03-29T09:08:34.999Z</time></trkpt><trkpt lat="40.03378974809387" lon="9.61906912324935"><ele>240.0</ele><time>2026-03-29T09:08:35.999Z</time></trkpt><trkpt lat="40.03387736237706" lon="9.619066484325295"><ele>240.0</ele><time>2026-03-29T09:08:36.999Z</time></trkpt><trkpt lat="40.033970120899724" lon="9.619064847998658"><ele>240.0</ele><time>2026-03-29T09:08:37.999Z</time></trkpt><trkpt lat="40.034063442865346" lon="9.619057622173406"><ele>240.0</ele><time>2026-03-29T09:08:38.999Z</time></trkpt><trkpt lat="40.03415633319069" lon="9.619076728856875"><ele>240.0</ele><time>2026-03-29T09:08:39.999Z</time></trkpt><trkpt lat="40.034255450309665" lon="9.61909470188848"><ele>240.4</ele><time>2026-03-29T09:08:40.999Z</time></trkpt><trkpt lat="40.03434620724289" lon="9.619114866251058"><ele>240.8</ele><time>2026-03-29T09:08:41.999Z</time></trkpt><trkpt lat="40.03442080304563" lon="9.619116466369798"><ele>241.2</ele><time>2026-03-29T09:08:42.999Z</time></trkpt><trkpt lat="40.034551525150384" lon="9.619130356160014"><ele>241.6</ele><time>2026-03-29T09:08:44.999Z</time></trkpt><trkpt lat="40.0346230889022" lon="9.619135753572834"><ele>242.0</ele><time>2026-03-29T09:08:45.999Z</time></trkpt><trkpt lat="40.0347445162516" lon="9.619153434799346"><ele>242.00000000000003</ele><time>2026-03-29T09:08:47.999Z</time></trkpt><trkpt lat="40.03484212837542" lon="9.619140580197111"><ele>242.0</ele><time>2026-03-29T09:08:49.999Z</time></trkpt><trkpt lat="40.03494725048658" lon="9.619135954321909"><ele>242.0</ele><time>2026-03-29T09:08:51.999Z</time></trkpt><trkpt lat="40.035014225090045" lon="9.61913454316237"><ele>242.0</ele><time>2026-03-29T09:08:52.999Z</time></trkpt><trkpt lat="40.035080441362176" lon="9.619142901563391"><ele>242.00000000000003</ele><time>2026-03-29T09:08:53.999Z</time></trkpt><trkpt lat="40.03514547103467" lon="9.619158625429344"><ele>242.0</ele><time>2026-03-29T09:08:54.999Z</time></trkpt><trkpt lat="40.03520737997794" lon="9.619180667072266"><ele>242.7142857142857</ele><time>2026-03-29T09:08:55.999Z</time></trkpt><trkpt lat="40.03526964033829" lon="9.61920230502108"><ele>243.4285714285714</ele><time>2026-03-29T09:08:56.999Z</time></trkpt><trkpt lat="40.035333537433814" lon="9.61921671646222"><ele>244.14285714285714</ele><time>2026-03-29T09:08:57.999Z</time></trkpt><trkpt lat="40.03540314932911" lon="9.619237981255107"><ele>244.85714285714283</ele><time>2026-03-29T09:08:58.999Z</time></trkpt><trkpt lat="40.03547344312323" lon="9.619248968839186"><ele>245.57142857142856</ele><time>2026-03-29T09:08:59.999Z</time></trkpt><trkpt lat="40.035548902280695" lon="9.619264041534956"><ele>246.28571428571428</ele><time>2026-03-29T09:09:00.999Z</time></trkpt><trkpt lat="40.03563002387825" lon="9.619274700986754"><ele>247.0</ele><time>2026-03-29T09:09:01.999Z</time></trkpt><trkpt lat="40.035710824820775" lon="9.619286336971209"><ele>247.0</ele><time>2026-03-29T09:09:03Z</time></trkpt><trkpt lat="40.035791358514174" lon="9.61929592171022"><ele>247.0</ele><time>2026-03-29T09:09:04Z</time></trkpt><trkpt lat="40.0358566348409" lon="9.619312795682267"><ele>247.0</ele><time>2026-03-29T09:09:05Z</time></trkpt><trkpt lat="40.035965740344025" lon="9.619365469818955"><ele>247.0</ele><time>2026-03-29T09:09:07Z</time></trkpt><trkpt lat="40.036009491857655" lon="9.619432365794266"><ele>247.0</ele><time>2026-03-29T09:09:08Z</time></trkpt><trkpt lat="40.03610983959625" lon="9.619525110513852"><ele>246.16666666666666</ele><time>2026-03-29T09:09:10Z</time></trkpt><trkpt lat="40.036165594389395" lon="9.619575666589068"><ele>245.33333333333331</ele><time>2026-03-29T09:09:11Z</time></trkpt><trkpt lat="40.03626692452122" lon="9.619654870248437"><ele>244.5</ele><time>2026-03-29T09:09:13Z</time></trkpt><trkpt lat="40.03636379491265" lon="9.619703471294795"><ele>243.66666666666669</ele><time>2026-03-29T09:09:15Z</time></trkpt><trkpt lat="40.03643498201827" lon="9.619719023050823"><ele>242.83333333333334</ele><time>2026-03-29T09:09:17Z</time></trkpt><trkpt lat="40.036501213027584" lon="9.619763298883926"><ele>242.0</ele><time>2026-03-29T09:09:19Z</time></trkpt><trkpt lat="40.03655954070868" lon="9.619808893226557"><ele>242.00000000000003</ele><time>2026-03-29T09:09:21Z</time></trkpt><trkpt lat="40.03663092341783" lon="9.619675796142339"><ele>242.0</ele><time>2026-03-29T09:09:24Z</time></trkpt><trkpt lat="40.03667892561731" lon="9.619553666520813"><ele>242.0</ele><time>2026-03-29T09:09:26Z</time></trkpt><trkpt lat="40.03670211204032" lon="9.619476946517286"><ele>242.0</ele><time>2026-03-29T09:09:27Z</time></trkpt><trkpt lat="40.036728138582525" lon="9.619390726683415"><ele>242.00000000000003</ele><time>2026-03-29T09:09:28Z</time></trkpt><trkpt lat="40.03675458509168" lon="9.61930325969408"><ele>242.0</ele><time>2026-03-29T09:09:29Z</time></trkpt><trkpt lat="40.03678557877648" lon="9.6192053849758"><ele>244.6</ele><time>2026-03-29T09:09:30Z</time></trkpt><trkpt lat="40.03681452141549" lon="9.619113987115247"><ele>247.2</ele><time>2026-03-29T09:09:31Z</time></trkpt><trkpt lat="40.036842205447975" lon="9.619025820627385"><ele>249.8</ele><time>2026-03-29T09:09:32Z</time></trkpt><trkpt lat="40.036867387555105" lon="9.618944810332735"><ele>252.4</ele><time>2026-03-29T09:09:33Z</time></trkpt><trkpt lat="40.036910695340765" lon="9.618805490373711"><ele>255.0</ele><time>2026-03-29T09:09:35Z</time></trkpt><trkpt lat="40.036963502910986" lon="9.618635609842757"><ele>255.0</ele><time>2026-03-29T09:09:37Z</time></trkpt><trkpt lat="40.036983742048406" lon="9.618513118105446"><ele>255.0</ele><time>2026-03-29T09:09:38Z</time></trkpt><trkpt lat="40.03702373166639" lon="9.618384205989503"><ele>255.0</ele><time>2026-03-29T09:09:39Z</time></trkpt><trkpt lat="40.03707346066855" lon="9.61827510731048"><ele>255.0</ele><time>2026-03-29T09:09:40Z</time></trkpt><trkpt lat="40.037107504412354" lon="9.618160948435293"><ele>255.0</ele><time>2026-03-29T09:09:41Z</time></trkpt><trkpt lat="40.037127683080534" lon="9.61803214767108"><ele>255.0</ele><time>2026-03-29T09:09:42Z</time></trkpt><trkpt lat="40.037163852300104" lon="9.617897459839055"><ele>255.0</ele><time>2026-03-29T09:09:43Z</time></trkpt><trkpt lat="40.03719882605359" lon="9.617760060544608"><ele>255.0</ele><time>2026-03-29T09:09:44Z</time></trkpt><trkpt lat="40.03723494940432" lon="9.617621946835689"><ele>255.0</ele><time>2026-03-29T09:09:45Z</time></trkpt><trkpt lat="40.037271333456395" lon="9.617490928307006"><ele>255.0</ele><time>2026-03-29T09:09:46Z</time></trkpt><trkpt lat="40.037331082196346" lon="9.617381664514761"><ele>254.16666666666666</ele><time>2026-03-29T09:09:47Z</time></trkpt><trkpt lat="40.03734927945344" lon="9.617254000112792"><ele>253.33333333333331</ele><time>2026-03-29T09:09:48Z</time></trkpt><trkpt lat="40.03738027416535" lon="9.617145815637857"><ele>252.5</ele><time>2026-03-29T09:09:49Z</time></trkpt><trkpt lat="40.0373892976239" lon="9.617034463821787"><ele>251.66666666666666</ele><time>2026-03-29T09:09:50Z</time></trkpt><trkpt lat="40.03740774609885" lon="9.616931280198564"><ele>250.83333333333331</ele><time>2026-03-29T09:09:51Z</time></trkpt><trkpt lat="40.03740438528886" lon="9.616835086461132"><ele>250.0</ele><time>2026-03-29T09:09:52Z</time></trkpt><trkpt lat="40.03741190556981" lon="9.616673408883239"><ele>251.6</ele><time>2026-03-29T09:09:54Z</time></trkpt><trkpt lat="40.037511899299474" lon="9.616598984500136"><ele>253.2</ele><time>2026-03-29T09:09:55Z</time></trkpt><trkpt lat="40.0375618469188" lon="9.616458657610082"><ele>254.8</ele><time>2026-03-29T09:09:57Z</time></trkpt><trkpt lat="40.037592254711996" lon="9.616374881243978"><ele>256.4</ele><time>2026-03-29T09:09:58Z</time></trkpt><trkpt lat="40.03762667873762" lon="9.616278177330937"><ele>258.0</ele><time>2026-03-29T09:09:59Z</time></trkpt><trkpt lat="40.03765365453983" lon="9.616189742322195"><ele>256.99999999999994</ele><time>2026-03-29T09:10:00Z</time></trkpt><trkpt lat="40.03766912367103" lon="9.61610180720881"><ele>256.0</ele><time>2026-03-29T09:10:01Z</time></trkpt><trkpt lat="40.037688110092844" lon="9.616010386626836"><ele>254.99999999999997</ele><time>2026-03-29T09:10:02Z</time></trkpt><trkpt lat="40.03771488270372" lon="9.615917217687317"><ele>253.99999999999997</ele><time>2026-03-29T09:10:03Z</time></trkpt><trkpt lat="40.03774187683023" lon="9.615830262542271"><ele>253.0</ele><time>2026-03-29T09:10:04Z</time></trkpt><trkpt lat="40.03777092557714" lon="9.615750008138718"><ele>251.99999999999997</ele><time>2026-03-29T09:10:05Z</time></trkpt><trkpt lat="40.03779984612122" lon="9.615670080729691"><ele>250.99999999999997</ele><time>2026-03-29T09:10:06Z</time></trkpt><trkpt lat="40.037850567569265" lon="9.61551479713919"><ele>251.00000000000003</ele><time>2026-03-29T09:10:07.999Z</time></trkpt><trkpt lat="40.03787163729673" lon="9.615428617127057"><ele>251.0</ele><time>2026-03-29T09:10:08.999Z</time></trkpt><trkpt lat="40.037883021810856" lon="9.615329386422506"><ele>251.0</ele><time>2026-03-29T09:10:09.999Z</time></trkpt><trkpt lat="40.037884129531555" lon="9.615224208738102"><ele>251.0</ele><time>2026-03-29T09:10:10.999Z</time></trkpt><trkpt lat="40.03789107113398" lon="9.615124606452408"><ele>251.00000000000003</ele><time>2026-03-29T09:10:11.999Z</time></trkpt><trkpt lat="40.037914346425175" lon="9.615022613004337"><ele>251.0</ele><time>2026-03-29T09:10:12.999Z</time></trkpt><trkpt lat="40.037945939389" lon="9.614932970771019"><ele>250.60000000000002</ele><time>2026-03-29T09:10:13.999Z</time></trkpt><trkpt lat="40.03798336460696" lon="9.614849404114986"><ele>250.20000000000002</ele><time>2026-03-29T09:10:14.999Z</time></trkpt><trkpt lat="40.038052649140276" lon="9.614721210416457"><ele>249.79999999999998</ele><time>2026-03-29T09:10:16.999Z</time></trkpt><trkpt lat="40.03808889330143" lon="9.614603359749887"><ele>249.39999999999998</ele><time>2026-03-29T09:10:18.999Z</time></trkpt><trkpt lat="40.03809597055938" lon="9.61449015126564"><ele>249.0</ele><time>2026-03-29T09:10:20.999Z</time></trkpt><trkpt lat="40.03806708216533" lon="9.614353125109588"><ele>248.75</ele><time>2026-03-29T09:10:22.999Z</time></trkpt><trkpt lat="40.03805292395974" lon="9.614214750788069"><ele>248.5</ele><time>2026-03-29T09:10:24.999Z</time></trkpt><trkpt lat="40.038052501338726" lon="9.614064686320697"><ele>248.25</ele><time>2026-03-29T09:10:26.999Z</time></trkpt><trkpt lat="40.03806518730495" lon="9.613928988097506"><ele>248.0</ele><time>2026-03-29T09:10:28.999Z</time></trkpt><trkpt lat="40.03810099919291" lon="9.613762400009403"><ele>247.83333333333334</ele><time>2026-03-29T09:10:30.999Z</time></trkpt><trkpt lat="40.038138186450766" lon="9.613637330025814"><ele>247.66666666666669</ele><time>2026-03-29T09:10:32.999Z</time></trkpt><trkpt lat="40.03812377470696" lon="9.613535702705908"><ele>247.5</ele><time>2026-03-29T09:10:34.999Z</time></trkpt><trkpt lat="40.03817472719933" lon="9.613473572062738"><ele>247.33333333333331</ele><time>2026-03-29T09:12:31.999Z</time></trkpt><trkpt lat="40.03822026679067" lon="9.613372372785992"><ele>247.16666666666666</ele><time>2026-03-29T09:12:34.999Z</time></trkpt><trkpt lat="40.038216494350586" lon="9.61327997521107"><ele>247.0</ele><time>2026-03-29T09:12:36.999Z</time></trkpt><trkpt lat="40.038194125101406" lon="9.613193281005705"><ele>246.99999999999997</ele><time>2026-03-29T09:12:38.999Z</time></trkpt><trkpt lat="40.03816265521998" lon="9.613102816314857"><ele>247.0</ele><time>2026-03-29T09:12:40.999Z</time></trkpt><trkpt lat="40.03816352406585" lon="9.613002695429811"><ele>247.0</ele><time>2026-03-29T09:12:42.999Z</time></trkpt><trkpt lat="40.038172349753566" lon="9.612918100163538"><ele>247.0</ele><time>2026-03-29T09:12:44.999Z</time></trkpt><trkpt lat="40.03820478472203" lon="9.612822834851215"><ele>246.99999999999997</ele><time>2026-03-29T09:12:46.999Z</time></trkpt><trkpt lat="40.03827110571197" lon="9.61273361347011"><ele>247.0</ele><time>2026-03-29T09:12:48.999Z</time></trkpt><trkpt lat="40.038331155370926" lon="9.61264320201766"><ele>247.16666666666666</ele><time>2026-03-29T09:12:50.999Z</time></trkpt><trkpt lat="40.0383672069223" lon="9.61255376774601"><ele>247.33333333333331</ele><time>2026-03-29T09:12:52.999Z</time></trkpt><trkpt lat="40.03836878346589" lon="9.612430302857986"><ele>247.5</ele><time>2026-03-29T09:12:54.999Z</time></trkpt><trkpt lat="40.038353344727184" lon="9.612334782501184"><ele>247.66666666666669</ele><time>2026-03-29T09:12:55.999Z</time></trkpt><trkpt lat="40.03834765242333" lon="9.612239879538746"><ele>247.83333333333334</ele><time>2026-03-29T09:12:56.999Z</time></trkpt><trkpt lat="40.038346896898965" lon="9.612106881787568"><ele>248.0</ele><time>2026-03-29T09:12:58.999Z</time></trkpt><trkpt lat="40.03839436225426" lon="9.611990941052838"><ele>244.60000000000002</ele><time>2026-03-29T09:13:00.999Z</time></trkpt><trkpt lat="40.038427940102956" lon="9.611913720853066"><ele>241.20000000000002</ele><time>2026-03-29T09:13:01.999Z</time></trkpt><trkpt lat="40.03853704449307" lon="9.61181596775127"><ele>237.8</ele><time>2026-03-29T09:13:03.999Z</time></trkpt><trkpt lat="40.0386012138032" lon="9.611776982787042"><ele>234.4</ele><time>2026-03-29T09:13:04.999Z</time></trkpt><trkpt lat="40.03868146533853" lon="9.611735974129033"><ele>231.0</ele><time>2026-03-29T09:13:06.999Z</time></trkpt><trkpt lat="40.0387820181809" lon="9.611749310914826"><ele>231.0</ele><time>2026-03-29T09:13:08.999Z</time></trkpt><trkpt lat="40.0388834353661" lon="9.611776098909427"><ele>231.00000000000003</ele><time>2026-03-29T09:13:10.999Z</time></trkpt><trkpt lat="40.03897224175044" lon="9.611776088169696"><ele>231.00000000000003</ele><time>2026-03-29T09:13:12.999Z</time></trkpt><trkpt lat="40.03904652122778" lon="9.611694006688605"><ele>231.0</ele><time>2026-03-29T09:13:15Z</time></trkpt><trkpt lat="40.03906303349512" lon="9.611581756347293"><ele>231.0</ele><time>2026-03-29T09:13:17Z</time></trkpt><trkpt lat="40.039016957137015" lon="9.61144960646047"><ele>231.0</ele><time>2026-03-29T09:13:19Z</time></trkpt><trkpt lat="40.03896621208255" lon="9.61135319406245"><ele>231.00000000000003</ele><time>2026-03-29T09:13:21Z</time></trkpt><trkpt lat="40.03890381455049" lon="9.611241755187068"><ele>231.00000000000003</ele><time>2026-03-29T09:13:23Z</time></trkpt><trkpt lat="40.038846699966555" lon="9.611133476962703"><ele>231.0</ele><time>2026-03-29T09:13:25Z</time></trkpt><trkpt lat="40.03883260548897" lon="9.611042736588056"><ele>231.0</ele><time>2026-03-29T09:13:27Z</time></trkpt><trkpt lat="40.03888273404768" lon="9.610923131107832"><ele>230.20000000000002</ele><time>2026-03-29T09:13:30Z</time></trkpt><trkpt lat="40.038953996093234" lon="9.610848914892761"><ele>229.40000000000003</ele><time>2026-03-29T09:13:32Z</time></trkpt><trkpt lat="40.03899826462751" lon="9.610750596231092"><ele>228.6</ele><time>2026-03-29T09:13:34Z</time></trkpt><trkpt lat="40.039034548589875" lon="9.610620044442866"><ele>227.8</ele><time>2026-03-29T09:13:36Z</time></trkpt><trkpt lat="40.03907230828936" lon="9.610479419529373"><ele>227.0</ele><time>2026-03-29T09:13:38Z</time></trkpt><trkpt lat="40.03909429939154" lon="9.610395810901691"><ele>227.33333333333334</ele><time>2026-03-29T09:13:39Z</time></trkpt><trkpt lat="40.03912032996742" lon="9.610317356485012"><ele>227.66666666666669</ele><time>2026-03-29T09:13:40Z</time></trkpt><trkpt lat="40.03915221435668" lon="9.610230027158948"><ele>228.0</ele><time>2026-03-29T09:13:41Z</time></trkpt><trkpt lat="40.039183803620816" lon="9.610149858656959"><ele>228.33333333333331</ele><time>2026-03-29T09:13:42Z</time></trkpt><trkpt lat="40.039214124638484" lon="9.610072225034305"><ele>228.66666666666666</ele><time>2026-03-29T09:13:43Z</time></trkpt><trkpt lat="40.039250065991624" lon="9.610004193561327"><ele>229.0</ele><time>2026-03-29T09:13:44Z</time></trkpt><trkpt lat="40.03932419315613" lon="9.609869741323337"><ele>232.0</ele><time>2026-03-29T09:13:46Z</time></trkpt><trkpt lat="40.03937569217639" lon="9.609744588422627"><ele>234.99999999999997</ele><time>2026-03-29T09:13:48Z</time></trkpt><trkpt lat="40.03945760243242" lon="9.609660806764051"><ele>237.99999999999997</ele><time>2026-03-29T09:13:50Z</time></trkpt><trkpt lat="40.039572316443625" lon="9.609625662932643"><ele>241.0</ele><time>2026-03-29T09:13:52Z</time></trkpt><trkpt lat="40.039666311085384" lon="9.60963996596766"><ele>244.0</ele><time>2026-03-29T09:13:54Z</time></trkpt><trkpt lat="40.039780766427555" lon="9.609646157609339"><ele>244.0</ele><time>2026-03-29T09:13:56Z</time></trkpt><trkpt lat="40.03989907506255" lon="9.609670101519798"><ele>243.99999999999997</ele><time>2026-03-29T09:13:58Z</time></trkpt><trkpt lat="40.039963012049796" lon="9.609689711552846"><ele>243.99999999999997</ele><time>2026-03-29T09:13:59Z</time></trkpt><trkpt lat="40.04007916748218" lon="9.60972314905143"><ele>244.0</ele><time>2026-03-29T09:14:01Z</time></trkpt><trkpt lat="40.040142572734595" lon="9.60975076604299"><ele>244.0</ele><time>2026-03-29T09:14:02Z</time></trkpt><trkpt lat="40.04023244758167" lon="9.609741824097162"><ele>247.0</ele><time>2026-03-29T09:14:04Z</time></trkpt><trkpt lat="40.0402841947983" lon="9.609629545878347"><ele>249.99999999999997</ele><time>2026-03-29T09:14:06Z</time></trkpt><trkpt lat="40.04026867548074" lon="9.609486741286767"><ele>252.99999999999997</ele><time>2026-03-29T09:14:08Z</time></trkpt><trkpt lat="40.04022155775348" lon="9.609351481944458"><ele>256.0</ele><time>2026-03-29T09:14:10Z</time></trkpt><trkpt lat="40.04021890960176" lon="9.609205870241047"><ele>259.0</ele><time>2026-03-29T09:14:12Z</time></trkpt><trkpt lat="40.04028858842755" lon="9.609079180668807"><ele>259.59999999999997</ele><time>2026-03-29T09:14:14Z</time></trkpt><trkpt lat="40.04036054896983" lon="9.608950370222665"><ele>260.2</ele><time>2026-03-29T09:14:16Z</time></trkpt><trkpt lat="40.04039629416029" lon="9.608797618221198"><ele>260.79999999999995</ele><time>2026-03-29T09:14:18Z</time></trkpt><trkpt lat="40.04042646021439" lon="9.608638356886468"><ele>261.4</ele><time>2026-03-29T09:14:20Z</time></trkpt><trkpt lat="40.040435297971804" lon="9.60855469452977"><ele>262.0</ele><time>2026-03-29T09:14:21Z</time></trkpt><trkpt lat="40.04045421118175" lon="9.608399817544795"><ele>263.3333333333333</ele><time>2026-03-29T09:14:23Z</time></trkpt><trkpt lat="40.04048641810018" lon="9.60823529698919"><ele>264.66666666666663</ele><time>2026-03-29T09:14:25Z</time></trkpt><trkpt lat="40.04048580031346" lon="9.608148887698336"><ele>266.0</ele><time>2026-03-29T09:14:26Z</time></trkpt><trkpt lat="40.0404747672619" lon="9.607995797003275"><ele>267.3333333333333</ele><time>2026-03-29T09:14:28Z</time></trkpt><trkpt lat="40.04047259703525" lon="9.60790849137715"><ele>268.6666666666667</ele><time>2026-03-29T09:14:29Z</time></trkpt><trkpt lat="40.04047235522134" lon="9.607824468267085"><ele>270.0</ele><time>2026-03-29T09:14:30Z</time></trkpt><trkpt lat="40.04047053755481" lon="9.607675100780199"><ele>273.0</ele><time>2026-03-29T09:14:32Z</time></trkpt><trkpt lat="40.04039894376438" lon="9.607568446511744"><ele>276.0</ele><time>2026-03-29T09:14:34Z</time></trkpt><trkpt lat="40.04030814686063" lon="9.607482719943764"><ele>279.0</ele><time>2026-03-29T09:14:36Z</time></trkpt><trkpt lat="40.040201525557386" lon="9.607400442462028"><ele>282.0</ele><time>2026-03-29T09:14:38Z</time></trkpt><trkpt lat="40.040139882107894" lon="9.60735180398269"><ele>285.0</ele><time>2026-03-29T09:14:38.999Z</time></trkpt><trkpt lat="40.04009320346288" lon="9.60729466626149"><ele>285.0</ele><time>2026-03-29T09:14:39.999Z</time></trkpt><trkpt lat="40.04002398861875" lon="9.607159295525584"><ele>285.0</ele><time>2026-03-29T09:14:41.999Z</time></trkpt><trkpt lat="40.039965043221166" lon="9.607003477034697"><ele>285.0</ele><time>2026-03-29T09:14:43.999Z</time></trkpt><trkpt lat="40.039935436092314" lon="9.606914795937465"><ele>285.0</ele><time>2026-03-29T09:14:44.999Z</time></trkpt><trkpt lat="40.03991481996033" lon="9.606815431384135"><ele>285.0</ele><time>2026-03-29T09:14:45.999Z</time></trkpt><trkpt lat="40.039890583297385" lon="9.606719546758045"><ele>286.1666666666667</ele><time>2026-03-29T09:14:46.999Z</time></trkpt><trkpt lat="40.039857763244115" lon="9.606644716249207"><ele>287.3333333333333</ele><time>2026-03-29T09:14:47.999Z</time></trkpt><trkpt lat="40.03981082177262" lon="9.606577184647847"><ele>288.5</ele><time>2026-03-29T09:14:48.999Z</time></trkpt><trkpt lat="40.03976124451597" lon="9.606517875127262"><ele>289.66666666666663</ele><time>2026-03-29T09:14:49.999Z</time></trkpt><trkpt lat="40.03965590131625" lon="9.606427813190317"><ele>290.8333333333333</ele><time>2026-03-29T09:14:51.999Z</time></trkpt><trkpt lat="40.03954753077323" lon="9.606369848068637"><ele>292.0</ele><time>2026-03-29T09:14:53.999Z</time></trkpt><trkpt lat="40.03956741622065" lon="9.60625526022641"><ele>292.0</ele><time>2026-03-29T09:14:56.999Z</time></trkpt><trkpt lat="40.0396583005225" lon="9.606222006929139"><ele>292.0</ele><time>2026-03-29T09:14:58.999Z</time></trkpt><trkpt lat="40.039766602168214" lon="9.606221846986625"><ele>292.0</ele><time>2026-03-29T09:15:00.999Z</time></trkpt><trkpt lat="40.039836052222675" lon="9.60621938439409"><ele>292.0</ele><time>2026-03-29T09:15:01.999Z</time></trkpt><trkpt lat="40.03995753630127" lon="9.606187271791955"><ele>292.0</ele><time>2026-03-29T09:15:03.999Z</time></trkpt><trkpt lat="40.04002486433465" lon="9.60615672406701"><ele>293.57142857142856</ele><time>2026-03-29T09:15:04.999Z</time></trkpt><trkpt lat="40.04009668603299" lon="9.606140210213777"><ele>295.14285714285717</ele><time>2026-03-29T09:15:05.999Z</time></trkpt><trkpt lat="40.04016474650928" lon="9.606126706292782"><ele>296.7142857142857</ele><time>2026-03-29T09:15:06.999Z</time></trkpt><trkpt lat="40.040230701436656" lon="9.606115383294554"><ele>298.2857142857143</ele><time>2026-03-29T09:15:07.999Z</time></trkpt><trkpt lat="40.040301520653856" lon="9.606107517257492"><ele>299.85714285714283</ele><time>2026-03-29T09:15:08.999Z</time></trkpt><trkpt lat="40.040373356924476" lon="9.606120963337057"><ele>301.42857142857144</ele><time>2026-03-29T09:15:09.999Z</time></trkpt><trkpt lat="40.040435181958294" lon="9.60614082172533"><ele>303.0</ele><time>2026-03-29T09:15:10.999Z</time></trkpt><trkpt lat="40.04050567175632" lon="9.606171325959098"><ele>303.0</ele><time>2026-03-29T09:15:11.999Z</time></trkpt><trkpt lat="40.04057469469608" lon="9.60621358567479"><ele>303.0</ele><time>2026-03-29T09:15:12.999Z</time></trkpt><trkpt lat="40.040651238815094" lon="9.60625836177645"><ele>303.0</ele><time>2026-03-29T09:15:14.999Z</time></trkpt><trkpt lat="40.04072203756256" lon="9.606250064380648"><ele>303.0</ele><time>2026-03-29T09:15:17.999Z</time></trkpt><trkpt lat="40.0408042778426" lon="9.606292805299665"><ele>303.0</ele><time>2026-03-29T09:15:46Z</time></trkpt><trkpt lat="40.040906016996274" lon="9.606342722720324"><ele>303.0</ele><time>2026-03-29T09:15:48Z</time></trkpt><trkpt lat="40.04097558096191" lon="9.606386343696375"><ele>305.6</ele><time>2026-03-29T09:15:49Z</time></trkpt><trkpt lat="40.04103079860429" lon="9.60642810794406"><ele>308.20000000000005</ele><time>2026-03-29T09:15:50Z</time></trkpt><trkpt lat="40.04112691809995" lon="9.606519924824157"><ele>310.8</ele><time>2026-03-29T09:15:52Z</time></trkpt><trkpt lat="40.041202873988645" lon="9.606567425235216"><ele>313.40000000000003</ele><time>2026-03-29T09:15:54Z</time></trkpt><trkpt lat="40.04129629646975" lon="9.606601303475719"><ele>316.0</ele><time>2026-03-29T09:15:56Z</time></trkpt><trkpt lat="40.04138233718983" lon="9.606676102856818"><ele>316.0</ele><time>2026-03-29T09:15:58Z</time></trkpt><trkpt lat="40.04140762225965" lon="9.606828424233369"><ele>316.0</ele><time>2026-03-29T09:16:00Z</time></trkpt><trkpt lat="40.04142271284435" lon="9.606911106597527"><ele>316.0</ele><time>2026-03-29T09:16:01Z</time></trkpt><trkpt lat="40.04142537738379" lon="9.607013770740231"><ele>316.0</ele><time>2026-03-29T09:16:02Z</time></trkpt><trkpt lat="40.04143249012721" lon="9.607117634151157"><ele>316.0</ele><time>2026-03-29T09:16:03Z</time></trkpt><trkpt lat="40.04144453598036" lon="9.607231620371609"><ele>316.0</ele><time>2026-03-29T09:16:04Z</time></trkpt><trkpt lat="40.04145733962034" lon="9.607349462686251"><ele>313.3333333333333</ele><time>2026-03-29T09:16:05Z</time></trkpt><trkpt lat="40.04147220145999" lon="9.60746532726859"><ele>310.66666666666663</ele><time>2026-03-29T09:16:06Z</time></trkpt><trkpt lat="40.041491531414984" lon="9.607560263779298"><ele>308.0</ele><time>2026-03-29T09:16:07Z</time></trkpt><trkpt lat="40.04151210336858" lon="9.607641540049551"><ele>305.3333333333333</ele><time>2026-03-29T09:16:08Z</time></trkpt><trkpt lat="40.04155975020192" lon="9.60779569083938"><ele>302.6666666666667</ele><time>2026-03-29T09:16:10Z</time></trkpt><trkpt lat="40.04158112615137" lon="9.607883866621872"><ele>300.0</ele><time>2026-03-29T09:16:11Z</time></trkpt><trkpt lat="40.04160078938011" lon="9.607972058006009"><ele>298.85714285714283</ele><time>2026-03-29T09:16:12Z</time></trkpt><trkpt lat="40.041629327091044" lon="9.60805436841572"><ele>297.7142857142857</ele><time>2026-03-29T09:16:13Z</time></trkpt><trkpt lat="40.04165870949349" lon="9.608133414282948"><ele>296.57142857142856</ele><time>2026-03-29T09:16:14Z</time></trkpt><trkpt lat="40.04169067191146" lon="9.608217848708007"><ele>295.42857142857144</ele><time>2026-03-29T09:16:15Z</time></trkpt><trkpt lat="40.04170902964342" lon="9.608315168102704"><ele>294.2857142857143</ele><time>2026-03-29T09:16:16Z</time></trkpt><trkpt lat="40.04172828768581" lon="9.608413987886413"><ele>293.1428571428571</ele><time>2026-03-29T09:16:17Z</time></trkpt><trkpt lat="40.04173508876305" lon="9.60850947000459"><ele>292.0</ele><time>2026-03-29T09:16:18Z</time></trkpt><trkpt lat="40.04174341943313" lon="9.608596516350659"><ele>295.3333333333333</ele><time>2026-03-29T09:16:19Z</time></trkpt><trkpt lat="40.041762370114554" lon="9.608686466081288"><ele>298.66666666666663</ele><time>2026-03-29T09:16:20Z</time></trkpt><trkpt lat="40.041799021571826" lon="9.608759084904626"><ele>302.0</ele><time>2026-03-29T09:16:21Z</time></trkpt><trkpt lat="40.04184643390928" lon="9.60883440518273"><ele>305.3333333333333</ele><time>2026-03-29T09:16:22Z</time></trkpt><trkpt lat="40.04190334868978" lon="9.608901442042551"><ele>308.6666666666667</ele><time>2026-03-29T09:16:23Z</time></trkpt><trkpt lat="40.0419572648247" lon="9.608980687385325"><ele>312.0</ele><time>2026-03-29T09:16:24Z</time></trkpt><trkpt lat="40.04200545566422" lon="9.609073392903179"><ele>312.0</ele><time>2026-03-29T09:16:25Z</time></trkpt><trkpt lat="40.04204542540437" lon="9.609170214667442"><ele>312.0</ele><time>2026-03-29T09:16:26Z</time></trkpt><trkpt lat="40.04208504411215" lon="9.609278831771308"><ele>312.0</ele><time>2026-03-29T09:16:27Z</time></trkpt><trkpt lat="40.04213205738213" lon="9.609380011902871"><ele>312.0</ele><time>2026-03-29T09:16:28Z</time></trkpt><trkpt lat="40.042171783124935" lon="9.609486156992139"><ele>312.0</ele><time>2026-03-29T09:16:29Z</time></trkpt><trkpt lat="40.04221344203736" lon="9.609596011734476"><ele>310.1666666666667</ele><time>2026-03-29T09:16:30Z</time></trkpt><trkpt lat="40.04225297847748" lon="9.609695570288862"><ele>308.3333333333333</ele><time>2026-03-29T09:16:31Z</time></trkpt><trkpt lat="40.04229707519424" lon="9.609784557237464"><ele>306.5</ele><time>2026-03-29T09:16:32Z</time></trkpt><trkpt lat="40.0423474844474" lon="9.60984188545663"><ele>304.66666666666663</ele><time>2026-03-29T09:16:32.999Z</time></trkpt><trkpt lat="40.04239754957652" lon="9.609922762956185"><ele>302.8333333333333</ele><time>2026-03-29T09:16:33.999Z</time></trkpt><trkpt lat="40.04243768261586" lon="9.61001460184956"><ele>301.0</ele><time>2026-03-29T09:16:34.999Z</time></trkpt><trkpt lat="40.04246467344673" lon="9.610110489290927"><ele>304.3333333333333</ele><time>2026-03-29T09:16:35.999Z</time></trkpt><trkpt lat="40.04248954669914" lon="9.610203985067221"><ele>307.66666666666663</ele><time>2026-03-29T09:16:36.999Z</time></trkpt><trkpt lat="40.042511617162326" lon="9.610303112130751"><ele>311.0</ele><time>2026-03-29T09:16:37.999Z</time></trkpt><trkpt lat="40.042535145371275" lon="9.61038732912532"><ele>314.3333333333333</ele><time>2026-03-29T09:16:38.999Z</time></trkpt><trkpt lat="40.04260330695285" lon="9.610493191780211"><ele>317.6666666666667</ele><time>2026-03-29T09:16:40.999Z</time></trkpt><trkpt lat="40.042713815969314" lon="9.610516216618107"><ele>321.0</ele><time>2026-03-29T09:16:42.999Z</time></trkpt><trkpt lat="40.04279070266716" lon="9.610579307164842"><ele>321.0</ele><time>2026-03-29T09:16:44.999Z</time></trkpt><trkpt lat="40.04279050249258" lon="9.61067667855816"><ele>321.0</ele><time>2026-03-29T09:16:46.999Z</time></trkpt><trkpt lat="40.04272824514621" lon="9.610769826870332"><ele>321.0</ele><time>2026-03-29T09:16:48.999Z</time></trkpt><trkpt lat="40.04264869515808" lon="9.6108600158308"><ele>321.0</ele><time>2026-03-29T09:16:50.999Z</time></trkpt><trkpt lat="40.04260211861323" lon="9.610921224715623"><ele>321.0</ele><time>2026-03-29T09:16:51.999Z</time></trkpt><trkpt lat="40.04256169581909" lon="9.610986419133848"><ele>321.0</ele><time>2026-03-29T09:16:52.999Z</time></trkpt><trkpt lat="40.042529382166904" lon="9.611134830688236"><ele>324.6</ele><time>2026-03-29T09:16:54.999Z</time></trkpt><trkpt lat="40.04256622700057" lon="9.611283180536834"><ele>328.20000000000005</ele><time>2026-03-29T09:16:56.999Z</time></trkpt><trkpt lat="40.0426024051977" lon="9.611351665381038"><ele>331.79999999999995</ele><time>2026-03-29T09:16:57.999Z</time></trkpt><trkpt lat="40.04262677020738" lon="9.611480689568708"><ele>335.4</ele><time>2026-03-29T09:16:59.999Z</time></trkpt><trkpt lat="40.0426525723298" lon="9.611613109140576"><ele>339.0</ele><time>2026-03-29T09:17:01.999Z</time></trkpt><trkpt lat="40.04265452599892" lon="9.611772841858757"><ele>339.0</ele><time>2026-03-29T09:17:03.999Z</time></trkpt><trkpt lat="40.04263088057309" lon="9.61185431623103"><ele>339.0</ele><time>2026-03-29T09:17:04.999Z</time></trkpt><trkpt lat="40.042549774797116" lon="9.611969392514334"><ele>339.0</ele><time>2026-03-29T09:17:06.999Z</time></trkpt><trkpt lat="40.04244641154929" lon="9.611996887854438"><ele>339.0</ele><time>2026-03-29T09:17:08.999Z</time></trkpt><trkpt lat="40.04237812259283" lon="9.611971752197386"><ele>339.0</ele><time>2026-03-29T09:17:09.999Z</time></trkpt><trkpt lat="40.04225235014769" lon="9.611933970156661"><ele>338.1666666666667</ele><time>2026-03-29T09:17:11.999Z</time></trkpt><trkpt lat="40.04217464027786" lon="9.611964048529773"><ele>337.3333333333333</ele><time>2026-03-29T09:17:12.999Z</time></trkpt><trkpt lat="40.042088409957564" lon="9.612007808908908"><ele>336.5</ele><time>2026-03-29T09:17:13.999Z</time></trkpt><trkpt lat="40.04200190739248" lon="9.612038687975003"><ele>335.66666666666663</ele><time>2026-03-29T09:17:14.999Z</time></trkpt><trkpt lat="40.0419358256243" lon="9.612068532587113"><ele>334.8333333333333</ele><time>2026-03-29T09:17:15.999Z</time></trkpt><trkpt lat="40.041859351241406" lon="9.612125273231191"><ele>334.0</ele><time>2026-03-29T09:17:17.999Z</time></trkpt><trkpt lat="40.04181257506605" lon="9.612208932198852"><ele>334.0</ele><time>2026-03-29T09:17:18.999Z</time></trkpt><trkpt lat="40.04179473060228" lon="9.612294947816117"><ele>334.0</ele><time>2026-03-29T09:17:19.999Z</time></trkpt><trkpt lat="40.04177117410473" lon="9.612373240738043"><ele>334.0</ele><time>2026-03-29T09:17:20.999Z</time></trkpt><trkpt lat="40.041751656342775" lon="9.612469633401515"><ele>334.0</ele><time>2026-03-29T09:17:21.999Z</time></trkpt><trkpt lat="40.04174759584725" lon="9.612582620986467"><ele>334.0</ele><time>2026-03-29T09:17:22.999Z</time></trkpt><trkpt lat="40.04174932376" lon="9.61269576981744"><ele>334.0</ele><time>2026-03-29T09:17:23.999Z</time></trkpt><trkpt lat="40.04173868811246" lon="9.612803992577154"><ele>334.66666666666663</ele><time>2026-03-29T09:17:24.999Z</time></trkpt><trkpt lat="40.0417317298223" lon="9.612908756398603"><ele>335.3333333333333</ele><time>2026-03-29T09:17:25.999Z</time></trkpt><trkpt lat="40.041724890162726" lon="9.613029380763745"><ele>336.0</ele><time>2026-03-29T09:17:27Z</time></trkpt><trkpt lat="40.04172222521071" lon="9.613145350642078"><ele>336.6666666666667</ele><time>2026-03-29T09:17:28Z</time></trkpt><trkpt lat="40.04171829977936" lon="9.613264085835347"><ele>337.33333333333337</ele><time>2026-03-29T09:17:29Z</time></trkpt><trkpt lat="40.041742516874116" lon="9.613381318112761"><ele>338.0</ele><time>2026-03-29T09:17:30Z</time></trkpt><trkpt lat="40.04177984492806" lon="9.613487582631793"><ele>338.0</ele><time>2026-03-29T09:17:31Z</time></trkpt><trkpt lat="40.04180641220028" lon="9.613595611033873"><ele>338.0</ele><time>2026-03-29T09:17:32Z</time></trkpt><trkpt lat="40.04182495948967" lon="9.613694449123923"><ele>338.0</ele><time>2026-03-29T09:17:33Z</time></trkpt><trkpt lat="40.04185913153353" lon="9.613822597839677"><ele>338.0</ele><time>2026-03-29T09:17:34Z</time></trkpt><trkpt lat="40.04190228053969" lon="9.613939723814392"><ele>338.0</ele><time>2026-03-29T09:17:35Z</time></trkpt><trkpt lat="40.04194146597846" lon="9.614048415313949"><ele>339.59999999999997</ele><time>2026-03-29T09:17:36Z</time></trkpt><trkpt lat="40.04198626107034" lon="9.614157936046402"><ele>341.2</ele><time>2026-03-29T09:17:37Z</time></trkpt><trkpt lat="40.04202657829532" lon="9.614266498881888"><ele>342.8</ele><time>2026-03-29T09:17:38Z</time></trkpt><trkpt lat="40.042064243114595" lon="9.614370324958434"><ele>344.4</ele><time>2026-03-29T09:17:39Z</time></trkpt><trkpt lat="40.042094415807256" lon="9.614475126911426"><ele>346.0</ele><time>2026-03-29T09:17:40Z</time></trkpt><trkpt lat="40.04212343269619" lon="9.614594561280425"><ele>351.0</ele><time>2026-03-29T09:17:42Z</time></trkpt><trkpt lat="40.0421026710904" lon="9.614677428586566"><ele>356.0</ele><time>2026-03-29T09:17:44Z</time></trkpt><trkpt lat="40.04201490294869" lon="9.61473242309485"><ele>361.0</ele><time>2026-03-29T09:17:46Z</time></trkpt><trkpt lat="40.0419053607496" lon="9.614743746783297"><ele>366.0</ele><time>2026-03-29T09:17:48Z</time></trkpt><trkpt lat="40.04177722333804" lon="9.61472738009171"><ele>371.0</ele><time>2026-03-29T09:17:50Z</time></trkpt><trkpt lat="40.04170344971191" lon="9.614704144336661"><ele>371.0</ele><time>2026-03-29T09:17:51Z</time></trkpt><trkpt lat="40.041633875027046" lon="9.614685769422797"><ele>371.0</ele><time>2026-03-29T09:17:52Z</time></trkpt><trkpt lat="40.04155943254791" lon="9.614675794581295"><ele>371.0</ele><time>2026-03-29T09:17:53Z</time></trkpt><trkpt lat="40.04148764797683" lon="9.614696431055819"><ele>371.0</ele><time>2026-03-29T09:17:54Z</time></trkpt><trkpt lat="40.04141885784635" lon="9.614724811675519"><ele>371.0</ele><time>2026-03-29T09:17:55Z</time></trkpt><trkpt lat="40.04134370342738" lon="9.614780870802557"><ele>371.0</ele><time>2026-03-29T09:17:56Z</time></trkpt><trkpt lat="40.04127355951886" lon="9.614842251247342"><ele>368.14285714285717</ele><time>2026-03-29T09:17:57Z</time></trkpt><trkpt lat="40.04121034914401" lon="9.61491366490041"><ele>365.2857142857143</ele><time>2026-03-29T09:17:58Z</time></trkpt><trkpt lat="40.041154520447094" lon="9.614990714172778"><ele>362.42857142857144</ele><time>2026-03-29T09:17:59Z</time></trkpt><trkpt lat="40.041135451920425" lon="9.615069137254935"><ele>359.57142857142856</ele><time>2026-03-29T09:18:00Z</time></trkpt><trkpt lat="40.041111515235656" lon="9.61516768847441"><ele>356.7142857142857</ele><time>2026-03-29T09:18:01Z</time></trkpt><trkpt lat="40.04110114502276" lon="9.615258097753836"><ele>353.8571428571429</ele><time>2026-03-29T09:18:02Z</time></trkpt><trkpt lat="40.04109916434934" lon="9.615350897752947"><ele>351.0</ele><time>2026-03-29T09:18:03Z</time></trkpt><trkpt lat="40.04109637941293" lon="9.615452114742544"><ele>351.0</ele><time>2026-03-29T09:18:04Z</time></trkpt><trkpt lat="40.04110191159782" lon="9.615542152450592"><ele>351.0</ele><time>2026-03-29T09:18:05Z</time></trkpt><trkpt lat="40.04108806886136" lon="9.615694199494298"><ele>351.0</ele><time>2026-03-29T09:18:07Z</time></trkpt><trkpt lat="40.04105837952665" lon="9.615836480529026"><ele>351.0</ele><time>2026-03-29T09:18:09Z</time></trkpt><trkpt lat="40.04102471532039" lon="9.615972685374045"><ele>351.0</ele><time>2026-03-29T09:18:11Z</time></trkpt><trkpt lat="40.04099198616053" lon="9.61610868195754"><ele>352.8</ele><time>2026-03-29T09:18:13Z</time></trkpt><trkpt lat="40.04095375840977" lon="9.616230310487856"><ele>354.6</ele><time>2026-03-29T09:18:15Z</time></trkpt><trkpt lat="40.040927204754325" lon="9.616350494100017"><ele>356.4</ele><time>2026-03-29T09:18:17Z</time></trkpt><trkpt lat="40.04093798579048" lon="9.616494721907861"><ele>358.2</ele><time>2026-03-29T09:18:19Z</time></trkpt><trkpt lat="40.04094759162663" lon="9.616624225197029"><ele>360.0</ele><time>2026-03-29T09:18:21Z</time></trkpt><trkpt lat="40.040962741016365" lon="9.616757375339304"><ele>360.0</ele><time>2026-03-29T09:18:23Z</time></trkpt><trkpt lat="40.04101005736956" lon="9.616906785863087"><ele>360.0</ele><time>2026-03-29T09:18:25Z</time></trkpt><trkpt lat="40.04106526649458" lon="9.617056538697678"><ele>360.0</ele><time>2026-03-29T09:18:27Z</time></trkpt><trkpt lat="40.04110027935311" lon="9.617127259997106"><ele>360.0</ele><time>2026-03-29T09:18:28Z</time></trkpt><trkpt lat="40.04114359812339" lon="9.61719540400462"><ele>360.0</ele><time>2026-03-29T09:18:29Z</time></trkpt><trkpt lat="40.04118783954892" lon="9.617258921000468"><ele>360.0</ele><time>2026-03-29T09:18:30Z</time></trkpt><trkpt lat="40.04121622724024" lon="9.617343313078798"><ele>360.6666666666667</ele><time>2026-03-29T09:18:31Z</time></trkpt><trkpt lat="40.04123034863764" lon="9.617440543693794"><ele>361.3333333333333</ele><time>2026-03-29T09:18:32Z</time></trkpt><trkpt lat="40.041258277509655" lon="9.617526515687391"><ele>362.0</ele><time>2026-03-29T09:18:33Z</time></trkpt><trkpt lat="40.04126161208929" lon="9.61764179781783"><ele>362.66666666666663</ele><time>2026-03-29T09:18:35Z</time></trkpt><trkpt lat="40.04119787975131" lon="9.617728437670321"><ele>363.3333333333333</ele><time>2026-03-29T09:18:37Z</time></trkpt><trkpt lat="40.04114315420533" lon="9.617796458976242"><ele>364.0</ele><time>2026-03-29T09:18:37.999Z</time></trkpt><trkpt lat="40.04108915326944" lon="9.617874574853824"><ele>367.16666666666663</ele><time>2026-03-29T09:18:38.999Z</time></trkpt><trkpt lat="40.04104129686045" lon="9.617968205969044"><ele>370.3333333333333</ele><time>2026-03-29T09:18:39.999Z</time></trkpt><trkpt lat="40.04099228933535" lon="9.618064484142524"><ele>373.5</ele><time>2026-03-29T09:18:40.999Z</time></trkpt><trkpt lat="40.04094274159229" lon="9.618163112899264"><ele>376.6666666666667</ele><time>2026-03-29T09:18:41.999Z</time></trkpt><trkpt lat="40.040901188682454" lon="9.618263092729668"><ele>379.83333333333337</ele><time>2026-03-29T09:18:42.999Z</time></trkpt><trkpt lat="40.04086300132551" lon="9.618356552507615"><ele>383.0</ele><time>2026-03-29T09:18:43.999Z</time></trkpt><trkpt lat="40.04083158749582" lon="9.618445564904874"><ele>383.0</ele><time>2026-03-29T09:18:44.999Z</time></trkpt><trkpt lat="40.04080109321246" lon="9.618532742053008"><ele>383.0</ele><time>2026-03-29T09:18:45.999Z</time></trkpt><trkpt lat="40.04076639273208" lon="9.618631992782975"><ele>383.0</ele><time>2026-03-29T09:18:46.999Z</time></trkpt><trkpt lat="40.04073439004931" lon="9.618729362014617"><ele>383.0</ele><time>2026-03-29T09:18:47.999Z</time></trkpt><trkpt lat="40.04069993889142" lon="9.618833497729554"><ele>383.0</ele><time>2026-03-29T09:18:48.999Z</time></trkpt><trkpt lat="40.04066636258547" lon="9.618939725365001"><ele>383.0</ele><time>2026-03-29T09:18:49.999Z</time></trkpt><trkpt lat="40.04062829361274" lon="9.619043387155088"><ele>384.7142857142857</ele><time>2026-03-29T09:18:50.999Z</time></trkpt><trkpt lat="40.04059541990598" lon="9.619130823173645"><ele>386.42857142857144</ele><time>2026-03-29T09:18:51.999Z</time></trkpt><trkpt lat="40.0405709296743" lon="9.61920913363552"><ele>388.1428571428571</ele><time>2026-03-29T09:18:52.999Z</time></trkpt><trkpt lat="40.04054291080851" lon="9.619289596029295"><ele>389.8571428571429</ele><time>2026-03-29T09:18:53.999Z</time></trkpt><trkpt lat="40.04050732628159" lon="9.619365962718224"><ele>391.5714285714286</ele><time>2026-03-29T09:18:54.999Z</time></trkpt><trkpt lat="40.04046656974129" lon="9.619434042602292"><ele>393.2857142857143</ele><time>2026-03-29T09:18:55.999Z</time></trkpt><trkpt lat="40.040431621523744" lon="9.619521976836761"><ele>395.0</ele><time>2026-03-29T09:18:56.999Z</time></trkpt><trkpt lat="40.040391364359884" lon="9.619608779647036"><ele>395.0</ele><time>2026-03-29T09:18:57.999Z</time></trkpt><trkpt lat="40.040352649246934" lon="9.619693470514184"><ele>395.0</ele><time>2026-03-29T09:18:58.999Z</time></trkpt><trkpt lat="40.04032199582681" lon="9.619774373870467"><ele>395.0</ele><time>2026-03-29T09:18:59.999Z</time></trkpt><trkpt lat="40.04028460132465" lon="9.619849563521797"><ele>395.0</ele><time>2026-03-29T09:19:00.999Z</time></trkpt><trkpt lat="40.04023956090579" lon="9.619922382804349"><ele>395.0</ele><time>2026-03-29T09:19:01.999Z</time></trkpt><trkpt lat="40.0401902599085" lon="9.619988520327416"><ele>395.0</ele><time>2026-03-29T09:19:02.999Z</time></trkpt><trkpt lat="40.0401383724734" lon="9.620061889917531"><ele>395.0</ele><time>2026-03-29T09:19:03.999Z</time></trkpt><trkpt lat="40.04009491077991" lon="9.620137069316632"><ele>395.0</ele><time>2026-03-29T09:19:04.999Z</time></trkpt><trkpt lat="40.04005722093328" lon="9.620205890487819"><ele>395.0</ele><time>2026-03-29T09:19:05.999Z</time></trkpt><trkpt lat="40.040041542869524" lon="9.620291478874918"><ele>395.0</ele><time>2026-03-29T09:19:06.999Z</time></trkpt><trkpt lat="40.04002873827065" lon="9.620379252025064"><ele>395.0</ele><time>2026-03-29T09:19:07.999Z</time></trkpt><trkpt lat="40.039996702147576" lon="9.62046080634263"><ele>395.0</ele><time>2026-03-29T09:19:08.999Z</time></trkpt><trkpt lat="40.03995397016746" lon="9.620545517171792"><ele>395.0</ele><time>2026-03-29T09:19:09.999Z</time></trkpt><trkpt lat="40.039913316794895" lon="9.620626355890616"><ele>395.0</ele><time>2026-03-29T09:19:10.999Z</time></trkpt><trkpt lat="40.03988036131331" lon="9.620697204166513"><ele>392.66666666666663</ele><time>2026-03-29T09:19:11.999Z</time></trkpt><trkpt lat="40.039841641003285" lon="9.6207708483737"><ele>390.3333333333333</ele><time>2026-03-29T09:19:12.999Z</time></trkpt><trkpt lat="40.03978536669471" lon="9.62092330364719"><ele>388.0</ele><time>2026-03-29T09:19:14.999Z</time></trkpt><trkpt lat="40.03976334640097" lon="9.62100571398008"><ele>385.66666666666663</ele><time>2026-03-29T09:19:15.999Z</time></trkpt><trkpt lat="40.03973657048337" lon="9.62109443526102"><ele>383.3333333333333</ele><time>2026-03-29T09:19:16.999Z</time></trkpt><trkpt lat="40.039713958564285" lon="9.62118222563367"><ele>381.0</ele><time>2026-03-29T09:19:17.999Z</time></trkpt><trkpt lat="40.03969749678127" lon="9.621273350645383"><ele>381.0</ele><time>2026-03-29T09:19:18.999Z</time></trkpt><trkpt lat="40.03967982204061" lon="9.621364839516122"><ele>381.0</ele><time>2026-03-29T09:19:19.999Z</time></trkpt><trkpt lat="40.0396661865606" lon="9.621453150391037"><ele>381.0</ele><time>2026-03-29T09:19:20.999Z</time></trkpt><trkpt lat="40.039657084169605" lon="9.621549755778515"><ele>381.0</ele><time>2026-03-29T09:19:21.999Z</time></trkpt><trkpt lat="40.039662718074865" lon="9.621639066439457"><ele>381.0</ele><time>2026-03-29T09:19:22.999Z</time></trkpt><trkpt lat="40.039670633208445" lon="9.621720778868648"><ele>381.0</ele><time>2026-03-29T09:19:23.999Z</time></trkpt><trkpt lat="40.03964977006897" lon="9.62186062056826"><ele>381.0</ele><time>2026-03-29T09:19:25.999Z</time></trkpt><trkpt lat="40.039698914877214" lon="9.621963583998015"><ele>381.0</ele><time>2026-03-29T09:19:27.999Z</time></trkpt><trkpt lat="40.03981821489068" lon="9.621996043146568"><ele>381.0</ele><time>2026-03-29T09:19:29.999Z</time></trkpt><trkpt lat="40.0398951890255" lon="9.622014541043947"><ele>381.0</ele><time>2026-03-29T09:19:30.999Z</time></trkpt><trkpt lat="40.0399663634636" lon="9.622029623980652"><ele>381.0</ele><time>2026-03-29T09:19:31.999Z</time></trkpt><trkpt lat="40.04003721034353" lon="9.622044057651884"><ele>381.0</ele><time>2026-03-29T09:19:33Z</time></trkpt><trkpt lat="40.04010497586691" lon="9.622065133036942"><ele>385.0</ele><time>2026-03-29T09:19:34Z</time></trkpt><trkpt lat="40.040171863058056" lon="9.622095399868945"><ele>389.0</ele><time>2026-03-29T09:19:35Z</time></trkpt><trkpt lat="40.04024232025839" lon="9.622136792967655"><ele>393.0</ele><time>2026-03-29T09:19:36Z</time></trkpt><trkpt lat="40.04031058570141" lon="9.622180045057465"><ele>397.0</ele><time>2026-03-29T09:19:37Z</time></trkpt><trkpt lat="40.040380448536816" lon="9.622227578041946"><ele>401.0</ele><time>2026-03-29T09:19:38Z</time></trkpt><trkpt lat="40.04048332166267" lon="9.62226956517735"><ele>405.0</ele><time>2026-03-29T09:19:40Z</time></trkpt><trkpt lat="40.04057775989993" lon="9.622222843029725"><ele>405.0</ele><time>2026-03-29T09:19:42Z</time></trkpt><trkpt lat="40.04064790419531" lon="9.622109062783844"><ele>405.0</ele><time>2026-03-29T09:19:44Z</time></trkpt><trkpt lat="40.04068061742205" lon="9.622037660988122"><ele>405.0</ele><time>2026-03-29T09:19:45Z</time></trkpt><trkpt lat="40.040740434228866" lon="9.621922647755863"><ele>405.0</ele><time>2026-03-29T09:19:47Z</time></trkpt><trkpt lat="40.04077566940644" lon="9.621851208067401"><ele>405.0</ele><time>2026-03-29T09:19:48Z</time></trkpt><trkpt lat="40.04084767783952" lon="9.621724975764202"><ele>409.8333333333333</ele><time>2026-03-29T09:19:50Z</time></trkpt><trkpt lat="40.04092784764037" lon="9.62158179021375"><ele>414.66666666666663</ele><time>2026-03-29T09:19:52Z</time></trkpt><trkpt lat="40.04097247840089" lon="9.621507827466345"><ele>419.5</ele><time>2026-03-29T09:19:53Z</time></trkpt><trkpt lat="40.04101484164259" lon="9.621432169776929"><ele>424.3333333333333</ele><time>2026-03-29T09:19:54Z</time></trkpt><trkpt lat="40.041060311258256" lon="9.621360962335562"><ele>429.16666666666663</ele><time>2026-03-29T09:19:55Z</time></trkpt><trkpt lat="40.04110611546698" lon="9.621304184100872"><ele>434.0</ele><time>2026-03-29T09:19:56Z</time></trkpt><trkpt lat="40.04120825402151" lon="9.621198179653055"><ele>436.79999999999995</ele><time>2026-03-29T09:19:58Z</time></trkpt><trkpt lat="40.04132687021732" lon="9.621102507947159"><ele>439.59999999999997</ele><time>2026-03-29T09:20:00Z</time></trkpt><trkpt lat="40.041386931107766" lon="9.621058736713612"><ele>442.4</ele><time>2026-03-29T09:20:01Z</time></trkpt><trkpt lat="40.04145899808718" lon="9.621003928736224"><ele>445.2</ele><time>2026-03-29T09:20:02Z</time></trkpt><trkpt lat="40.04152120364282" lon="9.620928564463036"><ele>448.0</ele><time>2026-03-29T09:20:03Z</time></trkpt><trkpt lat="40.041587652419906" lon="9.620842201309777"><ele>446.50000000000006</ele><time>2026-03-29T09:20:04Z</time></trkpt><trkpt lat="40.041650284674354" lon="9.620771217685105"><ele>445.0</ele><time>2026-03-29T09:20:05Z</time></trkpt><trkpt lat="40.04171602136536" lon="9.620693621651785"><ele>443.5</ele><time>2026-03-29T09:20:06Z</time></trkpt><trkpt lat="40.041787915928126" lon="9.620618546265108"><ele>442.0</ele><time>2026-03-29T09:20:07Z</time></trkpt><trkpt lat="40.041853932163065" lon="9.62055463178739"><ele>440.50000000000006</ele><time>2026-03-29T09:20:08Z</time></trkpt><trkpt lat="40.041921260608405" lon="9.620484685919111"><ele>439.0</ele><time>2026-03-29T09:20:09Z</time></trkpt><trkpt lat="40.04199620579582" lon="9.62043118033184"><ele>439.0</ele><time>2026-03-29T09:20:10Z</time></trkpt><trkpt lat="40.04205387226509" lon="9.620366152728641"><ele>439.0</ele><time>2026-03-29T09:20:11Z</time></trkpt><trkpt lat="40.04212365399035" lon="9.620315758841294"><ele>439.0</ele><time>2026-03-29T09:20:12Z</time></trkpt><trkpt lat="40.042191062935714" lon="9.620268548694021"><ele>439.0</ele><time>2026-03-29T09:20:13Z</time></trkpt><trkpt lat="40.04225939418369" lon="9.62023258538019"><ele>439.0</ele><time>2026-03-29T09:20:14Z</time></trkpt><trkpt lat="40.04232050838299" lon="9.62019762940075"><ele>439.0</ele><time>2026-03-29T09:20:15Z</time></trkpt><trkpt lat="40.04238071008512" lon="9.620156503962352"><ele>439.0</ele><time>2026-03-29T09:20:16Z</time></trkpt><trkpt lat="40.04243541834678" lon="9.620107193641248"><ele>442.2</ele><time>2026-03-29T09:20:17Z</time></trkpt><trkpt lat="40.042510391626635" lon="9.620002897482902"><ele>445.4</ele><time>2026-03-29T09:20:19Z</time></trkpt><trkpt lat="40.04262361300173" lon="9.619931885332583"><ele>448.6</ele><time>2026-03-29T09:20:21Z</time></trkpt><trkpt lat="40.04274721156307" lon="9.619910159153152"><ele>451.8</ele><time>2026-03-29T09:20:23Z</time></trkpt><trkpt lat="40.042817575816414" lon="9.619901169591209"><ele>455.0</ele><time>2026-03-29T09:20:24Z</time></trkpt><trkpt lat="40.04289800901684" lon="9.61988382525789"><ele>454.99999999999994</ele><time>2026-03-29T09:20:25Z</time></trkpt><trkpt lat="40.042971251659885" lon="9.61985309163205"><ele>455.0</ele><time>2026-03-29T09:20:26Z</time></trkpt><trkpt lat="40.04304187100586" lon="9.61981484310217"><ele>455.0</ele><time>2026-03-29T09:20:27Z</time></trkpt><trkpt lat="40.04311503627915" lon="9.619776117417082"><ele>455.0</ele><time>2026-03-29T09:20:28Z</time></trkpt><trkpt lat="40.04318909498989" lon="9.61973504529749"><ele>454.99999999999994</ele><time>2026-03-29T09:20:29Z</time></trkpt><trkpt lat="40.043266084749085" lon="9.619694333103418"><ele>455.0</ele><time>2026-03-29T09:20:30Z</time></trkpt><trkpt lat="40.04334449200381" lon="9.619652859477252"><ele>454.3333333333333</ele><time>2026-03-29T09:20:31Z</time></trkpt><trkpt lat="40.04341680107019" lon="9.619618542708976"><ele>453.66666666666663</ele><time>2026-03-29T09:20:32Z</time></trkpt><trkpt lat="40.04349143440918" lon="9.619582997083993"><ele>453.0</ele><time>2026-03-29T09:20:33Z</time></trkpt><trkpt lat="40.04357022054684" lon="9.61955963578041"><ele>452.33333333333337</ele><time>2026-03-29T09:20:34Z</time></trkpt><trkpt lat="40.04364966418612" lon="9.619521206527155"><ele>451.6666666666667</ele><time>2026-03-29T09:20:36Z</time></trkpt><trkpt lat="40.043582436143126" lon="9.61943225272833"><ele>451.0</ele><time>2026-03-29T09:20:39Z</time></trkpt><trkpt lat="40.043454463743075" lon="9.61946830285697"><ele>455.33333333333337</ele><time>2026-03-29T09:20:41Z</time></trkpt><trkpt lat="40.04337841382026" lon="9.619481678837086"><ele>459.6666666666667</ele><time>2026-03-29T09:20:41.999Z</time></trkpt><trkpt lat="40.04330988350892" lon="9.619469138549325"><ele>464.0</ele><time>2026-03-29T09:20:42.999Z</time></trkpt><trkpt lat="40.04323762893734" lon="9.619473990429361"><ele>468.33333333333337</ele><time>2026-03-29T09:20:43.999Z</time></trkpt><trkpt lat="40.043165064135096" lon="9.619474943159588"><ele>472.6666666666667</ele><time>2026-03-29T09:20:44.999Z</time></trkpt><trkpt lat="40.04308276916061" lon="9.619470759271271"><ele>477.0</ele><time>2026-03-29T09:20:45.999Z</time></trkpt><trkpt lat="40.04299287715551" lon="9.619475704562774"><ele>477.0</ele><time>2026-03-29T09:20:46.999Z</time></trkpt><trkpt lat="40.04290074403049" lon="9.619468080975434"><ele>477.00000000000006</ele><time>2026-03-29T09:20:47.999Z</time></trkpt><trkpt lat="40.04280745349503" lon="9.619452587748405"><ele>477.00000000000006</ele><time>2026-03-29T09:20:48.999Z</time></trkpt><trkpt lat="40.04270957371114" lon="9.61944394706953"><ele>477.0</ele><time>2026-03-29T09:20:49.999Z</time></trkpt><trkpt lat="40.04261161160655" lon="9.619421238370307"><ele>477.0</ele><time>2026-03-29T09:20:50.999Z</time></trkpt><trkpt lat="40.04251329715297" lon="9.619404102705102"><ele>477.0</ele><time>2026-03-29T09:20:51.999Z</time></trkpt><trkpt lat="40.04243207541211" lon="9.619404380099448"><ele>477.0</ele><time>2026-03-29T09:20:52.999Z</time></trkpt><trkpt lat="40.042372379047706" lon="9.619440790101532"><ele>477.0</ele><time>2026-03-29T09:20:53.999Z</time></trkpt><trkpt lat="40.04235026079365" lon="9.619356037203362"><ele>477.0</ele><time>2026-03-29T09:20:57.999Z</time></trkpt><trkpt lat="40.042446256302114" lon="9.619307759106333"><ele>477.0</ele><time>2026-03-29T09:20:59.999Z</time></trkpt><trkpt lat="40.04251135354561" lon="9.619307907081026"><ele>477.0</ele><time>2026-03-29T09:21:00.999Z</time></trkpt><trkpt lat="40.04257680753744" lon="9.619290921589283"><ele>477.0</ele><time>2026-03-29T09:21:01.999Z</time></trkpt><trkpt lat="40.04264637249711" lon="9.619260898144782"><ele>476.99999999999994</ele><time>2026-03-29T09:21:02.999Z</time></trkpt><trkpt lat="40.04271329818534" lon="9.619237904150348"><ele>477.0</ele><time>2026-03-29T09:21:03.999Z</time></trkpt><trkpt lat="40.04277580287171" lon="9.619213261734885"><ele>477.0</ele><time>2026-03-29T09:21:04.999Z</time></trkpt><trkpt lat="40.042847114079144" lon="9.619182748374497"><ele>476.99999999999994</ele><time>2026-03-29T09:21:05.999Z</time></trkpt><trkpt lat="40.042913033072956" lon="9.619161277064615"><ele>477.0</ele><time>2026-03-29T09:21:06.999Z</time></trkpt><trkpt lat="40.04298134307537" lon="9.619128743386876"><ele>477.0</ele><time>2026-03-29T09:21:07.999Z</time></trkpt><trkpt lat="40.04306226641268" lon="9.61909332589819"><ele>477.0</ele><time>2026-03-29T09:21:08.999Z</time></trkpt><trkpt lat="40.043133449075036" lon="9.61905129269209"><ele>477.0</ele><time>2026-03-29T09:21:09.999Z</time></trkpt><trkpt lat="40.04321849402619" lon="9.619000916592817"><ele>477.0</ele><time>2026-03-29T09:21:10.999Z</time></trkpt><trkpt lat="40.043300144005016" lon="9.618958903516164"><ele>477.0</ele><time>2026-03-29T09:21:11.999Z</time></trkpt><trkpt lat="40.04338670212009" lon="9.618921213549678"><ele>477.0</ele><time>2026-03-29T09:21:12.999Z</time></trkpt><trkpt lat="40.04347071510517" lon="9.618881213576485"><ele>477.0</ele><time>2026-03-29T09:21:13.999Z</time></trkpt><trkpt lat="40.04355201328563" lon="9.618845297503002"><ele>478.0</ele><time>2026-03-29T09:21:14.999Z</time></trkpt><trkpt lat="40.04362819385639" lon="9.618797410495421"><ele>479.0</ele><time>2026-03-29T09:21:15.999Z</time></trkpt><trkpt lat="40.043703416241875" lon="9.618755653407813"><ele>480.0</ele><time>2026-03-29T09:21:16.999Z</time></trkpt><trkpt lat="40.0437787404946" lon="9.618721761678756"><ele>481.0</ele><time>2026-03-29T09:21:17.999Z</time></trkpt><trkpt lat="40.04385207143304" lon="9.618677379345707"><ele>482.0</ele><time>2026-03-29T09:21:18.999Z</time></trkpt><trkpt lat="40.04392270478232" lon="9.618643708862539"><ele>483.0</ele><time>2026-03-29T09:21:19.999Z</time></trkpt><trkpt lat="40.04398325005338" lon="9.618611073764487"><ele>486.3333333333333</ele><time>2026-03-29T09:21:20.999Z</time></trkpt><trkpt lat="40.04396285297419" lon="9.618511605087654"><ele>489.66666666666663</ele><time>2026-03-29T09:21:23.999Z</time></trkpt><trkpt lat="40.04387141194815" lon="9.6185024215202"><ele>493.0</ele><time>2026-03-29T09:21:25.999Z</time></trkpt><trkpt lat="40.043748484326336" lon="9.618539174302454"><ele>496.3333333333333</ele><time>2026-03-29T09:21:27.999Z</time></trkpt><trkpt lat="40.043678818596064" lon="9.618540169321706"><ele>499.66666666666663</ele><time>2026-03-29T09:21:28.999Z</time></trkpt><trkpt lat="40.043609681207776" lon="9.618525259287805"><ele>503.0</ele><time>2026-03-29T09:21:29.999Z</time></trkpt><trkpt lat="40.04354516522185" lon="9.618499984006627"><ele>502.99999999999994</ele><time>2026-03-29T09:21:30.999Z</time></trkpt><trkpt lat="40.043477475938005" lon="9.618476384040246"><ele>503.0</ele><time>2026-03-29T09:21:31.999Z</time></trkpt><trkpt lat="40.04341131339011" lon="9.61844693602905"><ele>503.0</ele><time>2026-03-29T09:21:32.999Z</time></trkpt><trkpt lat="40.04330431891315" lon="9.618402325360144"><ele>503.0</ele><time>2026-03-29T09:21:34.999Z</time></trkpt><trkpt lat="40.043293295348896" lon="9.618306195203875"><ele>502.99999999999994</ele><time>2026-03-29T09:21:36.999Z</time></trkpt><trkpt lat="40.04337240538355" lon="9.61825232821227"><ele>503.0</ele><time>2026-03-29T09:21:39Z</time></trkpt><trkpt lat="40.04348295441911" lon="9.618279113105176"><ele>502.99999999999994</ele><time>2026-03-29T09:21:41Z</time></trkpt><trkpt lat="40.043604700575266" lon="9.618275238847652"><ele>503.0</ele><time>2026-03-29T09:21:43Z</time></trkpt><trkpt lat="40.04368309761566" lon="9.61825939207313"><ele>503.0</ele><time>2026-03-29T09:21:44Z</time></trkpt><trkpt lat="40.04375649240821" lon="9.6182380003054"><ele>503.0</ele><time>2026-03-29T09:21:45Z</time></trkpt><trkpt lat="40.04383385799082" lon="9.618213723529593"><ele>502.99999999999994</ele><time>2026-03-29T09:21:46Z</time></trkpt><trkpt lat="40.04391101897298" lon="9.618201832987062"><ele>503.0</ele><time>2026-03-29T09:21:47Z</time></trkpt><trkpt lat="40.04399535672377" lon="9.618172510766454"><ele>504.2</ele><time>2026-03-29T09:21:48Z</time></trkpt><trkpt lat="40.044140043010714" lon="9.618092263474459"><ele>505.4</ele><time>2026-03-29T09:21:50Z</time></trkpt><trkpt lat="40.044219268856814" lon="9.618041346738794"><ele>506.59999999999997</ele><time>2026-03-29T09:21:51Z</time></trkpt><trkpt lat="40.04430451641927" lon="9.617996191156005"><ele>507.79999999999995</ele><time>2026-03-29T09:21:52Z</time></trkpt><trkpt lat="40.04439067097737" lon="9.617960743950185"><ele>509.0</ele><time>2026-03-29T09:21:53Z</time></trkpt><trkpt lat="40.04447733589043" lon="9.617927219048196"><ele>509.0</ele><time>2026-03-29T09:21:54Z</time></trkpt><trkpt lat="40.04455956945335" lon="9.617895733844962"><ele>509.0</ele><time>2026-03-29T09:21:55Z</time></trkpt><trkpt lat="40.04464655854411" lon="9.617869517984959"><ele>509.0</ele><time>2026-03-29T09:21:56Z</time></trkpt><trkpt lat="40.04474009289645" lon="9.61783734087023"><ele>509.0</ele><time>2026-03-29T09:21:57Z</time></trkpt><trkpt lat="40.04484235721155" lon="9.617797172337992"><ele>509.0</ele><time>2026-03-29T09:21:58Z</time></trkpt><trkpt lat="40.04493435776938" lon="9.617770864257679"><ele>513.6</ele><time>2026-03-29T09:21:59Z</time></trkpt><trkpt lat="40.04502968034219" lon="9.61773472863993"><ele>518.2</ele><time>2026-03-29T09:22:00Z</time></trkpt><trkpt lat="40.045124511306476" lon="9.617696046184392"><ele>522.8000000000001</ele><time>2026-03-29T09:22:01Z</time></trkpt><trkpt lat="40.04521631096128" lon="9.617652578475667"><ele>527.4</ele><time>2026-03-29T09:22:02Z</time></trkpt><trkpt lat="40.04530505697395" lon="9.617602249268774"><ele>532.0</ele><time>2026-03-29T09:22:03Z</time></trkpt><trkpt lat="40.04539134485463" lon="9.617539348005447"><ele>532.0</ele><time>2026-03-29T09:22:04Z</time></trkpt><trkpt lat="40.04547665673942" lon="9.617480770154149"><ele>532.0</ele><time>2026-03-29T09:22:05Z</time></trkpt><trkpt lat="40.045559243878735" lon="9.617426153541492"><ele>532.0</ele><time>2026-03-29T09:22:06Z</time></trkpt><trkpt lat="40.04564800006449" lon="9.61736924861781"><ele>532.0</ele><time>2026-03-29T09:22:07Z</time></trkpt><trkpt lat="40.04572830957866" lon="9.617307037694438"><ele>532.0</ele><time>2026-03-29T09:22:08Z</time></trkpt><trkpt lat="40.04581262338103" lon="9.617247809441334"><ele>530.0</ele><time>2026-03-29T09:22:09Z</time></trkpt><trkpt lat="40.04589566980275" lon="9.617195966802893"><ele>528.0</ele><time>2026-03-29T09:22:10Z</time></trkpt><trkpt lat="40.04598418502895" lon="9.617147859316066"><ele>526.0</ele><time>2026-03-29T09:22:11Z</time></trkpt><trkpt lat="40.0460701187502" lon="9.617087018492086"><ele>524.0</ele><time>2026-03-29T09:22:12Z</time></trkpt><trkpt lat="40.04615876117051" lon="9.61702207509071"><ele>522.0</ele><time>2026-03-29T09:22:13Z</time></trkpt><trkpt lat="40.04624593774773" lon="9.616962038358055"><ele>525.6</ele><time>2026-03-29T09:22:14Z</time></trkpt><trkpt lat="40.046339414635234" lon="9.616890667481087"><ele>529.2</ele><time>2026-03-29T09:22:15Z</time></trkpt><trkpt lat="40.046425817382975" lon="9.61682468614774"><ele>532.8</ele><time>2026-03-29T09:22:16Z</time></trkpt><trkpt lat="40.0465106306979" lon="9.616762367546587"><ele>536.4</ele><time>2026-03-29T09:22:17Z</time></trkpt><trkpt lat="40.0465932458629" lon="9.61668715818439"><ele>540.0</ele><time>2026-03-29T09:22:18Z</time></trkpt><trkpt lat="40.04667097999031" lon="9.616600944338794"><ele>540.0</ele><time>2026-03-29T09:22:19Z</time></trkpt><trkpt lat="40.046752176296216" lon="9.616518507098894"><ele>540.0</ele><time>2026-03-29T09:22:20Z</time></trkpt><trkpt lat="40.04683116908585" lon="9.616454835290858"><ele>540.0</ele><time>2026-03-29T09:22:21Z</time></trkpt><trkpt lat="40.046924405298974" lon="9.616388087485692"><ele>540.0</ele><time>2026-03-29T09:22:22Z</time></trkpt><trkpt lat="40.046996923429084" lon="9.616306995044562"><ele>540.0</ele><time>2026-03-29T09:22:23Z</time></trkpt><trkpt lat="40.047050983599846" lon="9.616254270633467"><ele>540.0</ele><time>2026-03-29T09:22:24Z</time></trkpt><trkpt lat="40.04711706866291" lon="9.61628515583157"><ele>540.0</ele><time>2026-03-29T09:22:27Z</time></trkpt><trkpt lat="40.047155493628985" lon="9.616414960059716"><ele>540.0</ele><time>2026-03-29T09:22:29Z</time></trkpt><trkpt lat="40.04715510891916" lon="9.616504234481273"><ele>540.0</ele><time>2026-03-29T09:22:30Z</time></trkpt><trkpt lat="40.047169789034875" lon="9.616586906821633"><ele>540.0</ele><time>2026-03-29T09:22:31Z</time></trkpt><trkpt lat="40.047216158635905" lon="9.616663951385647"><ele>540.0</ele><time>2026-03-29T09:22:32Z</time></trkpt><trkpt lat="40.047269015665755" lon="9.616750380716041"><ele>540.0</ele><time>2026-03-29T09:22:33Z</time></trkpt><trkpt lat="40.04733022857584" lon="9.616835521724191"><ele>540.0</ele><time>2026-03-29T09:22:34Z</time></trkpt><trkpt lat="40.047390078442135" lon="9.616930737090417"><ele>540.0</ele><time>2026-03-29T09:22:35Z</time></trkpt><trkpt lat="40.047451762816" lon="9.617011415409744"><ele>540.0</ele><time>2026-03-29T09:22:36Z</time></trkpt><trkpt lat="40.047513481832084" lon="9.617086066252794"><ele>540.0</ele><time>2026-03-29T09:22:37Z</time></trkpt><trkpt lat="40.04756569123411" lon="9.617156485228396"><ele>540.0</ele><time>2026-03-29T09:22:38Z</time></trkpt><trkpt lat="40.04761306174602" lon="9.617223520771407"><ele>538.8333333333334</ele><time>2026-03-29T09:22:39Z</time></trkpt><trkpt lat="40.04765547042348" lon="9.61728497499994"><ele>537.6666666666666</ele><time>2026-03-29T09:22:40Z</time></trkpt><trkpt lat="40.04771062837491" lon="9.617343048493447"><ele>536.5</ele><time>2026-03-29T09:22:41Z</time></trkpt><trkpt lat="40.047771845412754" lon="9.617395948966802"><ele>535.3333333333333</ele><time>2026-03-29T09:22:42Z</time></trkpt><trkpt lat="40.04784463566896" lon="9.617444768139505"><ele>534.1666666666666</ele><time>2026-03-29T09:22:43Z</time></trkpt><trkpt lat="40.04792449359605" lon="9.617480023485065"><ele>533.0</ele><time>2026-03-29T09:22:44Z</time></trkpt><trkpt lat="40.04800604858773" lon="9.617495569837946"><ele>533.0</ele><time>2026-03-29T09:22:45Z</time></trkpt><trkpt lat="40.04809489268" lon="9.61749095955368"><ele>533.0</ele><time>2026-03-29T09:22:46Z</time></trkpt><trkpt lat="40.048192173435574" lon="9.617480613095534"><ele>533.0</ele><time>2026-03-29T09:22:47Z</time></trkpt><trkpt lat="40.04828949925965" lon="9.61746417966452"><ele>533.0</ele><time>2026-03-29T09:22:48Z</time></trkpt><trkpt lat="40.04838679455239" lon="9.61744288391703"><ele>533.0</ele><time>2026-03-29T09:22:48.999Z</time></trkpt><trkpt lat="40.048482124936484" lon="9.617422607144333"><ele>536.1999999999999</ele><time>2026-03-29T09:22:49.999Z</time></trkpt><trkpt lat="40.04857894219855" lon="9.617409719987418"><ele>539.4</ele><time>2026-03-29T09:22:50.999Z</time></trkpt><trkpt lat="40.04866310565303" lon="9.617395252762877"><ele>542.5999999999999</ele><time>2026-03-29T09:22:51.999Z</time></trkpt><trkpt lat="40.04875770357755" lon="9.617386371640432"><ele>545.8</ele><time>2026-03-29T09:22:52.999Z</time></trkpt><trkpt lat="40.04885424840705" lon="9.617398913793657"><ele>549.0</ele><time>2026-03-29T09:22:53.999Z</time></trkpt><trkpt lat="40.04894287231033" lon="9.617412524425971"><ele>549.0</ele><time>2026-03-29T09:22:54.999Z</time></trkpt><trkpt lat="40.0490241663773" lon="9.617447441672482"><ele>549.0</ele><time>2026-03-29T09:22:55.999Z</time></trkpt><trkpt lat="40.04910152868328" lon="9.617495196725757"><ele>549.0</ele><time>2026-03-29T09:22:56.999Z</time></trkpt><trkpt lat="40.049178080352455" lon="9.61753001963714"><ele>549.0</ele><time>2026-03-29T09:22:57.999Z</time></trkpt><trkpt lat="40.04926224730276" lon="9.617561729541073"><ele>549.0</ele><time>2026-03-29T09:22:58.999Z</time></trkpt><trkpt lat="40.04934059015387" lon="9.617570140587954"><ele>549.0</ele><time>2026-03-29T09:22:59.999Z</time></trkpt><trkpt lat="40.049417443997235" lon="9.617537675921124"><ele>549.6666666666666</ele><time>2026-03-29T09:23:00.999Z</time></trkpt><trkpt lat="40.04947843255214" lon="9.617471227466698"><ele>550.3333333333334</ele><time>2026-03-29T09:23:01.999Z</time></trkpt><trkpt lat="40.049530061210255" lon="9.617375656115113"><ele>551.0</ele><time>2026-03-29T09:23:02.999Z</time></trkpt><trkpt lat="40.0495797650408" lon="9.617273014293415"><ele>551.6666666666667</ele><time>2026-03-29T09:23:03.999Z</time></trkpt><trkpt lat="40.04963587166054" lon="9.617177583732513"><ele>552.3333333333334</ele><time>2026-03-29T09:23:04.999Z</time></trkpt><trkpt lat="40.04969321843424" lon="9.61708057299223"><ele>553.0</ele><time>2026-03-29T09:23:05.999Z</time></trkpt><trkpt lat="40.04974195453864" lon="9.616983462969188"><ele>555.1666666666667</ele><time>2026-03-29T09:23:06.999Z</time></trkpt><trkpt lat="40.04979090442638" lon="9.616888310817426"><ele>557.3333333333334</ele><time>2026-03-29T09:23:07.999Z</time></trkpt><trkpt lat="40.04984269668047" lon="9.616815717399094"><ele>559.5</ele><time>2026-03-29T09:23:08.999Z</time></trkpt><trkpt lat="40.049907107461486" lon="9.616765933601009"><ele>561.6666666666666</ele><time>2026-03-29T09:23:09.999Z</time></trkpt><trkpt lat="40.0499872647318" lon="9.616742124222302"><ele>563.8333333333333</ele><time>2026-03-29T09:23:10.999Z</time></trkpt><trkpt lat="40.05007005191534" lon="9.616716499956212"><ele>566.0</ele><time>2026-03-29T09:23:11.999Z</time></trkpt><trkpt lat="40.05014834088091" lon="9.616678329351355"><ele>566.0</ele><time>2026-03-29T09:23:12.999Z</time></trkpt><trkpt lat="40.05022515132472" lon="9.616621701538685"><ele>566.0</ele><time>2026-03-29T09:23:13.999Z</time></trkpt><trkpt lat="40.05030444371951" lon="9.61655518358825"><ele>566.0</ele><time>2026-03-29T09:23:14.999Z</time></trkpt><trkpt lat="40.0503813212266" lon="9.616489089627976"><ele>566.0</ele><time>2026-03-29T09:23:15.999Z</time></trkpt><trkpt lat="40.05044026697403" lon="9.616421496672533"><ele>566.0</ele><time>2026-03-29T09:23:16.999Z</time></trkpt><trkpt lat="40.05056147860667" lon="9.616404326893983"><ele>566.0</ele><time>2026-03-29T09:23:18.999Z</time></trkpt><trkpt lat="40.0506543788287" lon="9.616431724115738"><ele>566.0</ele><time>2026-03-29T09:23:20.999Z</time></trkpt><trkpt lat="40.050708736126005" lon="9.61652909232613"><ele>566.0</ele><time>2026-03-29T09:23:22.999Z</time></trkpt><trkpt lat="40.050721828179476" lon="9.616715670768494"><ele>566.0</ele><time>2026-03-29T09:23:24.999Z</time></trkpt><trkpt lat="40.050724543259186" lon="9.616819036797706"><ele>566.0</ele><time>2026-03-29T09:23:25.999Z</time></trkpt><trkpt lat="40.05075046442696" lon="9.616940010831943"><ele>565.1666666666666</ele><time>2026-03-29T09:23:26.999Z</time></trkpt><trkpt lat="40.05078978949717" lon="9.617027474970877"><ele>564.3333333333333</ele><time>2026-03-29T09:23:27.999Z</time></trkpt><trkpt lat="40.05082602310208" lon="9.617126992229023"><ele>563.5</ele><time>2026-03-29T09:23:28.999Z</time></trkpt><trkpt lat="40.050860429312" lon="9.617211561925645"><ele>562.6666666666666</ele><time>2026-03-29T09:23:29.999Z</time></trkpt><trkpt lat="40.05091055074248" lon="9.617304598121539"><ele>561.8333333333334</ele><time>2026-03-29T09:23:30.999Z</time></trkpt><trkpt lat="40.050957637467214" lon="9.617388103954566"><ele>561.0</ele><time>2026-03-29T09:23:31.999Z</time></trkpt><trkpt lat="40.05101130433948" lon="9.617458520009693"><ele>561.0</ele><time>2026-03-29T09:23:32.999Z</time></trkpt><trkpt lat="40.05107066306377" lon="9.617525935970521"><ele>561.0</ele><time>2026-03-29T09:23:33.999Z</time></trkpt><trkpt lat="40.05113536994029" lon="9.61755229799102"><ele>561.0</ele><time>2026-03-29T09:23:34.999Z</time></trkpt><trkpt lat="40.05119812266962" lon="9.617540711101391"><ele>561.0</ele><time>2026-03-29T09:23:35.999Z</time></trkpt><trkpt lat="40.05126083166928" lon="9.617508352334253"><ele>561.0</ele><time>2026-03-29T09:23:36.999Z</time></trkpt><trkpt lat="40.05132297415159" lon="9.617473924066685"><ele>561.0</ele><time>2026-03-29T09:23:37.999Z</time></trkpt><trkpt lat="40.05138999681248" lon="9.617440197743802"><ele>561.0</ele><time>2026-03-29T09:23:38.999Z</time></trkpt><trkpt lat="40.05146522762388" lon="9.617408866397023"><ele>561.0</ele><time>2026-03-29T09:23:39.999Z</time></trkpt><trkpt lat="40.051535537344854" lon="9.617376938103156"><ele>561.0</ele><time>2026-03-29T09:23:40.999Z</time></trkpt><trkpt lat="40.051610711669" lon="9.617350046367864"><ele>561.0</ele><time>2026-03-29T09:23:41.999Z</time></trkpt><trkpt lat="40.05167718884559" lon="9.617332039462857"><ele>561.0</ele><time>2026-03-29T09:23:42.999Z</time></trkpt><trkpt lat="40.051742259224284" lon="9.617305541287774"><ele>561.0</ele><time>2026-03-29T09:23:43.999Z</time></trkpt><trkpt lat="40.051830140876575" lon="9.61728182488292"><ele>561.0</ele><time>2026-03-29T09:23:46Z</time></trkpt><trkpt lat="40.0519208628332" lon="9.617307823642442"><ele>559.6666666666666</ele><time>2026-03-29T09:23:48Z</time></trkpt><trkpt lat="40.051971809926656" lon="9.617408714901721"><ele>558.3333333333334</ele><time>2026-03-29T09:23:50Z</time></trkpt><trkpt lat="40.05199501174795" lon="9.617548438480272"><ele>557.0</ele><time>2026-03-29T09:23:52Z</time></trkpt><trkpt lat="40.05203335316881" lon="9.617624045585476"><ele>555.6666666666667</ele><time>2026-03-29T09:23:53Z</time></trkpt><trkpt lat="40.05208233086718" lon="9.6176932051316"><ele>554.3333333333334</ele><time>2026-03-29T09:23:54Z</time></trkpt><trkpt lat="40.05213215386315" lon="9.617764668568542"><ele>553.0</ele><time>2026-03-29T09:23:55Z</time></trkpt><trkpt lat="40.05218267693944" lon="9.617821708298951"><ele>553.0</ele><time>2026-03-29T09:23:56Z</time></trkpt><trkpt lat="40.052241752742496" lon="9.617863997474492"><ele>553.0</ele><time>2026-03-29T09:23:57Z</time></trkpt><trkpt lat="40.0523120980533" lon="9.617875138483114"><ele>553.0</ele><time>2026-03-29T09:23:58Z</time></trkpt><trkpt lat="40.05237722779634" lon="9.617874887231599"><ele>553.0</ele><time>2026-03-29T09:23:59Z</time></trkpt><trkpt lat="40.05244117489992" lon="9.617855742565627"><ele>553.0</ele><time>2026-03-29T09:24:00Z</time></trkpt><trkpt lat="40.05256167555547" lon="9.617822213415945"><ele>553.0</ele><time>2026-03-29T09:24:02Z</time></trkpt><trkpt lat="40.05262392161949" lon="9.617790809677066"><ele>559.75</ele><time>2026-03-29T09:24:03Z</time></trkpt><trkpt lat="40.05273811482115" lon="9.617757959196666"><ele>566.5</ele><time>2026-03-29T09:24:05Z</time></trkpt><trkpt lat="40.052821588952725" lon="9.617826443418187"><ele>573.25</ele><time>2026-03-29T09:24:07Z</time></trkpt><trkpt lat="40.05284728327853" lon="9.61797348651944"><ele>580.0</ele><time>2026-03-29T09:24:09Z</time></trkpt><trkpt lat="40.052874992091695" lon="9.61813206024099"><ele>580.0</ele><time>2026-03-29T09:24:11Z</time></trkpt><trkpt lat="40.05295646098033" lon="9.618288959342257"><ele>580.0</ele><time>2026-03-29T09:24:13Z</time></trkpt><trkpt lat="40.05300977646273" lon="9.618372437958936"><ele>580.0</ele><time>2026-03-29T09:24:14Z</time></trkpt><trkpt lat="40.05307415719599" lon="9.618452388868523"><ele>580.0</ele><time>2026-03-29T09:24:15Z</time></trkpt><trkpt lat="40.05314511260109" lon="9.618527943361695"><ele>580.0</ele><time>2026-03-29T09:24:16Z</time></trkpt><trkpt lat="40.05320900818121" lon="9.618587762513386"><ele>581.5</ele><time>2026-03-29T09:24:17Z</time></trkpt><trkpt lat="40.05325919551532" lon="9.618656237536548"><ele>583.0</ele><time>2026-03-29T09:24:18Z</time></trkpt><trkpt lat="40.05330495056651" lon="9.618739775942618"><ele>584.5</ele><time>2026-03-29T09:24:19Z</time></trkpt><trkpt lat="40.05333092079684" lon="9.61883470279029"><ele>586.0</ele><time>2026-03-29T09:24:20Z</time></trkpt><trkpt lat="40.0533646527931" lon="9.618930726808692"><ele>587.5</ele><time>2026-03-29T09:24:21Z</time></trkpt><trkpt lat="40.05339459045227" lon="9.61902310304076"><ele>589.0</ele><time>2026-03-29T09:24:22Z</time></trkpt><trkpt lat="40.05342112122643" lon="9.619099686346196"><ele>589.0</ele><time>2026-03-29T09:24:23Z</time></trkpt><trkpt lat="40.05351051485281" lon="9.619189281915304"><ele>589.0</ele><time>2026-03-29T09:24:25Z</time></trkpt><trkpt lat="40.05357536140285" lon="9.619213729169537"><ele>589.0</ele><time>2026-03-29T09:24:26Z</time></trkpt><trkpt lat="40.053647247804406" lon="9.619237782559809"><ele>589.0</ele><time>2026-03-29T09:24:27Z</time></trkpt><trkpt lat="40.05372947346064" lon="9.619268326836432"><ele>589.0</ele><time>2026-03-29T09:24:28Z</time></trkpt><trkpt lat="40.053800933416014" lon="9.619300362290772"><ele>589.0</ele><time>2026-03-29T09:24:29Z</time></trkpt><trkpt lat="40.05387328310553" lon="9.619344786217003"><ele>589.0</ele><time>2026-03-29T09:24:30Z</time></trkpt><trkpt lat="40.05393145484502" lon="9.619382953984347"><ele>589.0</ele><time>2026-03-29T09:24:31Z</time></trkpt><trkpt lat="40.05399402249511" lon="9.619443440010778"><ele>589.0</ele><time>2026-03-29T09:24:32Z</time></trkpt><trkpt lat="40.05407005593168" lon="9.619554272589792"><ele>589.0</ele><time>2026-03-29T09:24:34Z</time></trkpt><trkpt lat="40.05413001179663" lon="9.619670894022978"><ele>589.0</ele><time>2026-03-29T09:24:36Z</time></trkpt><trkpt lat="40.05417723968302" lon="9.619825614368525"><ele>589.5</ele><time>2026-03-29T09:24:38Z</time></trkpt><trkpt lat="40.05418526519127" lon="9.61992139603685"><ele>590.0</ele><time>2026-03-29T09:24:39Z</time></trkpt><trkpt lat="40.05419290592953" lon="9.620024591231662"><ele>590.5</ele><time>2026-03-29T09:24:40Z</time></trkpt><trkpt lat="40.05419617911192" lon="9.620117410882315"><ele>591.0</ele><time>2026-03-29T09:24:41Z</time></trkpt><trkpt lat="40.05418999546777" lon="9.620203069727518"><ele>591.5</ele><time>2026-03-29T09:24:42Z</time></trkpt><trkpt lat="40.054182866136756" lon="9.620338438650812"><ele>592.0</ele><time>2026-03-29T09:24:44Z</time></trkpt><trkpt lat="40.05418207411283" lon="9.620422017445975"><ele>592.0</ele><time>2026-03-29T09:24:45Z</time></trkpt><trkpt lat="40.054173779389394" lon="9.620519165400607"><ele>592.0</ele><time>2026-03-29T09:24:46Z</time></trkpt><trkpt lat="40.05417126460872" lon="9.620620378665453"><ele>592.0</ele><time>2026-03-29T09:24:47Z</time></trkpt><trkpt lat="40.05415896922349" lon="9.620727733729074"><ele>592.0</ele><time>2026-03-29T09:24:48Z</time></trkpt><trkpt lat="40.05413690448586" lon="9.620836300463463"><ele>592.0</ele><time>2026-03-29T09:24:49Z</time></trkpt><trkpt lat="40.05411022735844" lon="9.620949762194012"><ele>592.0</ele><time>2026-03-29T09:24:50Z</time></trkpt><trkpt lat="40.05408185351974" lon="9.6210594336571"><ele>584.1666666666667</ele><time>2026-03-29T09:24:51Z</time></trkpt><trkpt lat="40.05405624155816" lon="9.62115645041724"><ele>576.3333333333334</ele><time>2026-03-29T09:24:52Z</time></trkpt><trkpt lat="40.05404601203908" lon="9.621256620534377"><ele>568.5</ele><time>2026-03-29T09:24:53Z</time></trkpt><trkpt lat="40.05405221854447" lon="9.621374159902265"><ele>560.6666666666666</ele><time>2026-03-29T09:24:54Z</time></trkpt><trkpt lat="40.054059788334015" lon="9.621492582395911"><ele>552.8333333333333</ele><time>2026-03-29T09:24:55Z</time></trkpt><trkpt lat="40.05406604906987" lon="9.621628110453054"><ele>545.0</ele><time>2026-03-29T09:24:56Z</time></trkpt><trkpt lat="40.0540429030648" lon="9.6217438166085"><ele>545.0</ele><time>2026-03-29T09:24:57Z</time></trkpt><trkpt lat="40.054007101103025" lon="9.621861149741608"><ele>545.0</ele><time>2026-03-29T09:24:58Z</time></trkpt><trkpt lat="40.05397090725716" lon="9.621973053933504"><ele>545.0</ele><time>2026-03-29T09:24:59Z</time></trkpt><trkpt lat="40.053950333113754" lon="9.622096185511035"><ele>545.0</ele><time>2026-03-29T09:24:59.999Z</time></trkpt><trkpt lat="40.053924278040874" lon="9.622219022286648"><ele>545.0</ele><time>2026-03-29T09:25:00.999Z</time></trkpt><trkpt lat="40.053899131691416" lon="9.622336067689297"><ele>547.5</ele><time>2026-03-29T09:25:01.999Z</time></trkpt><trkpt lat="40.05387361485877" lon="9.622444857114743"><ele>550.0</ele><time>2026-03-29T09:25:02.999Z</time></trkpt><trkpt lat="40.05383616630324" lon="9.62253941414389"><ele>552.5</ele><time>2026-03-29T09:25:03.999Z</time></trkpt><trkpt lat="40.05380778246634" lon="9.62263303771846"><ele>555.0</ele><time>2026-03-29T09:25:04.999Z</time></trkpt><trkpt lat="40.05376314725484" lon="9.622720235958225"><ele>557.5</ele><time>2026-03-29T09:25:05.999Z</time></trkpt><trkpt lat="40.05372276141428" lon="9.62280280475837"><ele>560.0</ele><time>2026-03-29T09:25:06.999Z</time></trkpt><trkpt lat="40.05367753198677" lon="9.62288281912485"><ele>562.5</ele><time>2026-03-29T09:25:07.999Z</time></trkpt><trkpt lat="40.053630862731886" lon="9.62295786305625"><ele>565.0</ele><time>2026-03-29T09:25:08.999Z</time></trkpt><trkpt lat="40.05357286700025" lon="9.623025499234254"><ele>567.5</ele><time>2026-03-29T09:25:09.999Z</time></trkpt><trkpt lat="40.05350561549554" lon="9.623089263757144"><ele>570.0</ele><time>2026-03-29T09:25:10.999Z</time></trkpt><trkpt lat="40.053439789011094" lon="9.623162183964515"><ele>572.5</ele><time>2026-03-29T09:25:11.999Z</time></trkpt><trkpt lat="40.05338696115358" lon="9.623237966748045"><ele>575.0</ele><time>2026-03-29T09:25:12.999Z</time></trkpt><trkpt lat="40.05334919335916" lon="9.62331634109337"><ele>575.0</ele><time>2026-03-29T09:25:13.999Z</time></trkpt><trkpt lat="40.053345224668334" lon="9.623403749860108"><ele>575.0</ele><time>2026-03-29T09:25:14.999Z</time></trkpt><trkpt lat="40.05335794539576" lon="9.623488622200645"><ele>575.0</ele><time>2026-03-29T09:25:15.999Z</time></trkpt><trkpt lat="40.05339519150049" lon="9.623568908322616"><ele>575.0</ele><time>2026-03-29T09:25:16.999Z</time></trkpt><trkpt lat="40.05344922569402" lon="9.623648720632088"><ele>575.0</ele><time>2026-03-29T09:25:17.999Z</time></trkpt><trkpt lat="40.05351343134768" lon="9.623714011485209"><ele>575.0</ele><time>2026-03-29T09:25:18.999Z</time></trkpt><trkpt lat="40.053583031089346" lon="9.623793801505187"><ele>572.8</ele><time>2026-03-29T09:25:19.999Z</time></trkpt><trkpt lat="40.05365554147564" lon="9.62387129173985"><ele>570.6</ele><time>2026-03-29T09:25:20.999Z</time></trkpt><trkpt lat="40.05373928158037" lon="9.623950758240182"><ele>568.4</ele><time>2026-03-29T09:25:21.999Z</time></trkpt><trkpt lat="40.0538210691461" lon="9.624040413781506"><ele>566.2</ele><time>2026-03-29T09:25:22.999Z</time></trkpt><trkpt lat="40.05388835062295" lon="9.624137960178668"><ele>564.0</ele><time>2026-03-29T09:25:23.999Z</time></trkpt><trkpt lat="40.053947733922854" lon="9.624250636125252"><ele>564.0</ele><time>2026-03-29T09:25:24.999Z</time></trkpt><trkpt lat="40.054003918038156" lon="9.624359785176427"><ele>564.0</ele><time>2026-03-29T09:25:25.999Z</time></trkpt><trkpt lat="40.05406993794909" lon="9.624452903154662"><ele>564.0</ele><time>2026-03-29T09:25:26.999Z</time></trkpt><trkpt lat="40.054126492838385" lon="9.624557301941612"><ele>564.0</ele><time>2026-03-29T09:25:27.999Z</time></trkpt><trkpt lat="40.05415737874625" lon="9.624658279367"><ele>564.0</ele><time>2026-03-29T09:25:28.999Z</time></trkpt><trkpt lat="40.05418285447157" lon="9.624771486784411"><ele>565.8</ele><time>2026-03-29T09:25:29.999Z</time></trkpt><trkpt lat="40.054209960572656" lon="9.624887194910716"><ele>567.5999999999999</ele><time>2026-03-29T09:25:30.999Z</time></trkpt><trkpt lat="40.05424608948924" lon="9.625008734920712"><ele>569.4</ele><time>2026-03-29T09:25:31.999Z</time></trkpt><trkpt lat="40.0542847287115" lon="9.625123464334601"><ele>571.1999999999999</ele><time>2026-03-29T09:25:32.999Z</time></trkpt><trkpt lat="40.05431770854571" lon="9.625218651598333"><ele>573.0</ele><time>2026-03-29T09:25:33.999Z</time></trkpt><trkpt lat="40.05435254812207" lon="9.625355210925061"><ele>573.0</ele><time>2026-03-29T09:25:35.999Z</time></trkpt><trkpt lat="40.05439211064514" lon="9.625437754027455"><ele>573.0</ele><time>2026-03-29T09:25:37.999Z</time></trkpt><trkpt lat="40.05444259169684" lon="9.625492686039632"><ele>573.0</ele><time>2026-03-29T09:26:11Z</time></trkpt></trkseg></trk></gpx>